<?xml version="1.0" encoding="UTF-8" standalone="no" ?>
<gpx xmlns="http://www.topografix.com/GPX/1/1" xmlns:xsi="http://www.w3.org/2001/XMLSchema-instance" xsi:schemaLocation="http://www.topografix.com/GPX/1/1 http://www.topografix.com/GPX/1/1/gpx.xsd" version="1.1" creator="VisuGPX - https://www.visugpx.com">
  <metadata>
    <name>Boucle de Longes - Pilat</name>
    <desc><![CDATA[Une journée de 30 kilomètres environ, au départ de Longes dans le Pilat.]]></desc>
  </metadata>
  <wpt lat="45.5032" lon="4.68527">
    <ele>460.6992188</ele>
    <name><![CDATA[Parking cimetière]]></name>
  </wpt>
  <trk>
    <name><![CDATA[Boncle de Longes - Pilat]]></name>
    <trkseg>
      <trkpt lat="45.50325" lon="4.68541">
        <ele>469.2607422</ele>
        <time>2011-06-15T07:58:35Z</time>
      </trkpt>
      <trkpt lat="45.50322" lon="4.68544">
        <ele>460.1281738</ele>
        <time>2011-06-15T07:59:05Z</time>
      </trkpt>
      <trkpt lat="45.50322" lon="4.68544">
        <ele>460.6087646</ele>
        <time>2011-06-15T07:59:06Z</time>
      </trkpt>
      <trkpt lat="45.50335" lon="4.68572">
        <ele>459.647583</ele>
        <time>2011-06-15T07:59:25Z</time>
      </trkpt>
      <trkpt lat="45.50339" lon="4.68605">
        <ele>461.5701904</ele>
        <time>2011-06-15T07:59:41Z</time>
      </trkpt>
      <trkpt lat="45.50341" lon="4.68648">
        <ele>462.5313721</ele>
        <time>2011-06-15T08:00:01Z</time>
      </trkpt>
      <trkpt lat="45.50352" lon="4.68678">
        <ele>464.4541016</ele>
        <time>2011-06-15T08:00:17Z</time>
      </trkpt>
      <trkpt lat="45.5036" lon="4.68692">
        <ele>466.8574219</ele>
        <time>2011-06-15T08:00:25Z</time>
      </trkpt>
      <trkpt lat="45.50379" lon="4.68718">
        <ele>471.1833496</ele>
        <time>2011-06-15T08:00:42Z</time>
      </trkpt>
      <trkpt lat="45.50391" lon="4.68736">
        <ele>480.7966309</ele>
        <time>2011-06-15T08:00:54Z</time>
      </trkpt>
      <trkpt lat="45.5039" lon="4.68761">
        <ele>484.6418457</ele>
        <time>2011-06-15T08:01:04Z</time>
      </trkpt>
      <trkpt lat="45.50397" lon="4.68765">
        <ele>486.5644531</ele>
        <time>2011-06-15T08:01:07Z</time>
      </trkpt>
      <trkpt lat="45.504" lon="4.6878">
        <ele>492.3323975</ele>
        <time>2011-06-15T08:01:17Z</time>
      </trkpt>
      <trkpt lat="45.50399" lon="4.68789">
        <ele>496.1777344</ele>
        <time>2011-06-15T08:01:22Z</time>
      </trkpt>
      <trkpt lat="45.50402" lon="4.68814">
        <ele>481.2772217</ele>
        <time>2011-06-15T08:01:34Z</time>
      </trkpt>
      <trkpt lat="45.50418" lon="4.68839">
        <ele>479.3544922</ele>
        <time>2011-06-15T08:01:51Z</time>
      </trkpt>
      <trkpt lat="45.50443" lon="4.68835">
        <ele>483.6804199</ele>
        <time>2011-06-15T08:02:05Z</time>
      </trkpt>
      <trkpt lat="45.50458" lon="4.6883">
        <ele>483.1998291</ele>
        <time>2011-06-15T08:02:16Z</time>
      </trkpt>
      <trkpt lat="45.5046" lon="4.6883">
        <ele>482.2385254</ele>
        <time>2011-06-15T08:02:18Z</time>
      </trkpt>
      <trkpt lat="45.50458" lon="4.6882">
        <ele>479.3544922</ele>
        <time>2011-06-15T08:02:22Z</time>
      </trkpt>
      <trkpt lat="45.50462" lon="4.68834">
        <ele>477.9124756</ele>
        <time>2011-06-15T08:03:25Z</time>
      </trkpt>
      <trkpt lat="45.50482" lon="4.68829">
        <ele>487.0450439</ele>
        <time>2011-06-15T08:03:37Z</time>
      </trkpt>
      <trkpt lat="45.50481" lon="4.68828">
        <ele>488.4871826</ele>
        <time>2011-06-15T08:03:39Z</time>
      </trkpt>
      <trkpt lat="45.50491" lon="4.68818">
        <ele>494.7355957</ele>
        <time>2011-06-15T08:03:46Z</time>
      </trkpt>
      <trkpt lat="45.50497" lon="4.68834">
        <ele>492.8129883</ele>
        <time>2011-06-15T08:04:00Z</time>
      </trkpt>
      <trkpt lat="45.50497" lon="4.6883">
        <ele>492.8129883</ele>
        <time>2011-06-15T08:04:06Z</time>
      </trkpt>
      <trkpt lat="45.50496" lon="4.68815">
        <ele>494.7355957</ele>
        <time>2011-06-15T08:04:17Z</time>
      </trkpt>
      <trkpt lat="45.50514" lon="4.68789">
        <ele>502.4261475</ele>
        <time>2011-06-15T08:04:35Z</time>
      </trkpt>
      <trkpt lat="45.5053" lon="4.68778">
        <ele>512.5200195</ele>
        <time>2011-06-15T08:04:49Z</time>
      </trkpt>
      <trkpt lat="45.50536" lon="4.68778">
        <ele>516.8459473</ele>
        <time>2011-06-15T08:04:55Z</time>
      </trkpt>
      <trkpt lat="45.50542" lon="4.68747">
        <ele>515.8846436</ele>
        <time>2011-06-15T08:05:08Z</time>
      </trkpt>
      <trkpt lat="45.50544" lon="4.68731">
        <ele>517.807251</ele>
        <time>2011-06-15T08:05:13Z</time>
      </trkpt>
      <trkpt lat="45.50533" lon="4.68717">
        <ele>496.6583252</ele>
        <time>2011-06-15T08:05:25Z</time>
      </trkpt>
      <trkpt lat="45.50519" lon="4.68687">
        <ele>496.1777344</ele>
        <time>2011-06-15T08:05:41Z</time>
      </trkpt>
      <trkpt lat="45.50504" lon="4.68659">
        <ele>478.3931885</ele>
        <time>2011-06-15T08:06:00Z</time>
      </trkpt>
      <trkpt lat="45.50486" lon="4.68638">
        <ele>470.7026367</ele>
        <time>2011-06-15T08:06:17Z</time>
      </trkpt>
      <trkpt lat="45.50474" lon="4.68626">
        <ele>468.2993164</ele>
        <time>2011-06-15T08:06:27Z</time>
      </trkpt>
      <trkpt lat="45.50458" lon="4.686">
        <ele>467.8187256</ele>
        <time>2011-06-15T08:06:44Z</time>
      </trkpt>
      <trkpt lat="45.5045" lon="4.68581">
        <ele>467.3381348</ele>
        <time>2011-06-15T08:06:55Z</time>
      </trkpt>
      <trkpt lat="45.50449" lon="4.68577">
        <ele>467.3381348</ele>
        <time>2011-06-15T08:06:58Z</time>
      </trkpt>
      <trkpt lat="45.50447" lon="4.68572">
        <ele>463.012085</ele>
        <time>2011-06-15T08:07:06Z</time>
      </trkpt>
      <trkpt lat="45.50448" lon="4.68542">
        <ele>449.072998</ele>
        <time>2011-06-15T08:07:27Z</time>
      </trkpt>
      <trkpt lat="45.50453" lon="4.68516">
        <ele>447.6309814</ele>
        <time>2011-06-15T08:07:40Z</time>
      </trkpt>
      <trkpt lat="45.50462" lon="4.68479">
        <ele>444.7470703</ele>
        <time>2011-06-15T08:07:59Z</time>
      </trkpt>
      <trkpt lat="45.50463" lon="4.68446">
        <ele>440.9018555</ele>
        <time>2011-06-15T08:08:14Z</time>
      </trkpt>
      <trkpt lat="45.50459" lon="4.68411">
        <ele>438.0178223</ele>
        <time>2011-06-15T08:08:30Z</time>
      </trkpt>
      <trkpt lat="45.50459" lon="4.68407">
        <ele>437.5371094</ele>
        <time>2011-06-15T08:08:47Z</time>
      </trkpt>
      <trkpt lat="45.50455" lon="4.68381">
        <ele>436.5759277</ele>
        <time>2011-06-15T08:09:16Z</time>
      </trkpt>
      <trkpt lat="45.50443" lon="4.68343">
        <ele>434.1726074</ele>
        <time>2011-06-15T08:09:36Z</time>
      </trkpt>
      <trkpt lat="45.50441" lon="4.68336">
        <ele>433.6918945</ele>
        <time>2011-06-15T08:09:39Z</time>
      </trkpt>
      <trkpt lat="45.50427" lon="4.6831">
        <ele>431.769165</ele>
        <time>2011-06-15T08:09:55Z</time>
      </trkpt>
      <trkpt lat="45.50416" lon="4.68289">
        <ele>429.8465576</ele>
        <time>2011-06-15T08:10:09Z</time>
      </trkpt>
      <trkpt lat="45.50403" lon="4.68268">
        <ele>429.3659668</ele>
        <time>2011-06-15T08:10:27Z</time>
      </trkpt>
      <trkpt lat="45.50386" lon="4.68234">
        <ele>427.4433594</ele>
        <time>2011-06-15T08:10:47Z</time>
      </trkpt>
      <trkpt lat="45.50372" lon="4.68214">
        <ele>425.520752</ele>
        <time>2011-06-15T08:10:59Z</time>
      </trkpt>
      <trkpt lat="45.50379" lon="4.68177">
        <ele>421.1948242</ele>
        <time>2011-06-15T08:11:13Z</time>
      </trkpt>
      <trkpt lat="45.504" lon="4.68126">
        <ele>420.2333984</ele>
        <time>2011-06-15T08:11:26Z</time>
      </trkpt>
      <trkpt lat="45.50415" lon="4.68098">
        <ele>422.6367188</ele>
        <time>2011-06-15T08:11:40Z</time>
      </trkpt>
      <trkpt lat="45.5043" lon="4.68064">
        <ele>426.4820557</ele>
        <time>2011-06-15T08:12:00Z</time>
      </trkpt>
      <trkpt lat="45.50435" lon="4.68048">
        <ele>426.4820557</ele>
        <time>2011-06-15T08:12:11Z</time>
      </trkpt>
      <trkpt lat="45.50446" lon="4.68009">
        <ele>426.9627686</ele>
        <time>2011-06-15T08:12:31Z</time>
      </trkpt>
      <trkpt lat="45.50454" lon="4.67962">
        <ele>424.0787354</ele>
        <time>2011-06-15T08:12:57Z</time>
      </trkpt>
      <trkpt lat="45.50459" lon="4.67933">
        <ele>420.2333984</ele>
        <time>2011-06-15T08:13:17Z</time>
      </trkpt>
      <trkpt lat="45.50462" lon="4.67905">
        <ele>413.0235596</ele>
        <time>2011-06-15T08:13:35Z</time>
      </trkpt>
      <trkpt lat="45.50463" lon="4.67899">
        <ele>412.0622559</ele>
        <time>2011-06-15T08:13:38Z</time>
      </trkpt>
      <trkpt lat="45.5047" lon="4.6788">
        <ele>409.1783447</ele>
        <time>2011-06-15T08:13:55Z</time>
      </trkpt>
      <trkpt lat="45.50475" lon="4.67857">
        <ele>407.2556152</ele>
        <time>2011-06-15T08:14:14Z</time>
      </trkpt>
      <trkpt lat="45.5048" lon="4.67822">
        <ele>405.3330078</ele>
        <time>2011-06-15T08:14:36Z</time>
      </trkpt>
      <trkpt lat="45.50481" lon="4.67811">
        <ele>404.8522949</ele>
        <time>2011-06-15T08:14:43Z</time>
      </trkpt>
      <trkpt lat="45.50488" lon="4.67791">
        <ele>402.9296875</ele>
        <time>2011-06-15T08:14:56Z</time>
      </trkpt>
      <trkpt lat="45.50488" lon="4.67789">
        <ele>402.4490967</ele>
        <time>2011-06-15T08:14:57Z</time>
      </trkpt>
      <trkpt lat="45.50497" lon="4.67755">
        <ele>400.5264893</ele>
        <time>2011-06-15T08:15:13Z</time>
      </trkpt>
      <trkpt lat="45.50499" lon="4.67745">
        <ele>400.0458984</ele>
        <time>2011-06-15T08:15:17Z</time>
      </trkpt>
      <trkpt lat="45.50501" lon="4.6774">
        <ele>399.5650635</ele>
        <time>2011-06-15T08:15:20Z</time>
      </trkpt>
      <trkpt lat="45.50503" lon="4.67732">
        <ele>399.0843506</ele>
        <time>2011-06-15T08:15:23Z</time>
      </trkpt>
      <trkpt lat="45.50502" lon="4.67728">
        <ele>398.6037598</ele>
        <time>2011-06-15T08:15:26Z</time>
      </trkpt>
      <trkpt lat="45.50485" lon="4.67722">
        <ele>393.7972412</ele>
        <time>2011-06-15T08:15:39Z</time>
      </trkpt>
      <trkpt lat="45.50481" lon="4.67718">
        <ele>392.8359375</ele>
        <time>2011-06-15T08:15:43Z</time>
      </trkpt>
      <trkpt lat="45.50483" lon="4.67713">
        <ele>391.3937988</ele>
        <time>2011-06-15T08:15:56Z</time>
      </trkpt>
      <trkpt lat="45.50479" lon="4.67719">
        <ele>390.4326172</ele>
        <time>2011-06-15T08:16:12Z</time>
      </trkpt>
      <trkpt lat="45.50474" lon="4.67703">
        <ele>389.9519043</ele>
        <time>2011-06-15T08:16:29Z</time>
      </trkpt>
      <trkpt lat="45.50474" lon="4.67709">
        <ele>389.4711914</ele>
        <time>2011-06-15T08:16:41Z</time>
      </trkpt>
      <trkpt lat="45.50481" lon="4.67715">
        <ele>389.9519043</ele>
        <time>2011-06-15T08:16:53Z</time>
      </trkpt>
      <trkpt lat="45.50485" lon="4.67701">
        <ele>389.9519043</ele>
        <time>2011-06-15T08:17:08Z</time>
      </trkpt>
      <trkpt lat="45.50483" lon="4.67695">
        <ele>389.4711914</ele>
        <time>2011-06-15T08:17:16Z</time>
      </trkpt>
      <trkpt lat="45.50474" lon="4.67682">
        <ele>391.8745117</ele>
        <time>2011-06-15T08:17:27Z</time>
      </trkpt>
      <trkpt lat="45.50461" lon="4.6767">
        <ele>393.3165283</ele>
        <time>2011-06-15T08:17:38Z</time>
      </trkpt>
      <trkpt lat="45.50459" lon="4.67655">
        <ele>396.2005615</ele>
        <time>2011-06-15T08:17:46Z</time>
      </trkpt>
      <trkpt lat="45.50455" lon="4.67644">
        <ele>398.1231689</ele>
        <time>2011-06-15T08:17:51Z</time>
      </trkpt>
      <trkpt lat="45.50446" lon="4.67637">
        <ele>400.5264893</ele>
        <time>2011-06-15T08:17:57Z</time>
      </trkpt>
      <trkpt lat="45.50444" lon="4.67635">
        <ele>401.0070801</ele>
        <time>2011-06-15T08:17:59Z</time>
      </trkpt>
      <trkpt lat="45.50437" lon="4.67609">
        <ele>405.3330078</ele>
        <time>2011-06-15T08:18:14Z</time>
      </trkpt>
      <trkpt lat="45.50433" lon="4.67604">
        <ele>405.3330078</ele>
        <time>2011-06-15T08:18:18Z</time>
      </trkpt>
      <trkpt lat="45.50427" lon="4.6759">
        <ele>407.7363281</ele>
        <time>2011-06-15T08:18:29Z</time>
      </trkpt>
      <trkpt lat="45.50428" lon="4.67559">
        <ele>412.5428467</ele>
        <time>2011-06-15T08:18:48Z</time>
      </trkpt>
      <trkpt lat="45.50431" lon="4.67543">
        <ele>414.946167</ele>
        <time>2011-06-15T08:18:57Z</time>
      </trkpt>
      <trkpt lat="45.50436" lon="4.67531">
        <ele>416.3881836</ele>
        <time>2011-06-15T08:19:03Z</time>
      </trkpt>
      <trkpt lat="45.50454" lon="4.67516">
        <ele>419.7528076</ele>
        <time>2011-06-15T08:19:20Z</time>
      </trkpt>
      <trkpt lat="45.50458" lon="4.6751">
        <ele>420.7141113</ele>
        <time>2011-06-15T08:19:26Z</time>
      </trkpt>
      <trkpt lat="45.50473" lon="4.67474">
        <ele>426.0013428</ele>
        <time>2011-06-15T08:19:49Z</time>
      </trkpt>
      <trkpt lat="45.50486" lon="4.6745">
        <ele>429.3659668</ele>
        <time>2011-06-15T08:20:04Z</time>
      </trkpt>
      <trkpt lat="45.50488" lon="4.67447">
        <ele>430.3272705</ele>
        <time>2011-06-15T08:20:07Z</time>
      </trkpt>
      <trkpt lat="45.505" lon="4.67426">
        <ele>433.6918945</ele>
        <time>2011-06-15T08:20:24Z</time>
      </trkpt>
      <trkpt lat="45.50517" lon="4.67405">
        <ele>438.0178223</ele>
        <time>2011-06-15T08:20:42Z</time>
      </trkpt>
      <trkpt lat="45.50525" lon="4.6739">
        <ele>441.3824463</ele>
        <time>2011-06-15T08:20:54Z</time>
      </trkpt>
      <trkpt lat="45.50539" lon="4.6737">
        <ele>446.6696777</ele>
        <time>2011-06-15T08:21:11Z</time>
      </trkpt>
      <trkpt lat="45.50554" lon="4.67348">
        <ele>451.9570313</ele>
        <time>2011-06-15T08:21:27Z</time>
      </trkpt>
      <trkpt lat="45.50559" lon="4.67339">
        <ele>454.3602295</ele>
        <time>2011-06-15T08:21:34Z</time>
      </trkpt>
      <trkpt lat="45.50574" lon="4.67318">
        <ele>459.647583</ele>
        <time>2011-06-15T08:21:50Z</time>
      </trkpt>
      <trkpt lat="45.50593" lon="4.67291">
        <ele>466.376709</ele>
        <time>2011-06-15T08:22:10Z</time>
      </trkpt>
      <trkpt lat="45.50596" lon="4.67263">
        <ele>469.741333</ele>
        <time>2011-06-15T08:22:27Z</time>
      </trkpt>
      <trkpt lat="45.50595" lon="4.67254">
        <ele>467.8187256</ele>
        <time>2011-06-15T08:22:31Z</time>
      </trkpt>
      <trkpt lat="45.506" lon="4.67249">
        <ele>466.8574219</ele>
        <time>2011-06-15T08:22:34Z</time>
      </trkpt>
      <trkpt lat="45.50614" lon="4.6721">
        <ele>456.282959</ele>
        <time>2011-06-15T08:22:54Z</time>
      </trkpt>
      <trkpt lat="45.50623" lon="4.67202">
        <ele>457.2442627</ele>
        <time>2011-06-15T08:23:03Z</time>
      </trkpt>
      <trkpt lat="45.5062" lon="4.67152">
        <ele>458.6861572</ele>
        <time>2011-06-15T08:23:25Z</time>
      </trkpt>
      <trkpt lat="45.50613" lon="4.67115">
        <ele>461.5701904</ele>
        <time>2011-06-15T08:23:45Z</time>
      </trkpt>
      <trkpt lat="45.50607" lon="4.6709">
        <ele>464.9348145</ele>
        <time>2011-06-15T08:24:00Z</time>
      </trkpt>
      <trkpt lat="45.506" lon="4.67056">
        <ele>466.8574219</ele>
        <time>2011-06-15T08:24:16Z</time>
      </trkpt>
      <trkpt lat="45.50596" lon="4.67011">
        <ele>465.4155273</ele>
        <time>2011-06-15T08:24:32Z</time>
      </trkpt>
      <trkpt lat="45.50591" lon="4.66949">
        <ele>463.9733887</ele>
        <time>2011-06-15T08:24:44Z</time>
      </trkpt>
      <trkpt lat="45.50573" lon="4.66876">
        <ele>463.012085</ele>
        <time>2011-06-15T08:24:58Z</time>
      </trkpt>
      <trkpt lat="45.50565" lon="4.66847">
        <ele>463.012085</ele>
        <time>2011-06-15T08:25:04Z</time>
      </trkpt>
      <trkpt lat="45.50554" lon="4.66798">
        <ele>464.9348145</ele>
        <time>2011-06-15T08:25:15Z</time>
      </trkpt>
      <trkpt lat="45.50553" lon="4.66785">
        <ele>465.4155273</ele>
        <time>2011-06-15T08:25:18Z</time>
      </trkpt>
      <trkpt lat="45.50562" lon="4.66739">
        <ele>463.4927979</ele>
        <time>2011-06-15T08:25:30Z</time>
      </trkpt>
      <trkpt lat="45.50561" lon="4.66697">
        <ele>465.8961182</ele>
        <time>2011-06-15T08:25:48Z</time>
      </trkpt>
      <trkpt lat="45.50555" lon="4.66659">
        <ele>464.9348145</ele>
        <time>2011-06-15T08:26:07Z</time>
      </trkpt>
      <trkpt lat="45.50546" lon="4.66627">
        <ele>463.9733887</ele>
        <time>2011-06-15T08:26:27Z</time>
      </trkpt>
      <trkpt lat="45.50545" lon="4.66589">
        <ele>462.0507813</ele>
        <time>2011-06-15T08:26:50Z</time>
      </trkpt>
      <trkpt lat="45.50554" lon="4.66554">
        <ele>457.2442627</ele>
        <time>2011-06-15T08:27:10Z</time>
      </trkpt>
      <trkpt lat="45.50559" lon="4.66531">
        <ele>452.4376221</ele>
        <time>2011-06-15T08:27:24Z</time>
      </trkpt>
      <trkpt lat="45.50559" lon="4.66524">
        <ele>451.9570313</ele>
        <time>2011-06-15T08:27:28Z</time>
      </trkpt>
      <trkpt lat="45.50561" lon="4.66511">
        <ele>450.5150146</ele>
        <time>2011-06-15T08:27:34Z</time>
      </trkpt>
      <trkpt lat="45.50566" lon="4.6649">
        <ele>449.5537109</ele>
        <time>2011-06-15T08:27:46Z</time>
      </trkpt>
      <trkpt lat="45.50568" lon="4.66485">
        <ele>449.072998</ele>
        <time>2011-06-15T08:27:48Z</time>
      </trkpt>
      <trkpt lat="45.50578" lon="4.66453">
        <ele>449.072998</ele>
        <time>2011-06-15T08:28:07Z</time>
      </trkpt>
      <trkpt lat="45.50583" lon="4.66439">
        <ele>449.5537109</ele>
        <time>2011-06-15T08:28:22Z</time>
      </trkpt>
      <trkpt lat="45.50586" lon="4.6643">
        <ele>450.5150146</ele>
        <time>2011-06-15T08:28:28Z</time>
      </trkpt>
      <trkpt lat="45.50587" lon="4.66425">
        <ele>450.5150146</ele>
        <time>2011-06-15T08:28:31Z</time>
      </trkpt>
      <trkpt lat="45.50589" lon="4.66418">
        <ele>450.5150146</ele>
        <time>2011-06-15T08:28:35Z</time>
      </trkpt>
      <trkpt lat="45.50601" lon="4.66391">
        <ele>450.9956055</ele>
        <time>2011-06-15T08:28:49Z</time>
      </trkpt>
      <trkpt lat="45.50581" lon="4.66387">
        <ele>452.4376221</ele>
        <time>2011-06-15T08:29:05Z</time>
      </trkpt>
      <trkpt lat="45.50574" lon="4.66384">
        <ele>454.8408203</ele>
        <time>2011-06-15T08:29:11Z</time>
      </trkpt>
      <trkpt lat="45.50555" lon="4.66369">
        <ele>460.6087646</ele>
        <time>2011-06-15T08:29:28Z</time>
      </trkpt>
      <trkpt lat="45.50544" lon="4.66366">
        <ele>462.5313721</ele>
        <time>2011-06-15T08:29:35Z</time>
      </trkpt>
      <trkpt lat="45.50537" lon="4.6636">
        <ele>464.4541016</ele>
        <time>2011-06-15T08:29:40Z</time>
      </trkpt>
      <trkpt lat="45.50513" lon="4.66344">
        <ele>470.7026367</ele>
        <time>2011-06-15T08:30:00Z</time>
      </trkpt>
      <trkpt lat="45.505" lon="4.66334">
        <ele>471.1833496</ele>
        <time>2011-06-15T08:30:10Z</time>
      </trkpt>
      <trkpt lat="45.50486" lon="4.66326">
        <ele>468.2993164</ele>
        <time>2011-06-15T08:30:26Z</time>
      </trkpt>
      <trkpt lat="45.50471" lon="4.66311">
        <ele>469.741333</ele>
        <time>2011-06-15T08:30:43Z</time>
      </trkpt>
      <trkpt lat="45.50446" lon="4.66309">
        <ele>472.6253662</ele>
        <time>2011-06-15T08:31:00Z</time>
      </trkpt>
      <trkpt lat="45.50444" lon="4.66313">
        <ele>472.6253662</ele>
        <time>2011-06-15T08:31:03Z</time>
      </trkpt>
      <trkpt lat="45.50432" lon="4.66329">
        <ele>473.5866699</ele>
        <time>2011-06-15T08:31:17Z</time>
      </trkpt>
      <trkpt lat="45.50428" lon="4.66332">
        <ele>473.5866699</ele>
        <time>2011-06-15T08:31:21Z</time>
      </trkpt>
      <trkpt lat="45.50427" lon="4.66334">
        <ele>473.5866699</ele>
        <time>2011-06-15T08:31:23Z</time>
      </trkpt>
      <trkpt lat="45.50405" lon="4.66352">
        <ele>475.9898682</ele>
        <time>2011-06-15T08:31:41Z</time>
      </trkpt>
      <trkpt lat="45.50404" lon="4.66353">
        <ele>475.9898682</ele>
        <time>2011-06-15T08:31:42Z</time>
      </trkpt>
      <trkpt lat="45.5038" lon="4.66364">
        <ele>478.8739014</ele>
        <time>2011-06-15T08:32:01Z</time>
      </trkpt>
      <trkpt lat="45.50358" lon="4.66387">
        <ele>479.835083</ele>
        <time>2011-06-15T08:32:21Z</time>
      </trkpt>
      <trkpt lat="45.50337" lon="4.66409">
        <ele>482.2385254</ele>
        <time>2011-06-15T08:32:42Z</time>
      </trkpt>
      <trkpt lat="45.5032" lon="4.66433">
        <ele>485.1224365</ele>
        <time>2011-06-15T08:33:00Z</time>
      </trkpt>
      <trkpt lat="45.50313" lon="4.66453">
        <ele>486.0837402</ele>
        <time>2011-06-15T08:33:12Z</time>
      </trkpt>
      <trkpt lat="45.50292" lon="4.66477">
        <ele>487.0450439</ele>
        <time>2011-06-15T08:33:33Z</time>
      </trkpt>
      <trkpt lat="45.5027" lon="4.66491">
        <ele>487.5256348</ele>
        <time>2011-06-15T08:33:50Z</time>
      </trkpt>
      <trkpt lat="45.50245" lon="4.66507">
        <ele>491.3709717</ele>
        <time>2011-06-15T08:34:09Z</time>
      </trkpt>
      <trkpt lat="45.50224" lon="4.66511">
        <ele>495.6968994</ele>
        <time>2011-06-15T08:34:26Z</time>
      </trkpt>
      <trkpt lat="45.50201" lon="4.66516">
        <ele>497.138916</ele>
        <time>2011-06-15T08:34:41Z</time>
      </trkpt>
      <trkpt lat="45.50183" lon="4.66519">
        <ele>496.1777344</ele>
        <time>2011-06-15T08:34:54Z</time>
      </trkpt>
      <trkpt lat="45.50163" lon="4.66515">
        <ele>494.2550049</ele>
        <time>2011-06-15T08:35:09Z</time>
      </trkpt>
      <trkpt lat="45.50146" lon="4.66519">
        <ele>492.3323975</ele>
        <time>2011-06-15T08:35:21Z</time>
      </trkpt>
      <trkpt lat="45.50119" lon="4.66525">
        <ele>493.2935791</ele>
        <time>2011-06-15T08:35:32Z</time>
      </trkpt>
      <trkpt lat="45.50095" lon="4.6654">
        <ele>494.2550049</ele>
        <time>2011-06-15T08:35:47Z</time>
      </trkpt>
      <trkpt lat="45.50069" lon="4.66574">
        <ele>495.2161865</ele>
        <time>2011-06-15T08:35:57Z</time>
      </trkpt>
      <trkpt lat="45.50015" lon="4.66647">
        <ele>499.0615234</ele>
        <time>2011-06-15T08:36:11Z</time>
      </trkpt>
      <trkpt lat="45.49971" lon="4.66701">
        <ele>503.8681641</ele>
        <time>2011-06-15T08:36:22Z</time>
      </trkpt>
      <trkpt lat="45.49909" lon="4.66733">
        <ele>513.9620361</ele>
        <time>2011-06-15T08:36:35Z</time>
      </trkpt>
      <trkpt lat="45.49874" lon="4.66749">
        <ele>519.7298584</ele>
        <time>2011-06-15T08:36:45Z</time>
      </trkpt>
      <trkpt lat="45.49853" lon="4.66747">
        <ele>521.1719971</ele>
        <time>2011-06-15T08:36:57Z</time>
      </trkpt>
      <trkpt lat="45.49833" lon="4.66748">
        <ele>513.0007324</ele>
        <time>2011-06-15T08:37:15Z</time>
      </trkpt>
      <trkpt lat="45.49826" lon="4.66744">
        <ele>509.1553955</ele>
        <time>2011-06-15T08:37:22Z</time>
      </trkpt>
      <trkpt lat="45.498" lon="4.66728">
        <ele>504.348877</ele>
        <time>2011-06-15T08:37:41Z</time>
      </trkpt>
      <trkpt lat="45.4977" lon="4.66707">
        <ele>502.9067383</ele>
        <time>2011-06-15T08:38:03Z</time>
      </trkpt>
      <trkpt lat="45.49741" lon="4.66684">
        <ele>504.8294678</ele>
        <time>2011-06-15T08:38:25Z</time>
      </trkpt>
      <trkpt lat="45.49728" lon="4.66674">
        <ele>507.713501</ele>
        <time>2011-06-15T08:38:35Z</time>
      </trkpt>
      <trkpt lat="45.49719" lon="4.6667">
        <ele>508.1940918</ele>
        <time>2011-06-15T08:38:42Z</time>
      </trkpt>
      <trkpt lat="45.49703" lon="4.66661">
        <ele>511.0780029</ele>
        <time>2011-06-15T08:38:56Z</time>
      </trkpt>
      <trkpt lat="45.49697" lon="4.66656">
        <ele>512.0394287</ele>
        <time>2011-06-15T08:39:02Z</time>
      </trkpt>
      <trkpt lat="45.49681" lon="4.66643">
        <ele>514.9233398</ele>
        <time>2011-06-15T08:39:13Z</time>
      </trkpt>
      <trkpt lat="45.49652" lon="4.66613">
        <ele>517.3266602</ele>
        <time>2011-06-15T08:39:33Z</time>
      </trkpt>
      <trkpt lat="45.4965" lon="4.6661">
        <ele>517.3266602</ele>
        <time>2011-06-15T08:39:35Z</time>
      </trkpt>
      <trkpt lat="45.49639" lon="4.66582">
        <ele>520.2105713</ele>
        <time>2011-06-15T08:39:49Z</time>
      </trkpt>
      <trkpt lat="45.49629" lon="4.66558">
        <ele>520.2105713</ele>
        <time>2011-06-15T08:40:04Z</time>
      </trkpt>
      <trkpt lat="45.49627" lon="4.66532">
        <ele>520.2105713</ele>
        <time>2011-06-15T08:40:17Z</time>
      </trkpt>
      <trkpt lat="45.49613" lon="4.66498">
        <ele>514.442627</ele>
        <time>2011-06-15T08:40:28Z</time>
      </trkpt>
      <trkpt lat="45.49582" lon="4.66501">
        <ele>506.7520752</ele>
        <time>2011-06-15T08:40:39Z</time>
      </trkpt>
      <trkpt lat="45.49537" lon="4.66498">
        <ele>509.6361084</ele>
        <time>2011-06-15T08:40:53Z</time>
      </trkpt>
      <trkpt lat="45.49497" lon="4.66492">
        <ele>509.6361084</ele>
        <time>2011-06-15T08:41:06Z</time>
      </trkpt>
      <trkpt lat="45.49461" lon="4.66485">
        <ele>513.4814453</ele>
        <time>2011-06-15T08:41:16Z</time>
      </trkpt>
      <trkpt lat="45.49421" lon="4.66481">
        <ele>518.2878418</ele>
        <time>2011-06-15T08:41:29Z</time>
      </trkpt>
      <trkpt lat="45.49375" lon="4.66461">
        <ele>525.4978027</ele>
        <time>2011-06-15T08:41:41Z</time>
      </trkpt>
      <trkpt lat="45.49329" lon="4.66437">
        <ele>526.4591064</ele>
        <time>2011-06-15T08:41:54Z</time>
      </trkpt>
      <trkpt lat="45.49306" lon="4.66404">
        <ele>529.3431396</ele>
        <time>2011-06-15T08:42:07Z</time>
      </trkpt>
      <trkpt lat="45.49305" lon="4.66399">
        <ele>529.3431396</ele>
        <time>2011-06-15T08:42:10Z</time>
      </trkpt>
      <trkpt lat="45.49309" lon="4.66392">
        <ele>531.2657471</ele>
        <time>2011-06-15T08:42:16Z</time>
      </trkpt>
      <trkpt lat="45.49329" lon="4.66366">
        <ele>532.7077637</ele>
        <time>2011-06-15T08:42:36Z</time>
      </trkpt>
      <trkpt lat="45.49355" lon="4.66326">
        <ele>535.5915527</ele>
        <time>2011-06-15T08:42:55Z</time>
      </trkpt>
      <trkpt lat="45.49404" lon="4.66262">
        <ele>542.3209229</ele>
        <time>2011-06-15T08:43:14Z</time>
      </trkpt>
      <trkpt lat="45.49444" lon="4.66214">
        <ele>549.5307617</ele>
        <time>2011-06-15T08:43:29Z</time>
      </trkpt>
      <trkpt lat="45.49471" lon="4.66184">
        <ele>554.8178711</ele>
        <time>2011-06-15T08:43:40Z</time>
      </trkpt>
      <trkpt lat="45.49477" lon="4.66174">
        <ele>558.6633301</ele>
        <time>2011-06-15T08:43:48Z</time>
      </trkpt>
      <trkpt lat="45.495" lon="4.66161">
        <ele>560.1052246</ele>
        <time>2011-06-15T08:44:04Z</time>
      </trkpt>
      <trkpt lat="45.49509" lon="4.66156">
        <ele>561.5473633</ele>
        <time>2011-06-15T08:44:17Z</time>
      </trkpt>
      <trkpt lat="45.49526" lon="4.66148">
        <ele>566.3537598</ele>
        <time>2011-06-15T08:44:35Z</time>
      </trkpt>
      <trkpt lat="45.49548" lon="4.66137">
        <ele>574.0444336</ele>
        <time>2011-06-15T08:44:57Z</time>
      </trkpt>
      <trkpt lat="45.49562" lon="4.66127">
        <ele>576.9284668</ele>
        <time>2011-06-15T08:45:04Z</time>
      </trkpt>
      <trkpt lat="45.49582" lon="4.66119">
        <ele>587.5026855</ele>
        <time>2011-06-15T08:45:23Z</time>
      </trkpt>
      <trkpt lat="45.4959" lon="4.66111">
        <ele>590.8674316</ele>
        <time>2011-06-15T08:45:29Z</time>
      </trkpt>
      <trkpt lat="45.49603" lon="4.66102">
        <ele>594.2321777</ele>
        <time>2011-06-15T08:45:40Z</time>
      </trkpt>
      <trkpt lat="45.49604" lon="4.66101">
        <ele>594.7126465</ele>
        <time>2011-06-15T08:45:41Z</time>
      </trkpt>
      <trkpt lat="45.49608" lon="4.66096">
        <ele>591.3481445</ele>
        <time>2011-06-15T08:45:45Z</time>
      </trkpt>
      <trkpt lat="45.49635" lon="4.66076">
        <ele>586.5415039</ele>
        <time>2011-06-15T08:46:09Z</time>
      </trkpt>
      <trkpt lat="45.49647" lon="4.66061">
        <ele>590.3869629</ele>
        <time>2011-06-15T08:46:24Z</time>
      </trkpt>
      <trkpt lat="45.49664" lon="4.66048">
        <ele>593.270752</ele>
        <time>2011-06-15T08:46:39Z</time>
      </trkpt>
      <trkpt lat="45.49686" lon="4.66038">
        <ele>592.3095703</ele>
        <time>2011-06-15T08:46:56Z</time>
      </trkpt>
      <trkpt lat="45.49699" lon="4.66024">
        <ele>593.270752</ele>
        <time>2011-06-15T08:47:11Z</time>
      </trkpt>
      <trkpt lat="45.49701" lon="4.66022">
        <ele>593.7514648</ele>
        <time>2011-06-15T08:47:13Z</time>
      </trkpt>
      <trkpt lat="45.49703" lon="4.66016">
        <ele>594.2321777</ele>
        <time>2011-06-15T08:47:17Z</time>
      </trkpt>
      <trkpt lat="45.49714" lon="4.65999">
        <ele>597.5966797</ele>
        <time>2011-06-15T08:47:34Z</time>
      </trkpt>
      <trkpt lat="45.49719" lon="4.65996">
        <ele>598.5578613</ele>
        <time>2011-06-15T08:47:40Z</time>
      </trkpt>
      <trkpt lat="45.4974" lon="4.65986">
        <ele>602.8837891</ele>
        <time>2011-06-15T08:47:56Z</time>
      </trkpt>
      <trkpt lat="45.49752" lon="4.65974">
        <ele>606.729248</ele>
        <time>2011-06-15T08:48:09Z</time>
      </trkpt>
      <trkpt lat="45.49756" lon="4.65971">
        <ele>608.6518555</ele>
        <time>2011-06-15T08:48:14Z</time>
      </trkpt>
      <trkpt lat="45.49758" lon="4.65966">
        <ele>610.09375</ele>
        <time>2011-06-15T08:48:18Z</time>
      </trkpt>
      <trkpt lat="45.4976" lon="4.65963">
        <ele>611.0551758</ele>
        <time>2011-06-15T08:48:20Z</time>
      </trkpt>
      <trkpt lat="45.49767" lon="4.65964">
        <ele>612.4970703</ele>
        <time>2011-06-15T08:48:25Z</time>
      </trkpt>
      <trkpt lat="45.49785" lon="4.65956">
        <ele>618.2648926</ele>
        <time>2011-06-15T08:48:41Z</time>
      </trkpt>
      <trkpt lat="45.49802" lon="4.65941">
        <ele>612.0166016</ele>
        <time>2011-06-15T08:48:56Z</time>
      </trkpt>
      <trkpt lat="45.49825" lon="4.65912">
        <ele>613.4584961</ele>
        <time>2011-06-15T08:49:21Z</time>
      </trkpt>
      <trkpt lat="45.49829" lon="4.65877">
        <ele>616.3422852</ele>
        <time>2011-06-15T08:49:40Z</time>
      </trkpt>
      <trkpt lat="45.4984" lon="4.65833">
        <ele>617.7841797</ele>
        <time>2011-06-15T08:50:03Z</time>
      </trkpt>
      <trkpt lat="45.49852" lon="4.65797">
        <ele>618.7456055</ele>
        <time>2011-06-15T08:50:24Z</time>
      </trkpt>
      <trkpt lat="45.49866" lon="4.6576">
        <ele>619.7070313</ele>
        <time>2011-06-15T08:50:46Z</time>
      </trkpt>
      <trkpt lat="45.49869" lon="4.65754">
        <ele>620.1877441</ele>
        <time>2011-06-15T08:50:50Z</time>
      </trkpt>
      <trkpt lat="45.49865" lon="4.65729">
        <ele>620.1877441</ele>
        <time>2011-06-15T08:51:05Z</time>
      </trkpt>
      <trkpt lat="45.49865" lon="4.65723">
        <ele>619.7070313</ele>
        <time>2011-06-15T08:51:09Z</time>
      </trkpt>
      <trkpt lat="45.49853" lon="4.65708">
        <ele>618.7456055</ele>
        <time>2011-06-15T08:51:24Z</time>
      </trkpt>
      <trkpt lat="45.4984" lon="4.65675">
        <ele>624.5136719</ele>
        <time>2011-06-15T08:51:45Z</time>
      </trkpt>
      <trkpt lat="45.49838" lon="4.65672">
        <ele>625.4748535</ele>
        <time>2011-06-15T08:51:47Z</time>
      </trkpt>
      <trkpt lat="45.49828" lon="4.65654">
        <ele>629.8007813</ele>
        <time>2011-06-15T08:51:59Z</time>
      </trkpt>
      <trkpt lat="45.49827" lon="4.65651">
        <ele>630.2814941</ele>
        <time>2011-06-15T08:52:01Z</time>
      </trkpt>
      <trkpt lat="45.49816" lon="4.65628">
        <ele>636.0495605</ele>
        <time>2011-06-15T08:52:17Z</time>
      </trkpt>
      <trkpt lat="45.49812" lon="4.65613">
        <ele>638.9335938</ele>
        <time>2011-06-15T08:52:30Z</time>
      </trkpt>
      <trkpt lat="45.4981" lon="4.65611">
        <ele>639.4140625</ele>
        <time>2011-06-15T08:52:32Z</time>
      </trkpt>
      <trkpt lat="45.498" lon="4.65572">
        <ele>643.2592773</ele>
        <time>2011-06-15T08:52:47Z</time>
      </trkpt>
      <trkpt lat="45.49802" lon="4.65559">
        <ele>645.1818848</ele>
        <time>2011-06-15T08:52:54Z</time>
      </trkpt>
      <trkpt lat="45.49803" lon="4.65554">
        <ele>646.1433105</ele>
        <time>2011-06-15T08:52:57Z</time>
      </trkpt>
      <trkpt lat="45.49806" lon="4.65538">
        <ele>649.0270996</ele>
        <time>2011-06-15T08:53:08Z</time>
      </trkpt>
      <trkpt lat="45.49806" lon="4.65531">
        <ele>650.4692383</ele>
        <time>2011-06-15T08:53:14Z</time>
      </trkpt>
      <trkpt lat="45.4981" lon="4.65525">
        <ele>650.949707</ele>
        <time>2011-06-15T08:53:18Z</time>
      </trkpt>
      <trkpt lat="45.49814" lon="4.65512">
        <ele>652.8725586</ele>
        <time>2011-06-15T08:53:26Z</time>
      </trkpt>
      <trkpt lat="45.49815" lon="4.65507">
        <ele>653.8339844</ele>
        <time>2011-06-15T08:53:29Z</time>
      </trkpt>
      <trkpt lat="45.49816" lon="4.65499">
        <ele>654.795166</ele>
        <time>2011-06-15T08:53:34Z</time>
      </trkpt>
      <trkpt lat="45.49817" lon="4.65496">
        <ele>655.2758789</ele>
        <time>2011-06-15T08:53:36Z</time>
      </trkpt>
      <trkpt lat="45.49827" lon="4.65466">
        <ele>658.1599121</ele>
        <time>2011-06-15T08:53:50Z</time>
      </trkpt>
      <trkpt lat="45.49829" lon="4.65453">
        <ele>659.1210938</ele>
        <time>2011-06-15T08:53:57Z</time>
      </trkpt>
      <trkpt lat="45.49827" lon="4.65447">
        <ele>659.6018066</ele>
        <time>2011-06-15T08:54:01Z</time>
      </trkpt>
      <trkpt lat="45.49827" lon="4.65442">
        <ele>660.0822754</ele>
        <time>2011-06-15T08:54:04Z</time>
      </trkpt>
      <trkpt lat="45.4982" lon="4.65411">
        <ele>661.5244141</ele>
        <time>2011-06-15T08:54:23Z</time>
      </trkpt>
      <trkpt lat="45.49818" lon="4.65392">
        <ele>661.0437012</ele>
        <time>2011-06-15T08:54:34Z</time>
      </trkpt>
      <trkpt lat="45.49813" lon="4.65369">
        <ele>663.9274902</ele>
        <time>2011-06-15T08:54:46Z</time>
      </trkpt>
      <trkpt lat="45.49809" lon="4.65355">
        <ele>665.3696289</ele>
        <time>2011-06-15T08:54:53Z</time>
      </trkpt>
      <trkpt lat="45.49809" lon="4.65347">
        <ele>665.3696289</ele>
        <time>2011-06-15T08:54:57Z</time>
      </trkpt>
      <trkpt lat="45.49809" lon="4.65321">
        <ele>664.888916</ele>
        <time>2011-06-15T08:55:11Z</time>
      </trkpt>
      <trkpt lat="45.49807" lon="4.65286">
        <ele>655.7565918</ele>
        <time>2011-06-15T08:55:29Z</time>
      </trkpt>
      <trkpt lat="45.49791" lon="4.65245">
        <ele>654.795166</ele>
        <time>2011-06-15T08:55:56Z</time>
      </trkpt>
      <trkpt lat="45.4978" lon="4.65215">
        <ele>652.8725586</ele>
        <time>2011-06-15T08:56:14Z</time>
      </trkpt>
      <trkpt lat="45.49767" lon="4.65178">
        <ele>652.8725586</ele>
        <time>2011-06-15T08:56:35Z</time>
      </trkpt>
      <trkpt lat="45.49753" lon="4.65137">
        <ele>655.2758789</ele>
        <time>2011-06-15T08:56:58Z</time>
      </trkpt>
      <trkpt lat="45.49739" lon="4.65088">
        <ele>656.7177734</ele>
        <time>2011-06-15T08:57:26Z</time>
      </trkpt>
      <trkpt lat="45.49728" lon="4.65046">
        <ele>655.7565918</ele>
        <time>2011-06-15T08:57:50Z</time>
      </trkpt>
      <trkpt lat="45.49723" lon="4.65016">
        <ele>651.4304199</ele>
        <time>2011-06-15T08:58:06Z</time>
      </trkpt>
      <trkpt lat="45.49712" lon="4.64976">
        <ele>655.2758789</ele>
        <time>2011-06-15T08:58:30Z</time>
      </trkpt>
      <trkpt lat="45.49709" lon="4.64941">
        <ele>657.6791992</ele>
        <time>2011-06-15T08:58:51Z</time>
      </trkpt>
      <trkpt lat="45.49702" lon="4.64905">
        <ele>661.0437012</ele>
        <time>2011-06-15T08:59:12Z</time>
      </trkpt>
      <trkpt lat="45.49696" lon="4.64868">
        <ele>660.5629883</ele>
        <time>2011-06-15T08:59:35Z</time>
      </trkpt>
      <trkpt lat="45.49688" lon="4.64839">
        <ele>660.0822754</ele>
        <time>2011-06-15T08:59:52Z</time>
      </trkpt>
      <trkpt lat="45.4968" lon="4.64819">
        <ele>661.0437012</ele>
        <time>2011-06-15T09:00:02Z</time>
      </trkpt>
      <trkpt lat="45.4968" lon="4.64815">
        <ele>661.0437012</ele>
        <time>2011-06-15T09:00:04Z</time>
      </trkpt>
      <trkpt lat="45.49669" lon="4.64772">
        <ele>659.6018066</ele>
        <time>2011-06-15T09:00:29Z</time>
      </trkpt>
      <trkpt lat="45.49659" lon="4.64747">
        <ele>661.5244141</ele>
        <time>2011-06-15T09:00:44Z</time>
      </trkpt>
      <trkpt lat="45.49655" lon="4.64729">
        <ele>662.005127</ele>
        <time>2011-06-15T09:00:55Z</time>
      </trkpt>
      <trkpt lat="45.49654" lon="4.64723">
        <ele>662.005127</ele>
        <time>2011-06-15T09:00:58Z</time>
      </trkpt>
      <trkpt lat="45.49651" lon="4.64718">
        <ele>662.005127</ele>
        <time>2011-06-15T09:01:01Z</time>
      </trkpt>
      <trkpt lat="45.4964" lon="4.64723">
        <ele>661.0437012</ele>
        <time>2011-06-15T09:01:11Z</time>
      </trkpt>
      <trkpt lat="45.49636" lon="4.64723">
        <ele>660.5629883</ele>
        <time>2011-06-15T09:01:15Z</time>
      </trkpt>
      <trkpt lat="45.49633" lon="4.64729">
        <ele>659.6018066</ele>
        <time>2011-06-15T09:01:19Z</time>
      </trkpt>
      <trkpt lat="45.4962" lon="4.64738">
        <ele>656.7177734</ele>
        <time>2011-06-15T09:01:33Z</time>
      </trkpt>
      <trkpt lat="45.4961" lon="4.64743">
        <ele>651.9111328</ele>
        <time>2011-06-15T09:01:46Z</time>
      </trkpt>
      <trkpt lat="45.49586" lon="4.64753">
        <ele>646.1433105</ele>
        <time>2011-06-15T09:02:11Z</time>
      </trkpt>
      <trkpt lat="45.4957" lon="4.64746">
        <ele>642.7788086</ele>
        <time>2011-06-15T09:02:25Z</time>
      </trkpt>
      <trkpt lat="45.49553" lon="4.64739">
        <ele>638.4528809</ele>
        <time>2011-06-15T09:02:41Z</time>
      </trkpt>
      <trkpt lat="45.49538" lon="4.64723">
        <ele>635.5686035</ele>
        <time>2011-06-15T09:02:57Z</time>
      </trkpt>
      <trkpt lat="45.49531" lon="4.64721">
        <ele>634.6074219</ele>
        <time>2011-06-15T09:03:03Z</time>
      </trkpt>
      <trkpt lat="45.49514" lon="4.64704">
        <ele>632.2041016</ele>
        <time>2011-06-15T09:03:17Z</time>
      </trkpt>
      <trkpt lat="45.49511" lon="4.64699">
        <ele>631.7233887</ele>
        <time>2011-06-15T09:03:22Z</time>
      </trkpt>
      <trkpt lat="45.49505" lon="4.64692">
        <ele>630.2814941</ele>
        <time>2011-06-15T09:03:26Z</time>
      </trkpt>
      <trkpt lat="45.49504" lon="4.64691">
        <ele>628.8395996</ele>
        <time>2011-06-15T09:03:28Z</time>
      </trkpt>
      <trkpt lat="45.49501" lon="4.64686">
        <ele>626.9169922</ele>
        <time>2011-06-15T09:03:32Z</time>
      </trkpt>
      <trkpt lat="45.49489" lon="4.64674">
        <ele>621.6296387</ele>
        <time>2011-06-15T09:03:48Z</time>
      </trkpt>
      <trkpt lat="45.49486" lon="4.6467">
        <ele>620.668457</ele>
        <time>2011-06-15T09:03:51Z</time>
      </trkpt>
      <trkpt lat="45.49467" lon="4.64668">
        <ele>613.4584961</ele>
        <time>2011-06-15T09:04:08Z</time>
      </trkpt>
      <trkpt lat="45.49461" lon="4.64668">
        <ele>611.0551758</ele>
        <time>2011-06-15T09:04:13Z</time>
      </trkpt>
      <trkpt lat="45.49446" lon="4.64671">
        <ele>604.3261719</ele>
        <time>2011-06-15T09:04:29Z</time>
      </trkpt>
      <trkpt lat="45.49424" lon="4.64663">
        <ele>599.0385742</ele>
        <time>2011-06-15T09:04:44Z</time>
      </trkpt>
      <trkpt lat="45.49413" lon="4.64662">
        <ele>596.635498</ele>
        <time>2011-06-15T09:04:53Z</time>
      </trkpt>
      <trkpt lat="45.49403" lon="4.64666">
        <ele>594.2321777</ele>
        <time>2011-06-15T09:05:01Z</time>
      </trkpt>
      <trkpt lat="45.49397" lon="4.64665">
        <ele>592.7902832</ele>
        <time>2011-06-15T09:05:06Z</time>
      </trkpt>
      <trkpt lat="45.49389" lon="4.64662">
        <ele>590.8674316</ele>
        <time>2011-06-15T09:05:11Z</time>
      </trkpt>
      <trkpt lat="45.49374" lon="4.64658">
        <ele>587.5026855</ele>
        <time>2011-06-15T09:05:24Z</time>
      </trkpt>
      <trkpt lat="45.49369" lon="4.64654">
        <ele>587.0219727</ele>
        <time>2011-06-15T09:05:27Z</time>
      </trkpt>
      <trkpt lat="45.4935" lon="4.64651">
        <ele>582.2155762</ele>
        <time>2011-06-15T09:05:45Z</time>
      </trkpt>
      <trkpt lat="45.49326" lon="4.64655">
        <ele>583.6574707</ele>
        <time>2011-06-15T09:05:58Z</time>
      </trkpt>
      <trkpt lat="45.49307" lon="4.64658">
        <ele>586.060791</ele>
        <time>2011-06-15T09:06:10Z</time>
      </trkpt>
      <trkpt lat="45.49304" lon="4.64659">
        <ele>585.5800781</ele>
        <time>2011-06-15T09:06:13Z</time>
      </trkpt>
      <trkpt lat="45.49298" lon="4.6466">
        <ele>585.5800781</ele>
        <time>2011-06-15T09:06:17Z</time>
      </trkpt>
      <trkpt lat="45.49264" lon="4.64663">
        <ele>586.5415039</ele>
        <time>2011-06-15T09:06:38Z</time>
      </trkpt>
      <trkpt lat="45.49239" lon="4.64662">
        <ele>586.060791</ele>
        <time>2011-06-15T09:06:55Z</time>
      </trkpt>
      <trkpt lat="45.49234" lon="4.64658">
        <ele>586.060791</ele>
        <time>2011-06-15T09:06:59Z</time>
      </trkpt>
      <trkpt lat="45.49226" lon="4.64644">
        <ele>585.5800781</ele>
        <time>2011-06-15T09:07:11Z</time>
      </trkpt>
      <trkpt lat="45.49219" lon="4.64625">
        <ele>583.6574707</ele>
        <time>2011-06-15T09:07:26Z</time>
      </trkpt>
      <trkpt lat="45.49215" lon="4.64612">
        <ele>582.2155762</ele>
        <time>2011-06-15T09:07:37Z</time>
      </trkpt>
      <trkpt lat="45.49212" lon="4.64609">
        <ele>581.7348633</ele>
        <time>2011-06-15T09:07:39Z</time>
      </trkpt>
      <trkpt lat="45.4921" lon="4.6459">
        <ele>578.3703613</ele>
        <time>2011-06-15T09:07:59Z</time>
      </trkpt>
      <trkpt lat="45.49203" lon="4.64573">
        <ele>574.5251465</ele>
        <time>2011-06-15T09:08:24Z</time>
      </trkpt>
      <trkpt lat="45.49193" lon="4.64567">
        <ele>572.1218262</ele>
        <time>2011-06-15T09:08:38Z</time>
      </trkpt>
      <trkpt lat="45.49171" lon="4.64549">
        <ele>567.7956543</ele>
        <time>2011-06-15T09:09:01Z</time>
      </trkpt>
      <trkpt lat="45.49153" lon="4.6453">
        <ele>563.9504395</ele>
        <time>2011-06-15T09:09:24Z</time>
      </trkpt>
      <trkpt lat="45.49134" lon="4.64514">
        <ele>561.0666504</ele>
        <time>2011-06-15T09:09:49Z</time>
      </trkpt>
      <trkpt lat="45.49122" lon="4.6449">
        <ele>559.144043</ele>
        <time>2011-06-15T09:10:11Z</time>
      </trkpt>
      <trkpt lat="45.49114" lon="4.64475">
        <ele>554.3374023</ele>
        <time>2011-06-15T09:10:35Z</time>
      </trkpt>
      <trkpt lat="45.491" lon="4.64448">
        <ele>548.5693359</ele>
        <time>2011-06-15T09:11:01Z</time>
      </trkpt>
      <trkpt lat="45.49085" lon="4.64409">
        <ele>545.204834</ele>
        <time>2011-06-15T09:11:27Z</time>
      </trkpt>
      <trkpt lat="45.49084" lon="4.64408">
        <ele>545.204834</ele>
        <time>2011-06-15T09:11:28Z</time>
      </trkpt>
      <trkpt lat="45.49085" lon="4.64371">
        <ele>540.3983154</ele>
        <time>2011-06-15T09:11:51Z</time>
      </trkpt>
      <trkpt lat="45.4908" lon="4.64354">
        <ele>538.475708</ele>
        <time>2011-06-15T09:12:00Z</time>
      </trkpt>
      <trkpt lat="45.49075" lon="4.64334">
        <ele>534.6303711</ele>
        <time>2011-06-15T09:12:18Z</time>
      </trkpt>
      <trkpt lat="45.49072" lon="4.64317">
        <ele>531.2657471</ele>
        <time>2011-06-15T09:12:30Z</time>
      </trkpt>
      <trkpt lat="45.49061" lon="4.64295">
        <ele>527.4204102</ele>
        <time>2011-06-15T09:12:50Z</time>
      </trkpt>
      <trkpt lat="45.4906" lon="4.64288">
        <ele>526.9398193</ele>
        <time>2011-06-15T09:12:56Z</time>
      </trkpt>
      <trkpt lat="45.49047" lon="4.6426">
        <ele>521.1719971</ele>
        <time>2011-06-15T09:13:20Z</time>
      </trkpt>
      <trkpt lat="45.49024" lon="4.64241">
        <ele>516.8459473</ele>
        <time>2011-06-15T09:13:48Z</time>
      </trkpt>
      <trkpt lat="45.49003" lon="4.64228">
        <ele>513.9620361</ele>
        <time>2011-06-15T09:14:09Z</time>
      </trkpt>
      <trkpt lat="45.48973" lon="4.64196">
        <ele>512.5200195</ele>
        <time>2011-06-15T09:14:35Z</time>
      </trkpt>
      <trkpt lat="45.48945" lon="4.64165">
        <ele>512.0394287</ele>
        <time>2011-06-15T09:15:00Z</time>
      </trkpt>
      <trkpt lat="45.48922" lon="4.64141">
        <ele>511.0780029</ele>
        <time>2011-06-15T09:15:21Z</time>
      </trkpt>
      <trkpt lat="45.48889" lon="4.64111">
        <ele>509.1553955</ele>
        <time>2011-06-15T09:15:49Z</time>
      </trkpt>
      <trkpt lat="45.48862" lon="4.6408">
        <ele>505.7908936</ele>
        <time>2011-06-15T09:16:16Z</time>
      </trkpt>
      <trkpt lat="45.48841" lon="4.64057">
        <ele>502.9067383</ele>
        <time>2011-06-15T09:16:37Z</time>
      </trkpt>
      <trkpt lat="45.48829" lon="4.64049">
        <ele>502.4261475</ele>
        <time>2011-06-15T09:16:48Z</time>
      </trkpt>
      <trkpt lat="45.48809" lon="4.64035">
        <ele>503.8681641</ele>
        <time>2011-06-15T09:17:06Z</time>
      </trkpt>
      <trkpt lat="45.48806" lon="4.64034">
        <ele>504.348877</ele>
        <time>2011-06-15T09:17:08Z</time>
      </trkpt>
      <trkpt lat="45.48788" lon="4.64027">
        <ele>502.9067383</ele>
        <time>2011-06-15T09:17:23Z</time>
      </trkpt>
      <trkpt lat="45.48766" lon="4.64019">
        <ele>499.0615234</ele>
        <time>2011-06-15T09:17:44Z</time>
      </trkpt>
      <trkpt lat="45.4874" lon="4.64003">
        <ele>493.774292</ele>
        <time>2011-06-15T09:18:10Z</time>
      </trkpt>
      <trkpt lat="45.48732" lon="4.63999">
        <ele>491.8516846</ele>
        <time>2011-06-15T09:18:24Z</time>
      </trkpt>
      <trkpt lat="45.48719" lon="4.63994">
        <ele>488.0064697</ele>
        <time>2011-06-15T09:18:38Z</time>
      </trkpt>
      <trkpt lat="45.48719" lon="4.63986">
        <ele>487.5256348</ele>
        <time>2011-06-15T09:18:43Z</time>
      </trkpt>
      <trkpt lat="45.4872" lon="4.63947">
        <ele>485.1224365</ele>
        <time>2011-06-15T09:19:10Z</time>
      </trkpt>
      <trkpt lat="45.4872" lon="4.63947">
        <ele>485.1224365</ele>
        <time>2011-06-15T09:19:39Z</time>
      </trkpt>
      <trkpt lat="45.48693" lon="4.63942">
        <ele>481.7578125</ele>
        <time>2011-06-15T09:20:03Z</time>
      </trkpt>
      <trkpt lat="45.48668" lon="4.63938">
        <ele>478.8739014</ele>
        <time>2011-06-15T09:20:23Z</time>
      </trkpt>
      <trkpt lat="45.48661" lon="4.63938">
        <ele>478.8739014</ele>
        <time>2011-06-15T09:20:28Z</time>
      </trkpt>
      <trkpt lat="45.48638" lon="4.63919">
        <ele>476.4705811</ele>
        <time>2011-06-15T09:20:51Z</time>
      </trkpt>
      <trkpt lat="45.48628" lon="4.63906">
        <ele>475.5092773</ele>
        <time>2011-06-15T09:21:04Z</time>
      </trkpt>
      <trkpt lat="45.48611" lon="4.63894">
        <ele>475.0286865</ele>
        <time>2011-06-15T09:21:21Z</time>
      </trkpt>
      <trkpt lat="45.48612" lon="4.63891">
        <ele>475.0286865</ele>
        <time>2011-06-15T09:21:24Z</time>
      </trkpt>
      <trkpt lat="45.48609" lon="4.63868">
        <ele>475.9898682</ele>
        <time>2011-06-15T09:21:39Z</time>
      </trkpt>
      <trkpt lat="45.48605" lon="4.63853">
        <ele>475.9898682</ele>
        <time>2011-06-15T09:21:47Z</time>
      </trkpt>
      <trkpt lat="45.48603" lon="4.63847">
        <ele>477.9124756</ele>
        <time>2011-06-15T09:21:59Z</time>
      </trkpt>
      <trkpt lat="45.48606" lon="4.63846">
        <ele>478.3931885</ele>
        <time>2011-06-15T09:22:20Z</time>
      </trkpt>
      <trkpt lat="45.48598" lon="4.63842">
        <ele>479.3544922</ele>
        <time>2011-06-15T09:25:12Z</time>
      </trkpt>
      <trkpt lat="45.48593" lon="4.63827">
        <ele>477.9124756</ele>
        <time>2011-06-15T09:25:21Z</time>
      </trkpt>
      <trkpt lat="45.4859" lon="4.6382">
        <ele>475.9898682</ele>
        <time>2011-06-15T09:25:27Z</time>
      </trkpt>
      <trkpt lat="45.48586" lon="4.63813">
        <ele>475.5092773</ele>
        <time>2011-06-15T09:25:37Z</time>
      </trkpt>
      <trkpt lat="45.48579" lon="4.63807">
        <ele>473.1060791</ele>
        <time>2011-06-15T09:25:42Z</time>
      </trkpt>
      <trkpt lat="45.48574" lon="4.63806">
        <ele>471.6639404</ele>
        <time>2011-06-15T09:25:46Z</time>
      </trkpt>
      <trkpt lat="45.4855" lon="4.63793">
        <ele>468.7800293</ele>
        <time>2011-06-15T09:26:01Z</time>
      </trkpt>
      <trkpt lat="45.48546" lon="4.63792">
        <ele>468.7800293</ele>
        <time>2011-06-15T09:26:04Z</time>
      </trkpt>
      <trkpt lat="45.48541" lon="4.63788">
        <ele>468.2993164</ele>
        <time>2011-06-15T09:26:07Z</time>
      </trkpt>
      <trkpt lat="45.48512" lon="4.63784">
        <ele>468.7800293</ele>
        <time>2011-06-15T09:26:23Z</time>
      </trkpt>
      <trkpt lat="45.48491" lon="4.6377">
        <ele>469.741333</ele>
        <time>2011-06-15T09:26:40Z</time>
      </trkpt>
      <trkpt lat="45.48483" lon="4.63763">
        <ele>470.7026367</ele>
        <time>2011-06-15T09:26:49Z</time>
      </trkpt>
      <trkpt lat="45.4847" lon="4.63753">
        <ele>462.0507813</ele>
        <time>2011-06-15T09:27:02Z</time>
      </trkpt>
      <trkpt lat="45.48462" lon="4.63744">
        <ele>462.5313721</ele>
        <time>2011-06-15T09:27:11Z</time>
      </trkpt>
      <trkpt lat="45.48445" lon="4.63727">
        <ele>465.4155273</ele>
        <time>2011-06-15T09:27:27Z</time>
      </trkpt>
      <trkpt lat="45.48433" lon="4.63713">
        <ele>466.8574219</ele>
        <time>2011-06-15T09:27:43Z</time>
      </trkpt>
      <trkpt lat="45.48432" lon="4.6371">
        <ele>467.3381348</ele>
        <time>2011-06-15T09:27:45Z</time>
      </trkpt>
      <trkpt lat="45.48429" lon="4.63705">
        <ele>468.2993164</ele>
        <time>2011-06-15T09:28:02Z</time>
      </trkpt>
      <trkpt lat="45.48424" lon="4.63703">
        <ele>472.1446533</ele>
        <time>2011-06-15T09:28:40Z</time>
      </trkpt>
      <trkpt lat="45.48425" lon="4.63704">
        <ele>470.7026367</ele>
        <time>2011-06-15T09:28:55Z</time>
      </trkpt>
      <trkpt lat="45.48424" lon="4.63703">
        <ele>468.7800293</ele>
        <time>2011-06-15T09:28:57Z</time>
      </trkpt>
      <trkpt lat="45.48401" lon="4.6369">
        <ele>450.9956055</ele>
        <time>2011-06-15T09:29:17Z</time>
      </trkpt>
      <trkpt lat="45.48375" lon="4.63674">
        <ele>442.3438721</ele>
        <time>2011-06-15T09:29:39Z</time>
      </trkpt>
      <trkpt lat="45.4836" lon="4.63657">
        <ele>443.7857666</ele>
        <time>2011-06-15T09:29:52Z</time>
      </trkpt>
      <trkpt lat="45.48341" lon="4.63645">
        <ele>448.1118164</ele>
        <time>2011-06-15T09:30:10Z</time>
      </trkpt>
      <trkpt lat="45.48327" lon="4.63618">
        <ele>451.9570313</ele>
        <time>2011-06-15T09:30:31Z</time>
      </trkpt>
      <trkpt lat="45.48313" lon="4.63604">
        <ele>453.8796387</ele>
        <time>2011-06-15T09:30:44Z</time>
      </trkpt>
      <trkpt lat="45.483" lon="4.63593">
        <ele>454.3602295</ele>
        <time>2011-06-15T09:30:55Z</time>
      </trkpt>
      <trkpt lat="45.48294" lon="4.63588">
        <ele>453.8796387</ele>
        <time>2011-06-15T09:31:03Z</time>
      </trkpt>
      <trkpt lat="45.48292" lon="4.63585">
        <ele>453.3989258</ele>
        <time>2011-06-15T09:31:07Z</time>
      </trkpt>
      <trkpt lat="45.48281" lon="4.6358">
        <ele>452.4376221</ele>
        <time>2011-06-15T09:31:16Z</time>
      </trkpt>
      <trkpt lat="45.4826" lon="4.63553">
        <ele>448.5924072</ele>
        <time>2011-06-15T09:31:35Z</time>
      </trkpt>
      <trkpt lat="45.48259" lon="4.63552">
        <ele>448.5924072</ele>
        <time>2011-06-15T09:31:36Z</time>
      </trkpt>
      <trkpt lat="45.48239" lon="4.63532">
        <ele>445.708374</ele>
        <time>2011-06-15T09:31:53Z</time>
      </trkpt>
      <trkpt lat="45.48222" lon="4.63512">
        <ele>442.3438721</ele>
        <time>2011-06-15T09:32:10Z</time>
      </trkpt>
      <trkpt lat="45.48209" lon="4.63497">
        <ele>431.769165</ele>
        <time>2011-06-15T09:32:27Z</time>
      </trkpt>
      <trkpt lat="45.48208" lon="4.63497">
        <ele>431.769165</ele>
        <time>2011-06-15T09:32:28Z</time>
      </trkpt>
      <trkpt lat="45.48189" lon="4.63497">
        <ele>430.3272705</ele>
        <time>2011-06-15T09:32:44Z</time>
      </trkpt>
      <trkpt lat="45.48176" lon="4.63488">
        <ele>427.9239502</ele>
        <time>2011-06-15T09:32:58Z</time>
      </trkpt>
      <trkpt lat="45.4817" lon="4.63485">
        <ele>427.4433594</ele>
        <time>2011-06-15T09:33:02Z</time>
      </trkpt>
      <trkpt lat="45.48168" lon="4.63472">
        <ele>425.520752</ele>
        <time>2011-06-15T09:33:13Z</time>
      </trkpt>
      <trkpt lat="45.48158" lon="4.6346">
        <ele>416.3881836</ele>
        <time>2011-06-15T09:33:36Z</time>
      </trkpt>
      <trkpt lat="45.48155" lon="4.63462">
        <ele>414.4654541</ele>
        <time>2011-06-15T09:33:39Z</time>
      </trkpt>
      <trkpt lat="45.48147" lon="4.63468">
        <ele>411.1009521</ele>
        <time>2011-06-15T09:33:48Z</time>
      </trkpt>
      <trkpt lat="45.48139" lon="4.63479">
        <ele>407.2556152</ele>
        <time>2011-06-15T09:33:58Z</time>
      </trkpt>
      <trkpt lat="45.48138" lon="4.63495">
        <ele>406.2943115</ele>
        <time>2011-06-15T09:34:07Z</time>
      </trkpt>
      <trkpt lat="45.48132" lon="4.63509">
        <ele>403.4104004</ele>
        <time>2011-06-15T09:34:22Z</time>
      </trkpt>
      <trkpt lat="45.48124" lon="4.63501">
        <ele>402.4490967</ele>
        <time>2011-06-15T09:34:29Z</time>
      </trkpt>
      <trkpt lat="45.48119" lon="4.63486">
        <ele>398.6037598</ele>
        <time>2011-06-15T09:34:50Z</time>
      </trkpt>
      <trkpt lat="45.48113" lon="4.63474">
        <ele>397.1617432</ele>
        <time>2011-06-15T09:35:02Z</time>
      </trkpt>
      <trkpt lat="45.48111" lon="4.63472">
        <ele>395.7198486</ele>
        <time>2011-06-15T09:35:05Z</time>
      </trkpt>
      <trkpt lat="45.48107" lon="4.63466">
        <ele>394.2779541</ele>
        <time>2011-06-15T09:35:12Z</time>
      </trkpt>
      <trkpt lat="45.48103" lon="4.63461">
        <ele>393.3165283</ele>
        <time>2011-06-15T09:35:17Z</time>
      </trkpt>
      <trkpt lat="45.48101" lon="4.6346">
        <ele>393.7972412</ele>
        <time>2011-06-15T09:35:21Z</time>
      </trkpt>
      <trkpt lat="45.481" lon="4.6345">
        <ele>393.3165283</ele>
        <time>2011-06-15T09:35:44Z</time>
      </trkpt>
      <trkpt lat="45.48076" lon="4.63454">
        <ele>392.8359375</ele>
        <time>2011-06-15T09:36:06Z</time>
      </trkpt>
      <trkpt lat="45.48059" lon="4.63415">
        <ele>394.7585449</ele>
        <time>2011-06-15T09:36:52Z</time>
      </trkpt>
      <trkpt lat="45.4806" lon="4.63414">
        <ele>394.7585449</ele>
        <time>2011-06-15T09:36:53Z</time>
      </trkpt>
      <trkpt lat="45.48066" lon="4.63405">
        <ele>395.7198486</ele>
        <time>2011-06-15T09:36:56Z</time>
      </trkpt>
      <trkpt lat="45.48068" lon="4.63405">
        <ele>396.2005615</ele>
        <time>2011-06-15T09:37:10Z</time>
      </trkpt>
      <trkpt lat="45.48075" lon="4.63397">
        <ele>396.2005615</ele>
        <time>2011-06-15T09:37:26Z</time>
      </trkpt>
      <trkpt lat="45.48076" lon="4.6339">
        <ele>396.6811523</ele>
        <time>2011-06-15T09:37:42Z</time>
      </trkpt>
      <trkpt lat="45.48072" lon="4.6338">
        <ele>397.1617432</ele>
        <time>2011-06-15T09:38:45Z</time>
      </trkpt>
      <trkpt lat="45.48069" lon="4.63375">
        <ele>398.1231689</ele>
        <time>2011-06-15T09:39:02Z</time>
      </trkpt>
      <trkpt lat="45.48069" lon="4.63359">
        <ele>400.0458984</ele>
        <time>2011-06-15T09:39:14Z</time>
      </trkpt>
      <trkpt lat="45.48071" lon="4.63359">
        <ele>401.0070801</ele>
        <time>2011-06-15T09:39:16Z</time>
      </trkpt>
      <trkpt lat="45.48067" lon="4.63349">
        <ele>397.1617432</ele>
        <time>2011-06-15T09:39:23Z</time>
      </trkpt>
      <trkpt lat="45.48072" lon="4.63326">
        <ele>398.1231689</ele>
        <time>2011-06-15T09:39:39Z</time>
      </trkpt>
      <trkpt lat="45.48087" lon="4.63317">
        <ele>398.6037598</ele>
        <time>2011-06-15T09:39:53Z</time>
      </trkpt>
      <trkpt lat="45.48109" lon="4.63317">
        <ele>395.7198486</ele>
        <time>2011-06-15T09:40:07Z</time>
      </trkpt>
      <trkpt lat="45.48139" lon="4.6329">
        <ele>391.8745117</ele>
        <time>2011-06-15T09:40:36Z</time>
      </trkpt>
      <trkpt lat="45.48143" lon="4.6329">
        <ele>391.3937988</ele>
        <time>2011-06-15T09:40:38Z</time>
      </trkpt>
      <trkpt lat="45.48178" lon="4.63277">
        <ele>389.9519043</ele>
        <time>2011-06-15T09:41:06Z</time>
      </trkpt>
      <trkpt lat="45.48207" lon="4.63255">
        <ele>387.0679932</ele>
        <time>2011-06-15T09:41:35Z</time>
      </trkpt>
      <trkpt lat="45.4821" lon="4.63253">
        <ele>387.0679932</ele>
        <time>2011-06-15T09:41:37Z</time>
      </trkpt>
      <trkpt lat="45.48232" lon="4.63225">
        <ele>385.6259766</ele>
        <time>2011-06-15T09:42:02Z</time>
      </trkpt>
      <trkpt lat="45.48249" lon="4.63202">
        <ele>389.9519043</ele>
        <time>2011-06-15T09:42:23Z</time>
      </trkpt>
      <trkpt lat="45.48257" lon="4.6318">
        <ele>396.2005615</ele>
        <time>2011-06-15T09:42:38Z</time>
      </trkpt>
      <trkpt lat="45.48257" lon="4.63169">
        <ele>398.1231689</ele>
        <time>2011-06-15T09:42:44Z</time>
      </trkpt>
      <trkpt lat="45.48257" lon="4.63165">
        <ele>400.0458984</ele>
        <time>2011-06-15T09:42:47Z</time>
      </trkpt>
      <trkpt lat="45.48262" lon="4.63128">
        <ele>409.6590576</ele>
        <time>2011-06-15T09:43:05Z</time>
      </trkpt>
      <trkpt lat="45.48262" lon="4.6312">
        <ele>409.6590576</ele>
        <time>2011-06-15T09:43:11Z</time>
      </trkpt>
      <trkpt lat="45.4824" lon="4.63114">
        <ele>413.9848633</ele>
        <time>2011-06-15T09:43:29Z</time>
      </trkpt>
      <trkpt lat="45.48221" lon="4.63113">
        <ele>414.4654541</ele>
        <time>2011-06-15T09:43:44Z</time>
      </trkpt>
      <trkpt lat="45.48215" lon="4.63113">
        <ele>413.5042725</ele>
        <time>2011-06-15T09:43:48Z</time>
      </trkpt>
      <trkpt lat="45.48194" lon="4.63109">
        <ele>413.0235596</ele>
        <time>2011-06-15T09:44:07Z</time>
      </trkpt>
      <trkpt lat="45.48172" lon="4.63121">
        <ele>416.8688965</ele>
        <time>2011-06-15T09:44:26Z</time>
      </trkpt>
      <trkpt lat="45.48155" lon="4.63125">
        <ele>420.2333984</ele>
        <time>2011-06-15T09:44:41Z</time>
      </trkpt>
      <trkpt lat="45.48151" lon="4.63127">
        <ele>420.7141113</ele>
        <time>2011-06-15T09:44:44Z</time>
      </trkpt>
      <trkpt lat="45.48148" lon="4.63129">
        <ele>421.1948242</ele>
        <time>2011-06-15T09:44:47Z</time>
      </trkpt>
      <trkpt lat="45.48135" lon="4.63131">
        <ele>422.6367188</ele>
        <time>2011-06-15T09:44:58Z</time>
      </trkpt>
      <trkpt lat="45.4813" lon="4.63131">
        <ele>423.1174316</ele>
        <time>2011-06-15T09:45:02Z</time>
      </trkpt>
      <trkpt lat="45.48114" lon="4.63128">
        <ele>425.520752</ele>
        <time>2011-06-15T09:45:15Z</time>
      </trkpt>
      <trkpt lat="45.48092" lon="4.63131">
        <ele>429.3659668</ele>
        <time>2011-06-15T09:45:34Z</time>
      </trkpt>
      <trkpt lat="45.48086" lon="4.6313">
        <ele>430.8079834</ele>
        <time>2011-06-15T09:45:38Z</time>
      </trkpt>
      <trkpt lat="45.48077" lon="4.63132">
        <ele>432.7307129</ele>
        <time>2011-06-15T09:45:46Z</time>
      </trkpt>
      <trkpt lat="45.48063" lon="4.63131">
        <ele>437.5371094</ele>
        <time>2011-06-15T09:45:57Z</time>
      </trkpt>
      <trkpt lat="45.48049" lon="4.63131">
        <ele>441.3824463</ele>
        <time>2011-06-15T09:46:09Z</time>
      </trkpt>
      <trkpt lat="45.48034" lon="4.63133">
        <ele>445.708374</ele>
        <time>2011-06-15T09:46:25Z</time>
      </trkpt>
      <trkpt lat="45.48011" lon="4.63137">
        <ele>452.4376221</ele>
        <time>2011-06-15T09:46:46Z</time>
      </trkpt>
      <trkpt lat="45.47992" lon="4.63142">
        <ele>457.7249756</ele>
        <time>2011-06-15T09:47:01Z</time>
      </trkpt>
      <trkpt lat="45.47986" lon="4.63145">
        <ele>460.1281738</ele>
        <time>2011-06-15T09:47:07Z</time>
      </trkpt>
      <trkpt lat="45.47965" lon="4.63152">
        <ele>464.4541016</ele>
        <time>2011-06-15T09:47:26Z</time>
      </trkpt>
      <trkpt lat="45.47951" lon="4.63174">
        <ele>465.4155273</ele>
        <time>2011-06-15T09:47:45Z</time>
      </trkpt>
      <trkpt lat="45.47929" lon="4.63192">
        <ele>468.2993164</ele>
        <time>2011-06-15T09:48:06Z</time>
      </trkpt>
      <trkpt lat="45.47912" lon="4.63213">
        <ele>469.2607422</ele>
        <time>2011-06-15T09:48:25Z</time>
      </trkpt>
      <trkpt lat="45.47898" lon="4.63234">
        <ele>469.741333</ele>
        <time>2011-06-15T09:48:40Z</time>
      </trkpt>
      <trkpt lat="45.47878" lon="4.63257">
        <ele>475.9898682</ele>
        <time>2011-06-15T09:49:02Z</time>
      </trkpt>
      <trkpt lat="45.47854" lon="4.63282">
        <ele>480.7966309</ele>
        <time>2011-06-15T09:49:27Z</time>
      </trkpt>
      <trkpt lat="45.47838" lon="4.63311">
        <ele>487.5256348</ele>
        <time>2011-06-15T09:49:49Z</time>
      </trkpt>
      <trkpt lat="45.47831" lon="4.63346">
        <ele>493.2935791</ele>
        <time>2011-06-15T09:50:11Z</time>
      </trkpt>
      <trkpt lat="45.47819" lon="4.63363">
        <ele>498.1003418</ele>
        <time>2011-06-15T09:50:30Z</time>
      </trkpt>
      <trkpt lat="45.4781" lon="4.63381">
        <ele>501.9455566</ele>
        <time>2011-06-15T09:50:47Z</time>
      </trkpt>
      <trkpt lat="45.4781" lon="4.63385">
        <ele>502.9067383</ele>
        <time>2011-06-15T09:50:51Z</time>
      </trkpt>
      <trkpt lat="45.47798" lon="4.63405">
        <ele>506.2714844</ele>
        <time>2011-06-15T09:51:07Z</time>
      </trkpt>
      <trkpt lat="45.47779" lon="4.63433">
        <ele>512.0394287</ele>
        <time>2011-06-15T09:51:30Z</time>
      </trkpt>
      <trkpt lat="45.47773" lon="4.63437">
        <ele>511.0780029</ele>
        <time>2011-06-15T09:51:34Z</time>
      </trkpt>
      <trkpt lat="45.47765" lon="4.63447">
        <ele>507.713501</ele>
        <time>2011-06-15T09:51:44Z</time>
      </trkpt>
      <trkpt lat="45.47764" lon="4.63453">
        <ele>507.713501</ele>
        <time>2011-06-15T09:51:49Z</time>
      </trkpt>
      <trkpt lat="45.47766" lon="4.63463">
        <ele>507.2327881</ele>
        <time>2011-06-15T09:51:55Z</time>
      </trkpt>
      <trkpt lat="45.47765" lon="4.63472">
        <ele>507.713501</ele>
        <time>2011-06-15T09:52:00Z</time>
      </trkpt>
      <trkpt lat="45.47757" lon="4.63482">
        <ele>508.6746826</ele>
        <time>2011-06-15T09:52:12Z</time>
      </trkpt>
      <trkpt lat="45.47751" lon="4.6349">
        <ele>509.1553955</ele>
        <time>2011-06-15T09:52:19Z</time>
      </trkpt>
      <trkpt lat="45.47732" lon="4.63512">
        <ele>512.0394287</ele>
        <time>2011-06-15T09:52:40Z</time>
      </trkpt>
      <trkpt lat="45.47715" lon="4.63537">
        <ele>514.442627</ele>
        <time>2011-06-15T09:53:00Z</time>
      </trkpt>
      <trkpt lat="45.47701" lon="4.6356">
        <ele>518.7685547</ele>
        <time>2011-06-15T09:53:16Z</time>
      </trkpt>
      <trkpt lat="45.47687" lon="4.63581">
        <ele>521.6525879</ele>
        <time>2011-06-15T09:53:31Z</time>
      </trkpt>
      <trkpt lat="45.47679" lon="4.63597">
        <ele>520.2105713</ele>
        <time>2011-06-15T09:53:46Z</time>
      </trkpt>
      <trkpt lat="45.47671" lon="4.63613">
        <ele>519.2492676</ele>
        <time>2011-06-15T09:53:59Z</time>
      </trkpt>
      <trkpt lat="45.47668" lon="4.63618">
        <ele>519.2492676</ele>
        <time>2011-06-15T09:54:03Z</time>
      </trkpt>
      <trkpt lat="45.47659" lon="4.63657">
        <ele>515.8846436</ele>
        <time>2011-06-15T09:54:27Z</time>
      </trkpt>
      <trkpt lat="45.47647" lon="4.6369">
        <ele>519.7298584</ele>
        <time>2011-06-15T09:54:44Z</time>
      </trkpt>
      <trkpt lat="45.47642" lon="4.63704">
        <ele>521.1719971</ele>
        <time>2011-06-15T09:54:53Z</time>
      </trkpt>
      <trkpt lat="45.47636" lon="4.63716">
        <ele>521.1719971</ele>
        <time>2011-06-15T09:55:00Z</time>
      </trkpt>
      <trkpt lat="45.47634" lon="4.63727">
        <ele>522.1331787</ele>
        <time>2011-06-15T09:55:07Z</time>
      </trkpt>
      <trkpt lat="45.4762" lon="4.63745">
        <ele>524.536499</ele>
        <time>2011-06-15T09:55:24Z</time>
      </trkpt>
      <trkpt lat="45.47607" lon="4.63766">
        <ele>525.4978027</ele>
        <time>2011-06-15T09:55:40Z</time>
      </trkpt>
      <trkpt lat="45.47589" lon="4.63787">
        <ele>523.0946045</ele>
        <time>2011-06-15T09:56:00Z</time>
      </trkpt>
      <trkpt lat="45.47571" lon="4.63808">
        <ele>523.5751953</ele>
        <time>2011-06-15T09:56:16Z</time>
      </trkpt>
      <trkpt lat="45.47551" lon="4.63838">
        <ele>524.536499</ele>
        <time>2011-06-15T09:56:36Z</time>
      </trkpt>
      <trkpt lat="45.47541" lon="4.63864">
        <ele>526.9398193</ele>
        <time>2011-06-15T09:56:55Z</time>
      </trkpt>
      <trkpt lat="45.47528" lon="4.63886">
        <ele>527.4204102</ele>
        <time>2011-06-15T09:57:12Z</time>
      </trkpt>
      <trkpt lat="45.47512" lon="4.63906">
        <ele>526.9398193</ele>
        <time>2011-06-15T09:57:30Z</time>
      </trkpt>
      <trkpt lat="45.47493" lon="4.63929">
        <ele>529.8237305</ele>
        <time>2011-06-15T09:57:52Z</time>
      </trkpt>
      <trkpt lat="45.47485" lon="4.63938">
        <ele>531.7463379</ele>
        <time>2011-06-15T09:58:02Z</time>
      </trkpt>
      <trkpt lat="45.47482" lon="4.63941">
        <ele>531.2657471</ele>
        <time>2011-06-15T09:58:04Z</time>
      </trkpt>
      <trkpt lat="45.47467" lon="4.63954">
        <ele>531.7463379</ele>
        <time>2011-06-15T09:58:21Z</time>
      </trkpt>
      <trkpt lat="45.47441" lon="4.63976">
        <ele>532.7077637</ele>
        <time>2011-06-15T09:58:44Z</time>
      </trkpt>
      <trkpt lat="45.47426" lon="4.63989">
        <ele>533.1883545</ele>
        <time>2011-06-15T09:58:59Z</time>
      </trkpt>
      <trkpt lat="45.47405" lon="4.64013">
        <ele>534.6303711</ele>
        <time>2011-06-15T09:59:20Z</time>
      </trkpt>
      <trkpt lat="45.47389" lon="4.64034">
        <ele>532.2270508</ele>
        <time>2011-06-15T09:59:40Z</time>
      </trkpt>
      <trkpt lat="45.47387" lon="4.64035">
        <ele>532.2270508</ele>
        <time>2011-06-15T09:59:43Z</time>
      </trkpt>
      <trkpt lat="45.47372" lon="4.64045">
        <ele>529.8237305</ele>
        <time>2011-06-15T09:59:58Z</time>
      </trkpt>
      <trkpt lat="45.47366" lon="4.64049">
        <ele>529.8237305</ele>
        <time>2011-06-15T10:00:03Z</time>
      </trkpt>
      <trkpt lat="45.47346" lon="4.64063">
        <ele>526.4591064</ele>
        <time>2011-06-15T10:00:25Z</time>
      </trkpt>
      <trkpt lat="45.47315" lon="4.64082">
        <ele>522.6138916</ele>
        <time>2011-06-15T10:00:54Z</time>
      </trkpt>
      <trkpt lat="45.4729" lon="4.64099">
        <ele>518.7685547</ele>
        <time>2011-06-15T10:01:13Z</time>
      </trkpt>
      <trkpt lat="45.47279" lon="4.64113">
        <ele>518.2878418</ele>
        <time>2011-06-15T10:01:23Z</time>
      </trkpt>
      <trkpt lat="45.47262" lon="4.64136">
        <ele>516.8459473</ele>
        <time>2011-06-15T10:01:42Z</time>
      </trkpt>
      <trkpt lat="45.47252" lon="4.64149">
        <ele>518.7685547</ele>
        <time>2011-06-15T10:01:55Z</time>
      </trkpt>
      <trkpt lat="45.47247" lon="4.64164">
        <ele>520.6912842</ele>
        <time>2011-06-15T10:02:02Z</time>
      </trkpt>
      <trkpt lat="45.47236" lon="4.64181">
        <ele>526.9398193</ele>
        <time>2011-06-15T10:02:16Z</time>
      </trkpt>
      <trkpt lat="45.47216" lon="4.64207">
        <ele>536.5531006</ele>
        <time>2011-06-15T10:02:33Z</time>
      </trkpt>
      <trkpt lat="45.47211" lon="4.64208">
        <ele>537.9949951</ele>
        <time>2011-06-15T10:02:36Z</time>
      </trkpt>
      <trkpt lat="45.47203" lon="4.64217">
        <ele>542.3209229</ele>
        <time>2011-06-15T10:02:44Z</time>
      </trkpt>
      <trkpt lat="45.4719" lon="4.64239">
        <ele>550.0114746</ele>
        <time>2011-06-15T10:03:01Z</time>
      </trkpt>
      <trkpt lat="45.4719" lon="4.6424">
        <ele>550.4921875</ele>
        <time>2011-06-15T10:03:02Z</time>
      </trkpt>
      <trkpt lat="45.47162" lon="4.64279">
        <ele>555.298584</ele>
        <time>2011-06-15T10:03:19Z</time>
      </trkpt>
      <trkpt lat="45.47163" lon="4.64282">
        <ele>551.4533691</ele>
        <time>2011-06-15T10:03:23Z</time>
      </trkpt>
      <trkpt lat="45.47158" lon="4.64279">
        <ele>545.6855469</ele>
        <time>2011-06-15T10:03:27Z</time>
      </trkpt>
      <trkpt lat="45.47144" lon="4.64293">
        <ele>535.5915527</ele>
        <time>2011-06-15T10:03:41Z</time>
      </trkpt>
      <trkpt lat="45.47139" lon="4.64304">
        <ele>529.8237305</ele>
        <time>2011-06-15T10:03:55Z</time>
      </trkpt>
      <trkpt lat="45.47136" lon="4.64315">
        <ele>525.4978027</ele>
        <time>2011-06-15T10:04:01Z</time>
      </trkpt>
      <trkpt lat="45.47128" lon="4.64332">
        <ele>520.6912842</ele>
        <time>2011-06-15T10:04:17Z</time>
      </trkpt>
      <trkpt lat="45.47126" lon="4.64334">
        <ele>520.6912842</ele>
        <time>2011-06-15T10:04:19Z</time>
      </trkpt>
      <trkpt lat="45.4712" lon="4.64336">
        <ele>517.807251</ele>
        <time>2011-06-15T10:04:23Z</time>
      </trkpt>
      <trkpt lat="45.47107" lon="4.64357">
        <ele>516.8459473</ele>
        <time>2011-06-15T10:04:41Z</time>
      </trkpt>
      <trkpt lat="45.47107" lon="4.64359">
        <ele>517.3266602</ele>
        <time>2011-06-15T10:04:42Z</time>
      </trkpt>
      <trkpt lat="45.47104" lon="4.64361">
        <ele>518.2878418</ele>
        <time>2011-06-15T10:04:46Z</time>
      </trkpt>
      <trkpt lat="45.47095" lon="4.64372">
        <ele>510.1166992</ele>
        <time>2011-06-15T10:04:53Z</time>
      </trkpt>
      <trkpt lat="45.47095" lon="4.64376">
        <ele>511.5587158</ele>
        <time>2011-06-15T10:05:04Z</time>
      </trkpt>
      <trkpt lat="45.47104" lon="4.64377">
        <ele>512.0394287</ele>
        <time>2011-06-15T10:05:13Z</time>
      </trkpt>
      <trkpt lat="45.47121" lon="4.64386">
        <ele>504.348877</ele>
        <time>2011-06-15T10:05:30Z</time>
      </trkpt>
      <trkpt lat="45.47123" lon="4.64387">
        <ele>502.9067383</ele>
        <time>2011-06-15T10:05:31Z</time>
      </trkpt>
      <trkpt lat="45.47132" lon="4.64398">
        <ele>501.4648438</ele>
        <time>2011-06-15T10:05:39Z</time>
      </trkpt>
      <trkpt lat="45.47136" lon="4.64405">
        <ele>501.9455566</ele>
        <time>2011-06-15T10:05:44Z</time>
      </trkpt>
      <trkpt lat="45.47146" lon="4.64415">
        <ele>506.2714844</ele>
        <time>2011-06-15T10:05:56Z</time>
      </trkpt>
      <trkpt lat="45.47155" lon="4.64431">
        <ele>511.0780029</ele>
        <time>2011-06-15T10:06:09Z</time>
      </trkpt>
      <trkpt lat="45.47167" lon="4.64461">
        <ele>516.8459473</ele>
        <time>2011-06-15T10:06:29Z</time>
      </trkpt>
      <trkpt lat="45.4719" lon="4.64482">
        <ele>523.5751953</ele>
        <time>2011-06-15T10:06:53Z</time>
      </trkpt>
      <trkpt lat="45.47209" lon="4.64516">
        <ele>527.4204102</ele>
        <time>2011-06-15T10:07:17Z</time>
      </trkpt>
      <trkpt lat="45.47216" lon="4.64525">
        <ele>526.9398193</ele>
        <time>2011-06-15T10:07:21Z</time>
      </trkpt>
      <trkpt lat="45.47224" lon="4.64537">
        <ele>526.9398193</ele>
        <time>2011-06-15T10:07:29Z</time>
      </trkpt>
      <trkpt lat="45.47228" lon="4.64539">
        <ele>526.9398193</ele>
        <time>2011-06-15T10:07:32Z</time>
      </trkpt>
      <trkpt lat="45.47233" lon="4.64549">
        <ele>526.4591064</ele>
        <time>2011-06-15T10:07:40Z</time>
      </trkpt>
      <trkpt lat="45.47236" lon="4.6457">
        <ele>526.9398193</ele>
        <time>2011-06-15T10:07:55Z</time>
      </trkpt>
      <trkpt lat="45.47244" lon="4.64587">
        <ele>527.901001</ele>
        <time>2011-06-15T10:08:06Z</time>
      </trkpt>
      <trkpt lat="45.47244" lon="4.64595">
        <ele>528.3818359</ele>
        <time>2011-06-15T10:08:28Z</time>
      </trkpt>
      <trkpt lat="45.47243" lon="4.64601">
        <ele>527.4204102</ele>
        <time>2011-06-15T10:09:02Z</time>
      </trkpt>
      <trkpt lat="45.47249" lon="4.64616">
        <ele>526.4591064</ele>
        <time>2011-06-15T10:09:12Z</time>
      </trkpt>
      <trkpt lat="45.47257" lon="4.64643">
        <ele>525.9783936</ele>
        <time>2011-06-15T10:09:33Z</time>
      </trkpt>
      <trkpt lat="45.47262" lon="4.64666">
        <ele>525.9783936</ele>
        <time>2011-06-15T10:09:47Z</time>
      </trkpt>
      <trkpt lat="45.47269" lon="4.64689">
        <ele>525.4978027</ele>
        <time>2011-06-15T10:09:59Z</time>
      </trkpt>
      <trkpt lat="45.47271" lon="4.64694">
        <ele>525.9783936</ele>
        <time>2011-06-15T10:10:03Z</time>
      </trkpt>
      <trkpt lat="45.47274" lon="4.64716">
        <ele>527.4204102</ele>
        <time>2011-06-15T10:10:17Z</time>
      </trkpt>
      <trkpt lat="45.47269" lon="4.64717">
        <ele>527.901001</ele>
        <time>2011-06-15T10:10:21Z</time>
      </trkpt>
      <trkpt lat="45.47254" lon="4.64718">
        <ele>530.7851563</ele>
        <time>2011-06-15T10:10:36Z</time>
      </trkpt>
      <trkpt lat="45.47241" lon="4.64716">
        <ele>532.7077637</ele>
        <time>2011-06-15T10:10:44Z</time>
      </trkpt>
      <trkpt lat="45.47235" lon="4.64722">
        <ele>534.1496582</ele>
        <time>2011-06-15T10:10:53Z</time>
      </trkpt>
      <trkpt lat="45.47223" lon="4.64738">
        <ele>536.0723877</ele>
        <time>2011-06-15T10:11:05Z</time>
      </trkpt>
      <trkpt lat="45.47214" lon="4.64748">
        <ele>536.5531006</ele>
        <time>2011-06-15T10:11:18Z</time>
      </trkpt>
      <trkpt lat="45.47194" lon="4.64762">
        <ele>539.4368896</ele>
        <time>2011-06-15T10:11:39Z</time>
      </trkpt>
      <trkpt lat="45.47166" lon="4.64781">
        <ele>542.3209229</ele>
        <time>2011-06-15T10:12:04Z</time>
      </trkpt>
      <trkpt lat="45.47124" lon="4.64791">
        <ele>549.0500488</ele>
        <time>2011-06-15T10:12:45Z</time>
      </trkpt>
      <trkpt lat="45.47097" lon="4.64792">
        <ele>554.8178711</ele>
        <time>2011-06-15T10:13:17Z</time>
      </trkpt>
      <trkpt lat="45.47083" lon="4.64796">
        <ele>562.9892578</ele>
        <time>2011-06-15T10:13:41Z</time>
      </trkpt>
      <trkpt lat="45.47074" lon="4.64803">
        <ele>565.873291</ele>
        <time>2011-06-15T10:14:53Z</time>
      </trkpt>
      <trkpt lat="45.47051" lon="4.64819">
        <ele>570.1989746</ele>
        <time>2011-06-15T10:15:16Z</time>
      </trkpt>
      <trkpt lat="45.47033" lon="4.64825">
        <ele>575.967041</ele>
        <time>2011-06-15T10:15:44Z</time>
      </trkpt>
      <trkpt lat="45.47002" lon="4.6485">
        <ele>577.4091797</ele>
        <time>2011-06-15T10:16:44Z</time>
      </trkpt>
      <trkpt lat="45.46997" lon="4.64854">
        <ele>577.8896484</ele>
        <time>2011-06-15T10:16:48Z</time>
      </trkpt>
      <trkpt lat="45.46977" lon="4.64862">
        <ele>579.8122559</ele>
        <time>2011-06-15T10:16:59Z</time>
      </trkpt>
      <trkpt lat="45.46959" lon="4.64879">
        <ele>583.6574707</ele>
        <time>2011-06-15T10:17:21Z</time>
      </trkpt>
      <trkpt lat="45.46935" lon="4.649">
        <ele>586.5415039</ele>
        <time>2011-06-15T10:17:41Z</time>
      </trkpt>
      <trkpt lat="45.46914" lon="4.6491">
        <ele>591.3481445</ele>
        <time>2011-06-15T10:17:57Z</time>
      </trkpt>
      <trkpt lat="45.46886" lon="4.6492">
        <ele>594.2321777</ele>
        <time>2011-06-15T10:18:21Z</time>
      </trkpt>
      <trkpt lat="45.4686" lon="4.64928">
        <ele>596.635498</ele>
        <time>2011-06-15T10:18:42Z</time>
      </trkpt>
      <trkpt lat="45.46857" lon="4.64932">
        <ele>597.1159668</ele>
        <time>2011-06-15T10:18:45Z</time>
      </trkpt>
      <trkpt lat="45.46857" lon="4.64962">
        <ele>599.0385742</ele>
        <time>2011-06-15T10:19:02Z</time>
      </trkpt>
      <trkpt lat="45.46852" lon="4.65001">
        <ele>600.9611816</ele>
        <time>2011-06-15T10:19:22Z</time>
      </trkpt>
      <trkpt lat="45.46834" lon="4.64999">
        <ele>605.7680664</ele>
        <time>2011-06-15T10:19:39Z</time>
      </trkpt>
      <trkpt lat="45.46822" lon="4.64985">
        <ele>611.0551758</ele>
        <time>2011-06-15T10:19:54Z</time>
      </trkpt>
      <trkpt lat="45.46805" lon="4.64963">
        <ele>612.0166016</ele>
        <time>2011-06-15T10:20:12Z</time>
      </trkpt>
      <trkpt lat="45.46795" lon="4.64952">
        <ele>611.0551758</ele>
        <time>2011-06-15T10:20:27Z</time>
      </trkpt>
      <trkpt lat="45.46772" lon="4.64933">
        <ele>611.5358887</ele>
        <time>2011-06-15T10:20:48Z</time>
      </trkpt>
      <trkpt lat="45.46752" lon="4.64916">
        <ele>615.8618164</ele>
        <time>2011-06-15T10:21:08Z</time>
      </trkpt>
      <trkpt lat="45.46746" lon="4.64911">
        <ele>617.3037109</ele>
        <time>2011-06-15T10:21:13Z</time>
      </trkpt>
      <trkpt lat="45.46726" lon="4.64911">
        <ele>622.5910645</ele>
        <time>2011-06-15T10:21:29Z</time>
      </trkpt>
      <trkpt lat="45.4671" lon="4.64923">
        <ele>624.5136719</ele>
        <time>2011-06-15T10:21:44Z</time>
      </trkpt>
      <trkpt lat="45.46701" lon="4.64927">
        <ele>626.4362793</ele>
        <time>2011-06-15T10:21:50Z</time>
      </trkpt>
      <trkpt lat="45.46667" lon="4.64938">
        <ele>632.2041016</ele>
        <time>2011-06-15T10:22:16Z</time>
      </trkpt>
      <trkpt lat="45.46628" lon="4.6495">
        <ele>638.4528809</ele>
        <time>2011-06-15T10:22:45Z</time>
      </trkpt>
      <trkpt lat="45.46614" lon="4.64956">
        <ele>645.1818848</ele>
        <time>2011-06-15T10:22:58Z</time>
      </trkpt>
      <trkpt lat="45.46592" lon="4.64946">
        <ele>655.2758789</ele>
        <time>2011-06-15T10:23:12Z</time>
      </trkpt>
      <trkpt lat="45.46589" lon="4.64944">
        <ele>657.6791992</ele>
        <time>2011-06-15T10:23:15Z</time>
      </trkpt>
      <trkpt lat="45.46574" lon="4.64942">
        <ele>661.0437012</ele>
        <time>2011-06-15T10:23:30Z</time>
      </trkpt>
      <trkpt lat="45.46556" lon="4.64942">
        <ele>665.3696289</ele>
        <time>2011-06-15T10:23:45Z</time>
      </trkpt>
      <trkpt lat="45.46538" lon="4.64931">
        <ele>672.5795898</ele>
        <time>2011-06-15T10:24:00Z</time>
      </trkpt>
      <trkpt lat="45.46534" lon="4.64938">
        <ele>675.4633789</ele>
        <time>2011-06-15T10:24:05Z</time>
      </trkpt>
      <trkpt lat="45.46513" lon="4.64931">
        <ele>683.6345215</ele>
        <time>2011-06-15T10:24:20Z</time>
      </trkpt>
      <trkpt lat="45.46494" lon="4.64926">
        <ele>690.3640137</ele>
        <time>2011-06-15T10:24:33Z</time>
      </trkpt>
      <trkpt lat="45.46479" lon="4.64925">
        <ele>687.9606934</ele>
        <time>2011-06-15T10:24:47Z</time>
      </trkpt>
      <trkpt lat="45.46468" lon="4.6493">
        <ele>690.8444824</ele>
        <time>2011-06-15T10:24:58Z</time>
      </trkpt>
      <trkpt lat="45.46445" lon="4.64934">
        <ele>696.1318359</ele>
        <time>2011-06-15T10:25:16Z</time>
      </trkpt>
      <trkpt lat="45.46441" lon="4.64934">
        <ele>697.5737305</ele>
        <time>2011-06-15T10:25:19Z</time>
      </trkpt>
      <trkpt lat="45.46436" lon="4.64935">
        <ele>701.4191895</ele>
        <time>2011-06-15T10:25:27Z</time>
      </trkpt>
      <trkpt lat="45.4641" lon="4.64925">
        <ele>697.0930176</ele>
        <time>2011-06-15T10:25:45Z</time>
      </trkpt>
      <trkpt lat="45.46393" lon="4.64924">
        <ele>693.2478027</ele>
        <time>2011-06-15T10:26:02Z</time>
      </trkpt>
      <trkpt lat="45.46365" lon="4.64919">
        <ele>691.8059082</ele>
        <time>2011-06-15T10:26:27Z</time>
      </trkpt>
      <trkpt lat="45.46344" lon="4.649">
        <ele>681.2314453</ele>
        <time>2011-06-15T10:26:45Z</time>
      </trkpt>
      <trkpt lat="45.46338" lon="4.64897">
        <ele>680.2700195</ele>
        <time>2011-06-15T10:26:49Z</time>
      </trkpt>
      <trkpt lat="45.46318" lon="4.6489">
        <ele>675.4633789</ele>
        <time>2011-06-15T10:27:05Z</time>
      </trkpt>
      <trkpt lat="45.46298" lon="4.64898">
        <ele>679.7893066</ele>
        <time>2011-06-15T10:27:25Z</time>
      </trkpt>
      <trkpt lat="45.46289" lon="4.64899">
        <ele>681.2314453</ele>
        <time>2011-06-15T10:27:32Z</time>
      </trkpt>
      <trkpt lat="45.46282" lon="4.64906">
        <ele>683.1538086</ele>
        <time>2011-06-15T10:27:40Z</time>
      </trkpt>
      <trkpt lat="45.46263" lon="4.64916">
        <ele>689.4025879</ele>
        <time>2011-06-15T10:27:58Z</time>
      </trkpt>
      <trkpt lat="45.46242" lon="4.6493">
        <ele>691.3251953</ele>
        <time>2011-06-15T10:28:21Z</time>
      </trkpt>
      <trkpt lat="45.46212" lon="4.64947">
        <ele>693.7285156</ele>
        <time>2011-06-15T10:28:47Z</time>
      </trkpt>
      <trkpt lat="45.46192" lon="4.64973">
        <ele>694.6896973</ele>
        <time>2011-06-15T10:29:11Z</time>
      </trkpt>
      <trkpt lat="45.46175" lon="4.65">
        <ele>696.6125488</ele>
        <time>2011-06-15T10:29:32Z</time>
      </trkpt>
      <trkpt lat="45.46151" lon="4.65034">
        <ele>699.9770508</ele>
        <time>2011-06-15T10:30:01Z</time>
      </trkpt>
      <trkpt lat="45.46111" lon="4.65068">
        <ele>702.3803711</ele>
        <time>2011-06-15T10:30:35Z</time>
      </trkpt>
      <trkpt lat="45.46083" lon="4.65085">
        <ele>706.2255859</ele>
        <time>2011-06-15T10:31:03Z</time>
      </trkpt>
      <trkpt lat="45.46049" lon="4.65112">
        <ele>708.6289063</ele>
        <time>2011-06-15T10:31:30Z</time>
      </trkpt>
      <trkpt lat="45.46026" lon="4.65123">
        <ele>710.0708008</ele>
        <time>2011-06-15T10:31:52Z</time>
      </trkpt>
      <trkpt lat="45.46009" lon="4.6513">
        <ele>711.0322266</ele>
        <time>2011-06-15T10:32:08Z</time>
      </trkpt>
      <trkpt lat="45.45981" lon="4.65148">
        <ele>712.4741211</ele>
        <time>2011-06-15T10:32:30Z</time>
      </trkpt>
      <trkpt lat="45.45959" lon="4.65163">
        <ele>712.4741211</ele>
        <time>2011-06-15T10:32:49Z</time>
      </trkpt>
      <trkpt lat="45.45936" lon="4.65181">
        <ele>714.8774414</ele>
        <time>2011-06-15T10:33:07Z</time>
      </trkpt>
      <trkpt lat="45.45915" lon="4.6518">
        <ele>719.6843262</ele>
        <time>2011-06-15T10:33:27Z</time>
      </trkpt>
      <trkpt lat="45.4589" lon="4.65186">
        <ele>722.0874023</ele>
        <time>2011-06-15T10:33:47Z</time>
      </trkpt>
      <trkpt lat="45.45864" lon="4.65183">
        <ele>725.9326172</ele>
        <time>2011-06-15T10:34:10Z</time>
      </trkpt>
      <trkpt lat="45.45864" lon="4.65183">
        <ele>725.9326172</ele>
        <time>2011-06-15T10:34:31Z</time>
      </trkpt>
      <trkpt lat="45.45862" lon="4.65182">
        <ele>725.9326172</ele>
        <time>2011-06-15T10:34:40Z</time>
      </trkpt>
      <trkpt lat="45.45859" lon="4.65176">
        <ele>725.9326172</ele>
        <time>2011-06-15T10:34:44Z</time>
      </trkpt>
      <trkpt lat="45.45851" lon="4.65142">
        <ele>730.7392578</ele>
        <time>2011-06-15T10:35:04Z</time>
      </trkpt>
      <trkpt lat="45.45851" lon="4.65139">
        <ele>732.6621094</ele>
        <time>2011-06-15T10:35:18Z</time>
      </trkpt>
      <trkpt lat="45.4585" lon="4.65136">
        <ele>733.1425781</ele>
        <time>2011-06-15T10:35:21Z</time>
      </trkpt>
      <trkpt lat="45.45833" lon="4.65113">
        <ele>738.9106445</ele>
        <time>2011-06-15T10:35:39Z</time>
      </trkpt>
      <trkpt lat="45.45814" lon="4.65108">
        <ele>742.2751465</ele>
        <time>2011-06-15T10:35:55Z</time>
      </trkpt>
      <trkpt lat="45.45793" lon="4.65086">
        <ele>744.6782227</ele>
        <time>2011-06-15T10:36:11Z</time>
      </trkpt>
      <trkpt lat="45.45783" lon="4.65072">
        <ele>738.4299316</ele>
        <time>2011-06-15T10:36:26Z</time>
      </trkpt>
      <trkpt lat="45.4578" lon="4.65069">
        <ele>738.4299316</ele>
        <time>2011-06-15T10:36:30Z</time>
      </trkpt>
      <trkpt lat="45.45777" lon="4.65065">
        <ele>737.9492188</ele>
        <time>2011-06-15T10:36:33Z</time>
      </trkpt>
      <trkpt lat="45.45773" lon="4.65061">
        <ele>738.4299316</ele>
        <time>2011-06-15T10:36:37Z</time>
      </trkpt>
      <trkpt lat="45.45764" lon="4.65045">
        <ele>739.3911133</ele>
        <time>2011-06-15T10:36:49Z</time>
      </trkpt>
      <trkpt lat="45.45751" lon="4.65029">
        <ele>741.3137207</ele>
        <time>2011-06-15T10:37:06Z</time>
      </trkpt>
      <trkpt lat="45.45732" lon="4.64991">
        <ele>745.6396484</ele>
        <time>2011-06-15T10:37:31Z</time>
      </trkpt>
      <trkpt lat="45.45722" lon="4.64978">
        <ele>749.4851074</ele>
        <time>2011-06-15T10:37:41Z</time>
      </trkpt>
      <trkpt lat="45.4571" lon="4.64944">
        <ele>754.7722168</ele>
        <time>2011-06-15T10:37:59Z</time>
      </trkpt>
      <trkpt lat="45.45696" lon="4.64912">
        <ele>761.020752</ele>
        <time>2011-06-15T10:38:22Z</time>
      </trkpt>
      <trkpt lat="45.45684" lon="4.64891">
        <ele>767.2695313</ele>
        <time>2011-06-15T10:38:40Z</time>
      </trkpt>
      <trkpt lat="45.4568" lon="4.64865">
        <ele>770.6340332</ele>
        <time>2011-06-15T10:38:58Z</time>
      </trkpt>
      <trkpt lat="45.4566" lon="4.64826">
        <ele>775.9211426</ele>
        <time>2011-06-15T10:39:29Z</time>
      </trkpt>
      <trkpt lat="45.45631" lon="4.64795">
        <ele>776.8825684</ele>
        <time>2011-06-15T10:40:01Z</time>
      </trkpt>
      <trkpt lat="45.45611" lon="4.64788">
        <ele>772.5566406</ele>
        <time>2011-06-15T10:40:16Z</time>
      </trkpt>
      <trkpt lat="45.45582" lon="4.64778">
        <ele>765.3469238</ele>
        <time>2011-06-15T10:40:38Z</time>
      </trkpt>
      <trkpt lat="45.45579" lon="4.64776">
        <ele>764.385498</ele>
        <time>2011-06-15T10:40:40Z</time>
      </trkpt>
      <trkpt lat="45.45562" lon="4.64772">
        <ele>762.9433594</ele>
        <time>2011-06-15T10:40:54Z</time>
      </trkpt>
      <trkpt lat="45.45529" lon="4.64776">
        <ele>759.5788574</ele>
        <time>2011-06-15T10:41:23Z</time>
      </trkpt>
      <trkpt lat="45.45512" lon="4.64786">
        <ele>759.0981445</ele>
        <time>2011-06-15T10:41:34Z</time>
      </trkpt>
      <trkpt lat="45.45503" lon="4.64794">
        <ele>758.6174316</ele>
        <time>2011-06-15T10:41:41Z</time>
      </trkpt>
      <trkpt lat="45.45473" lon="4.64813">
        <ele>750.4465332</ele>
        <time>2011-06-15T10:42:03Z</time>
      </trkpt>
      <trkpt lat="45.45465" lon="4.64817">
        <ele>747.5622559</ele>
        <time>2011-06-15T10:42:10Z</time>
      </trkpt>
      <trkpt lat="45.4544" lon="4.64839">
        <ele>749.9658203</ele>
        <time>2011-06-15T10:42:32Z</time>
      </trkpt>
      <trkpt lat="45.45426" lon="4.64843">
        <ele>749.9658203</ele>
        <time>2011-06-15T10:42:44Z</time>
      </trkpt>
      <trkpt lat="45.45423" lon="4.64849">
        <ele>749.4851074</ele>
        <time>2011-06-15T10:42:49Z</time>
      </trkpt>
      <trkpt lat="45.45418" lon="4.64849">
        <ele>749.9658203</ele>
        <time>2011-06-15T10:42:53Z</time>
      </trkpt>
      <trkpt lat="45.45403" lon="4.64845">
        <ele>749.9658203</ele>
        <time>2011-06-15T10:43:03Z</time>
      </trkpt>
      <trkpt lat="45.454" lon="4.64847">
        <ele>749.9658203</ele>
        <time>2011-06-15T10:43:05Z</time>
      </trkpt>
      <trkpt lat="45.45398" lon="4.64848">
        <ele>750.4465332</ele>
        <time>2011-06-15T10:43:07Z</time>
      </trkpt>
      <trkpt lat="45.4539" lon="4.64848">
        <ele>749.9658203</ele>
        <time>2011-06-15T10:43:15Z</time>
      </trkpt>
      <trkpt lat="45.45376" lon="4.64845">
        <ele>750.4465332</ele>
        <time>2011-06-15T10:43:27Z</time>
      </trkpt>
      <trkpt lat="45.45347" lon="4.64852">
        <ele>752.3688965</ele>
        <time>2011-06-15T10:43:44Z</time>
      </trkpt>
      <trkpt lat="45.45322" lon="4.64871">
        <ele>756.2141113</ele>
        <time>2011-06-15T10:44:03Z</time>
      </trkpt>
      <trkpt lat="45.45316" lon="4.64882">
        <ele>759.5788574</ele>
        <time>2011-06-15T10:44:14Z</time>
      </trkpt>
      <trkpt lat="45.45315" lon="4.64887">
        <ele>759.5788574</ele>
        <time>2011-06-15T10:44:17Z</time>
      </trkpt>
      <trkpt lat="45.45313" lon="4.64894">
        <ele>759.5788574</ele>
        <time>2011-06-15T10:44:21Z</time>
      </trkpt>
      <trkpt lat="45.45308" lon="4.64904">
        <ele>758.6174316</ele>
        <time>2011-06-15T10:44:27Z</time>
      </trkpt>
      <trkpt lat="45.45299" lon="4.64922">
        <ele>759.0981445</ele>
        <time>2011-06-15T10:44:39Z</time>
      </trkpt>
      <trkpt lat="45.45293" lon="4.64936">
        <ele>759.0981445</ele>
        <time>2011-06-15T10:44:47Z</time>
      </trkpt>
      <trkpt lat="45.4528" lon="4.64957">
        <ele>759.5788574</ele>
        <time>2011-06-15T10:45:03Z</time>
      </trkpt>
      <trkpt lat="45.4527" lon="4.64975">
        <ele>761.9821777</ele>
        <time>2011-06-15T10:45:19Z</time>
      </trkpt>
      <trkpt lat="45.45257" lon="4.65012">
        <ele>770.6340332</ele>
        <time>2011-06-15T10:45:38Z</time>
      </trkpt>
      <trkpt lat="45.45259" lon="4.65041">
        <ele>773.5180664</ele>
        <time>2011-06-15T10:45:54Z</time>
      </trkpt>
      <trkpt lat="45.45261" lon="4.6506">
        <ele>775.9211426</ele>
        <time>2011-06-15T10:46:04Z</time>
      </trkpt>
      <trkpt lat="45.45258" lon="4.65065">
        <ele>776.8825684</ele>
        <time>2011-06-15T10:46:10Z</time>
      </trkpt>
      <trkpt lat="45.45255" lon="4.65055">
        <ele>777.84375</ele>
        <time>2011-06-15T10:46:16Z</time>
      </trkpt>
      <trkpt lat="45.45236" lon="4.65023">
        <ele>781.2087402</ele>
        <time>2011-06-15T10:46:37Z</time>
      </trkpt>
      <trkpt lat="45.45208" lon="4.64999">
        <ele>786.4958496</ele>
        <time>2011-06-15T10:47:02Z</time>
      </trkpt>
      <trkpt lat="45.452" lon="4.65002">
        <ele>787.9377441</ele>
        <time>2011-06-15T10:47:08Z</time>
      </trkpt>
      <trkpt lat="45.45198" lon="4.65004">
        <ele>788.418457</ele>
        <time>2011-06-15T10:47:10Z</time>
      </trkpt>
      <trkpt lat="45.4519" lon="4.64992">
        <ele>790.8215332</ele>
        <time>2011-06-15T10:47:24Z</time>
      </trkpt>
      <trkpt lat="45.45183" lon="4.64979">
        <ele>792.2636719</ele>
        <time>2011-06-15T10:47:36Z</time>
      </trkpt>
      <trkpt lat="45.45184" lon="4.64988">
        <ele>791.782959</ele>
        <time>2011-06-15T10:47:41Z</time>
      </trkpt>
      <trkpt lat="45.45185" lon="4.65029">
        <ele>793.7055664</ele>
        <time>2011-06-15T10:48:02Z</time>
      </trkpt>
      <trkpt lat="45.45185" lon="4.65031">
        <ele>794.1862793</ele>
        <time>2011-06-15T10:48:25Z</time>
      </trkpt>
      <trkpt lat="45.45185" lon="4.65034">
        <ele>793.7055664</ele>
        <time>2011-06-15T10:48:46Z</time>
      </trkpt>
      <trkpt lat="45.45185" lon="4.65035">
        <ele>793.7055664</ele>
        <time>2011-06-15T10:49:33Z</time>
      </trkpt>
      <trkpt lat="45.45177" lon="4.65055">
        <ele>795.6281738</ele>
        <time>2011-06-15T10:49:46Z</time>
      </trkpt>
      <trkpt lat="45.45174" lon="4.65056">
        <ele>796.5898438</ele>
        <time>2011-06-15T10:49:58Z</time>
      </trkpt>
      <trkpt lat="45.45169" lon="4.65054">
        <ele>796.5898438</ele>
        <time>2011-06-15T10:50:10Z</time>
      </trkpt>
      <trkpt lat="45.45157" lon="4.65051">
        <ele>798.512207</ele>
        <time>2011-06-15T10:50:28Z</time>
      </trkpt>
      <trkpt lat="45.45145" lon="4.6505">
        <ele>800.9155273</ele>
        <time>2011-06-15T10:50:35Z</time>
      </trkpt>
      <trkpt lat="45.45125" lon="4.65046">
        <ele>807.1640625</ele>
        <time>2011-06-15T10:50:56Z</time>
      </trkpt>
      <trkpt lat="45.45108" lon="4.65043">
        <ele>810.0478516</ele>
        <time>2011-06-15T10:51:11Z</time>
      </trkpt>
      <trkpt lat="45.45104" lon="4.65042">
        <ele>811.0092773</ele>
        <time>2011-06-15T10:51:15Z</time>
      </trkpt>
      <trkpt lat="45.45089" lon="4.6504">
        <ele>812.9321289</ele>
        <time>2011-06-15T10:51:28Z</time>
      </trkpt>
      <trkpt lat="45.45087" lon="4.65041">
        <ele>812.9321289</ele>
        <time>2011-06-15T10:51:30Z</time>
      </trkpt>
      <trkpt lat="45.45081" lon="4.65043">
        <ele>812.9321289</ele>
        <time>2011-06-15T10:51:44Z</time>
      </trkpt>
      <trkpt lat="45.45079" lon="4.65041">
        <ele>813.4128418</ele>
        <time>2011-06-15T10:53:15Z</time>
      </trkpt>
      <trkpt lat="45.45066" lon="4.65019">
        <ele>816.7773438</ele>
        <time>2011-06-15T10:53:33Z</time>
      </trkpt>
      <trkpt lat="45.45049" lon="4.64994">
        <ele>819.661377</ele>
        <time>2011-06-15T10:53:54Z</time>
      </trkpt>
      <trkpt lat="45.45035" lon="4.64972">
        <ele>826.3903809</ele>
        <time>2011-06-15T10:54:11Z</time>
      </trkpt>
      <trkpt lat="45.45016" lon="4.64945">
        <ele>826.3903809</ele>
        <time>2011-06-15T10:54:33Z</time>
      </trkpt>
      <trkpt lat="45.45003" lon="4.64919">
        <ele>829.2744141</ele>
        <time>2011-06-15T10:54:52Z</time>
      </trkpt>
      <trkpt lat="45.44988" lon="4.6489">
        <ele>834.5617676</ele>
        <time>2011-06-15T10:55:13Z</time>
      </trkpt>
      <trkpt lat="45.44979" lon="4.64878">
        <ele>836.484375</ele>
        <time>2011-06-15T10:55:24Z</time>
      </trkpt>
      <trkpt lat="45.44978" lon="4.64875">
        <ele>836.9648438</ele>
        <time>2011-06-15T10:55:26Z</time>
      </trkpt>
      <trkpt lat="45.44974" lon="4.64872">
        <ele>837.9262695</ele>
        <time>2011-06-15T10:55:30Z</time>
      </trkpt>
      <trkpt lat="45.44957" lon="4.64845">
        <ele>843.2133789</ele>
        <time>2011-06-15T10:55:49Z</time>
      </trkpt>
      <trkpt lat="45.44955" lon="4.64831">
        <ele>847.0588379</ele>
        <time>2011-06-15T10:56:00Z</time>
      </trkpt>
      <trkpt lat="45.44951" lon="4.64819">
        <ele>848.5007324</ele>
        <time>2011-06-15T10:56:09Z</time>
      </trkpt>
      <trkpt lat="45.44947" lon="4.64786">
        <ele>849.9428711</ele>
        <time>2011-06-15T10:56:26Z</time>
      </trkpt>
      <trkpt lat="45.4494" lon="4.64744">
        <ele>854.7492676</ele>
        <time>2011-06-15T10:56:48Z</time>
      </trkpt>
      <trkpt lat="45.44939" lon="4.64718">
        <ele>854.2687988</ele>
        <time>2011-06-15T10:57:05Z</time>
      </trkpt>
      <trkpt lat="45.44939" lon="4.64685">
        <ele>851.3847656</ele>
        <time>2011-06-15T10:57:22Z</time>
      </trkpt>
      <trkpt lat="45.44935" lon="4.64653">
        <ele>852.3459473</ele>
        <time>2011-06-15T10:57:39Z</time>
      </trkpt>
      <trkpt lat="45.44937" lon="4.64651">
        <ele>851.3847656</ele>
        <time>2011-06-15T10:57:50Z</time>
      </trkpt>
      <trkpt lat="45.44936" lon="4.64631">
        <ele>851.3847656</ele>
        <time>2011-06-15T10:58:06Z</time>
      </trkpt>
      <trkpt lat="45.44927" lon="4.64606">
        <ele>852.8266602</ele>
        <time>2011-06-15T10:58:20Z</time>
      </trkpt>
      <trkpt lat="45.44918" lon="4.64584">
        <ele>858.5944824</ele>
        <time>2011-06-15T10:58:33Z</time>
      </trkpt>
      <trkpt lat="45.44911" lon="4.64563">
        <ele>860.9980469</ele>
        <time>2011-06-15T10:58:47Z</time>
      </trkpt>
      <trkpt lat="45.44898" lon="4.64529">
        <ele>858.5944824</ele>
        <time>2011-06-15T10:59:10Z</time>
      </trkpt>
      <trkpt lat="45.44886" lon="4.64502">
        <ele>855.7106934</ele>
        <time>2011-06-15T10:59:33Z</time>
      </trkpt>
      <trkpt lat="45.4488" lon="4.64484">
        <ele>853.307373</ele>
        <time>2011-06-15T10:59:48Z</time>
      </trkpt>
      <trkpt lat="45.44876" lon="4.64482">
        <ele>852.3459473</ele>
        <time>2011-06-15T10:59:51Z</time>
      </trkpt>
      <trkpt lat="45.44864" lon="4.64444">
        <ele>850.423584</ele>
        <time>2011-06-15T11:00:14Z</time>
      </trkpt>
      <trkpt lat="45.44863" lon="4.64436">
        <ele>850.423584</ele>
        <time>2011-06-15T11:00:18Z</time>
      </trkpt>
      <trkpt lat="45.44852" lon="4.64406">
        <ele>852.3459473</ele>
        <time>2011-06-15T11:00:37Z</time>
      </trkpt>
      <trkpt lat="45.44846" lon="4.64384">
        <ele>852.3459473</ele>
        <time>2011-06-15T11:00:49Z</time>
      </trkpt>
      <trkpt lat="45.44838" lon="4.64354">
        <ele>853.7880859</ele>
        <time>2011-06-15T11:01:06Z</time>
      </trkpt>
      <trkpt lat="45.44838" lon="4.64352">
        <ele>853.7880859</ele>
        <time>2011-06-15T11:01:07Z</time>
      </trkpt>
      <trkpt lat="45.44829" lon="4.64325">
        <ele>855.7106934</ele>
        <time>2011-06-15T11:01:23Z</time>
      </trkpt>
      <trkpt lat="45.4482" lon="4.64286">
        <ele>857.1525879</ele>
        <time>2011-06-15T11:01:43Z</time>
      </trkpt>
      <trkpt lat="45.4481" lon="4.64244">
        <ele>856.671875</ele>
        <time>2011-06-15T11:02:05Z</time>
      </trkpt>
      <trkpt lat="45.4481" lon="4.64243">
        <ele>856.671875</ele>
        <time>2011-06-15T11:02:06Z</time>
      </trkpt>
      <trkpt lat="45.44808" lon="4.64232">
        <ele>856.671875</ele>
        <time>2011-06-15T11:02:13Z</time>
      </trkpt>
      <trkpt lat="45.44804" lon="4.64214">
        <ele>856.671875</ele>
        <time>2011-06-15T11:02:22Z</time>
      </trkpt>
      <trkpt lat="45.448" lon="4.64203">
        <ele>852.8266602</ele>
        <time>2011-06-15T11:02:30Z</time>
      </trkpt>
      <trkpt lat="45.44793" lon="4.64188">
        <ele>849.4621582</ele>
        <time>2011-06-15T11:02:40Z</time>
      </trkpt>
      <trkpt lat="45.44792" lon="4.64168">
        <ele>847.0588379</ele>
        <time>2011-06-15T11:02:54Z</time>
      </trkpt>
      <trkpt lat="45.44788" lon="4.64154">
        <ele>846.0976563</ele>
        <time>2011-06-15T11:03:03Z</time>
      </trkpt>
      <trkpt lat="45.44783" lon="4.64135">
        <ele>846.0976563</ele>
        <time>2011-06-15T11:03:14Z</time>
      </trkpt>
      <trkpt lat="45.44781" lon="4.64124">
        <ele>845.6169434</ele>
        <time>2011-06-15T11:03:20Z</time>
      </trkpt>
      <trkpt lat="45.44769" lon="4.64101">
        <ele>844.6555176</ele>
        <time>2011-06-15T11:03:36Z</time>
      </trkpt>
      <trkpt lat="45.44757" lon="4.64063">
        <ele>844.1750488</ele>
        <time>2011-06-15T11:03:58Z</time>
      </trkpt>
      <trkpt lat="45.4475" lon="4.64055">
        <ele>844.1750488</ele>
        <time>2011-06-15T11:04:25Z</time>
      </trkpt>
      <trkpt lat="45.44744" lon="4.64031">
        <ele>843.6940918</ele>
        <time>2011-06-15T11:05:00Z</time>
      </trkpt>
      <trkpt lat="45.44723" lon="4.63995">
        <ele>843.6940918</ele>
        <time>2011-06-15T11:05:24Z</time>
      </trkpt>
      <trkpt lat="45.4471" lon="4.63972">
        <ele>842.7329102</ele>
        <time>2011-06-15T11:05:45Z</time>
      </trkpt>
      <trkpt lat="45.44695" lon="4.63944">
        <ele>840.8100586</ele>
        <time>2011-06-15T11:06:12Z</time>
      </trkpt>
      <trkpt lat="45.44681" lon="4.63907">
        <ele>836.484375</ele>
        <time>2011-06-15T11:06:40Z</time>
      </trkpt>
      <trkpt lat="45.44661" lon="4.63866">
        <ele>830.7165527</ele>
        <time>2011-06-15T11:07:10Z</time>
      </trkpt>
      <trkpt lat="45.44645" lon="4.63836">
        <ele>825.4289551</ele>
        <time>2011-06-15T11:07:36Z</time>
      </trkpt>
      <trkpt lat="45.44626" lon="4.63804">
        <ele>821.1032715</ele>
        <time>2011-06-15T11:08:04Z</time>
      </trkpt>
      <trkpt lat="45.44612" lon="4.63781">
        <ele>817.2580566</ele>
        <time>2011-06-15T11:08:24Z</time>
      </trkpt>
      <trkpt lat="45.44599" lon="4.63752">
        <ele>811.4899902</ele>
        <time>2011-06-15T11:08:44Z</time>
      </trkpt>
      <trkpt lat="45.44592" lon="4.63726">
        <ele>805.722168</ele>
        <time>2011-06-15T11:09:04Z</time>
      </trkpt>
      <trkpt lat="45.44581" lon="4.63702">
        <ele>802.8381348</ele>
        <time>2011-06-15T11:09:21Z</time>
      </trkpt>
      <trkpt lat="45.44578" lon="4.63698">
        <ele>799.9543457</ele>
        <time>2011-06-15T11:09:41Z</time>
      </trkpt>
      <trkpt lat="45.44578" lon="4.63697">
        <ele>799.9543457</ele>
        <time>2011-06-15T11:09:43Z</time>
      </trkpt>
      <trkpt lat="45.44575" lon="4.63692">
        <ele>801.3962402</ele>
        <time>2011-06-15T11:10:03Z</time>
      </trkpt>
      <trkpt lat="45.44561" lon="4.63679">
        <ele>800.4350586</ele>
        <time>2011-06-15T11:10:23Z</time>
      </trkpt>
      <trkpt lat="45.44553" lon="4.63695">
        <ele>798.9929199</ele>
        <time>2011-06-15T11:10:53Z</time>
      </trkpt>
      <trkpt lat="45.44556" lon="4.63715">
        <ele>798.512207</ele>
        <time>2011-06-15T11:11:00Z</time>
      </trkpt>
      <trkpt lat="45.4456" lon="4.63723">
        <ele>797.0703125</ele>
        <time>2011-06-15T11:11:03Z</time>
      </trkpt>
      <trkpt lat="45.44563" lon="4.63757">
        <ele>793.7055664</ele>
        <time>2011-06-15T11:11:21Z</time>
      </trkpt>
      <trkpt lat="45.44566" lon="4.63765">
        <ele>793.7055664</ele>
        <time>2011-06-15T11:11:26Z</time>
      </trkpt>
      <trkpt lat="45.44574" lon="4.63785">
        <ele>792.2636719</ele>
        <time>2011-06-15T11:11:37Z</time>
      </trkpt>
      <trkpt lat="45.44583" lon="4.63812">
        <ele>787.4570313</ele>
        <time>2011-06-15T11:11:52Z</time>
      </trkpt>
      <trkpt lat="45.44587" lon="4.63831">
        <ele>784.0925293</ele>
        <time>2011-06-15T11:12:04Z</time>
      </trkpt>
      <trkpt lat="45.4459" lon="4.63841">
        <ele>782.6506348</ele>
        <time>2011-06-15T11:12:10Z</time>
      </trkpt>
      <trkpt lat="45.44595" lon="4.63873">
        <ele>779.2856445</ele>
        <time>2011-06-15T11:12:26Z</time>
      </trkpt>
      <trkpt lat="45.44594" lon="4.63884">
        <ele>779.2856445</ele>
        <time>2011-06-15T11:12:32Z</time>
      </trkpt>
      <trkpt lat="45.44595" lon="4.63914">
        <ele>779.7663574</ele>
        <time>2011-06-15T11:12:49Z</time>
      </trkpt>
      <trkpt lat="45.44597" lon="4.63941">
        <ele>776.8825684</ele>
        <time>2011-06-15T11:13:04Z</time>
      </trkpt>
      <trkpt lat="45.446" lon="4.63975">
        <ele>773.5180664</ele>
        <time>2011-06-15T11:13:23Z</time>
      </trkpt>
      <trkpt lat="45.44604" lon="4.64007">
        <ele>767.2695313</ele>
        <time>2011-06-15T11:13:43Z</time>
      </trkpt>
      <trkpt lat="45.44605" lon="4.64011">
        <ele>765.8276367</ele>
        <time>2011-06-15T11:14:05Z</time>
      </trkpt>
      <trkpt lat="45.44605" lon="4.64016">
        <ele>765.3469238</ele>
        <time>2011-06-15T11:14:19Z</time>
      </trkpt>
      <trkpt lat="45.44604" lon="4.64023">
        <ele>765.3469238</ele>
        <time>2011-06-15T11:14:22Z</time>
      </trkpt>
      <trkpt lat="45.44603" lon="4.64029">
        <ele>765.8276367</ele>
        <time>2011-06-15T11:14:25Z</time>
      </trkpt>
      <trkpt lat="45.44597" lon="4.64067">
        <ele>762.9433594</ele>
        <time>2011-06-15T11:14:49Z</time>
      </trkpt>
      <trkpt lat="45.44596" lon="4.6409">
        <ele>760.5400391</ele>
        <time>2011-06-15T11:15:05Z</time>
      </trkpt>
      <trkpt lat="45.446" lon="4.64116">
        <ele>754.7722168</ele>
        <time>2011-06-15T11:15:20Z</time>
      </trkpt>
      <trkpt lat="45.44598" lon="4.64129">
        <ele>751.4077148</ele>
        <time>2011-06-15T11:15:28Z</time>
      </trkpt>
      <trkpt lat="45.44601" lon="4.64147">
        <ele>749.0043945</ele>
        <time>2011-06-15T11:15:40Z</time>
      </trkpt>
      <trkpt lat="45.44599" lon="4.64171">
        <ele>749.9658203</ele>
        <time>2011-06-15T11:15:51Z</time>
      </trkpt>
      <trkpt lat="45.44595" lon="4.64205">
        <ele>749.4851074</ele>
        <time>2011-06-15T11:16:08Z</time>
      </trkpt>
      <trkpt lat="45.44595" lon="4.64224">
        <ele>747.081543</ele>
        <time>2011-06-15T11:16:21Z</time>
      </trkpt>
      <trkpt lat="45.44595" lon="4.64231">
        <ele>745.6396484</ele>
        <time>2011-06-15T11:16:26Z</time>
      </trkpt>
      <trkpt lat="45.44596" lon="4.64237">
        <ele>744.1977539</ele>
        <time>2011-06-15T11:16:31Z</time>
      </trkpt>
      <trkpt lat="45.44599" lon="4.6427">
        <ele>741.7944336</ele>
        <time>2011-06-15T11:16:48Z</time>
      </trkpt>
      <trkpt lat="45.44596" lon="4.64292">
        <ele>739.3911133</ele>
        <time>2011-06-15T11:17:02Z</time>
      </trkpt>
      <trkpt lat="45.44595" lon="4.64325">
        <ele>736.987793</ele>
        <time>2011-06-15T11:17:18Z</time>
      </trkpt>
      <trkpt lat="45.44595" lon="4.64327">
        <ele>736.987793</ele>
        <time>2011-06-15T11:17:19Z</time>
      </trkpt>
      <trkpt lat="45.44595" lon="4.64334">
        <ele>735.5458984</ele>
        <time>2011-06-15T11:17:23Z</time>
      </trkpt>
      <trkpt lat="45.44596" lon="4.64348">
        <ele>735.0654297</ele>
        <time>2011-06-15T11:17:32Z</time>
      </trkpt>
      <trkpt lat="45.44596" lon="4.64368">
        <ele>735.5458984</ele>
        <time>2011-06-15T11:17:41Z</time>
      </trkpt>
      <trkpt lat="45.44595" lon="4.64374">
        <ele>734.5847168</ele>
        <time>2011-06-15T11:17:44Z</time>
      </trkpt>
      <trkpt lat="45.44594" lon="4.64393">
        <ele>731.2199707</ele>
        <time>2011-06-15T11:17:56Z</time>
      </trkpt>
      <trkpt lat="45.44595" lon="4.64401">
        <ele>730.7392578</ele>
        <time>2011-06-15T11:18:00Z</time>
      </trkpt>
      <trkpt lat="45.44595" lon="4.64408">
        <ele>729.2971191</ele>
        <time>2011-06-15T11:18:04Z</time>
      </trkpt>
      <trkpt lat="45.44595" lon="4.64414">
        <ele>728.8166504</ele>
        <time>2011-06-15T11:18:07Z</time>
      </trkpt>
      <trkpt lat="45.44595" lon="4.64428">
        <ele>727.3747559</ele>
        <time>2011-06-15T11:18:15Z</time>
      </trkpt>
      <trkpt lat="45.44592" lon="4.64469">
        <ele>727.8552246</ele>
        <time>2011-06-15T11:18:34Z</time>
      </trkpt>
      <trkpt lat="45.4459" lon="4.64499">
        <ele>726.894043</ele>
        <time>2011-06-15T11:18:53Z</time>
      </trkpt>
      <trkpt lat="45.44584" lon="4.64532">
        <ele>724.0100098</ele>
        <time>2011-06-15T11:19:15Z</time>
      </trkpt>
      <trkpt lat="45.44583" lon="4.64574">
        <ele>719.2036133</ele>
        <time>2011-06-15T11:19:38Z</time>
      </trkpt>
      <trkpt lat="45.44583" lon="4.64616">
        <ele>718.2421875</ele>
        <time>2011-06-15T11:19:57Z</time>
      </trkpt>
      <trkpt lat="45.44585" lon="4.64638">
        <ele>718.2421875</ele>
        <time>2011-06-15T11:20:09Z</time>
      </trkpt>
      <trkpt lat="45.44588" lon="4.64661">
        <ele>714.8774414</ele>
        <time>2011-06-15T11:20:22Z</time>
      </trkpt>
      <trkpt lat="45.44588" lon="4.64679">
        <ele>714.8774414</ele>
        <time>2011-06-15T11:20:33Z</time>
      </trkpt>
      <trkpt lat="45.44596" lon="4.64708">
        <ele>716.800293</ele>
        <time>2011-06-15T11:20:49Z</time>
      </trkpt>
      <trkpt lat="45.44601" lon="4.64716">
        <ele>716.3195801</ele>
        <time>2011-06-15T11:20:54Z</time>
      </trkpt>
      <trkpt lat="45.44617" lon="4.64746">
        <ele>711.9936523</ele>
        <time>2011-06-15T11:21:14Z</time>
      </trkpt>
      <trkpt lat="45.44619" lon="4.64751">
        <ele>710.5515137</ele>
        <time>2011-06-15T11:21:17Z</time>
      </trkpt>
      <trkpt lat="45.44629" lon="4.64771">
        <ele>706.2255859</ele>
        <time>2011-06-15T11:21:32Z</time>
      </trkpt>
      <trkpt lat="45.44637" lon="4.64782">
        <ele>701.4191895</ele>
        <time>2011-06-15T11:21:41Z</time>
      </trkpt>
      <trkpt lat="45.44638" lon="4.64787">
        <ele>700.4580078</ele>
        <time>2011-06-15T11:21:44Z</time>
      </trkpt>
      <trkpt lat="45.44642" lon="4.64794">
        <ele>697.5737305</ele>
        <time>2011-06-15T11:21:50Z</time>
      </trkpt>
      <trkpt lat="45.44643" lon="4.64805">
        <ele>697.0930176</ele>
        <time>2011-06-15T11:21:55Z</time>
      </trkpt>
      <trkpt lat="45.44642" lon="4.64822">
        <ele>699.4963379</ele>
        <time>2011-06-15T11:22:00Z</time>
      </trkpt>
      <trkpt lat="45.44635" lon="4.64838">
        <ele>705.7451172</ele>
        <time>2011-06-15T11:22:03Z</time>
      </trkpt>
      <trkpt lat="45.44632" lon="4.6487">
        <ele>709.1096191</ele>
        <time>2011-06-15T11:22:19Z</time>
      </trkpt>
      <trkpt lat="45.44633" lon="4.64873">
        <ele>708.6289063</ele>
        <time>2011-06-15T11:22:21Z</time>
      </trkpt>
      <trkpt lat="45.44633" lon="4.64902">
        <ele>707.1870117</ele>
        <time>2011-06-15T11:22:37Z</time>
      </trkpt>
      <trkpt lat="45.44623" lon="4.6493">
        <ele>707.6677246</ele>
        <time>2011-06-15T11:22:52Z</time>
      </trkpt>
      <trkpt lat="45.44604" lon="4.64968">
        <ele>706.2255859</ele>
        <time>2011-06-15T11:23:16Z</time>
      </trkpt>
      <trkpt lat="45.44588" lon="4.65001">
        <ele>705.2644043</ele>
        <time>2011-06-15T11:23:41Z</time>
      </trkpt>
      <trkpt lat="45.44587" lon="4.65031">
        <ele>703.8225098</ele>
        <time>2011-06-15T11:24:00Z</time>
      </trkpt>
      <trkpt lat="45.44574" lon="4.65053">
        <ele>703.8225098</ele>
        <time>2011-06-15T11:24:14Z</time>
      </trkpt>
      <trkpt lat="45.44562" lon="4.65071">
        <ele>703.3417969</ele>
        <time>2011-06-15T11:24:20Z</time>
      </trkpt>
      <trkpt lat="45.44516" lon="4.65105">
        <ele>702.861084</ele>
        <time>2011-06-15T11:24:33Z</time>
      </trkpt>
      <trkpt lat="45.44491" lon="4.65147">
        <ele>704.7836914</ele>
        <time>2011-06-15T11:24:44Z</time>
      </trkpt>
      <trkpt lat="45.44487" lon="4.65176">
        <ele>709.590332</ele>
        <time>2011-06-15T11:24:54Z</time>
      </trkpt>
      <trkpt lat="45.44474" lon="4.65204">
        <ele>713.4355469</ele>
        <time>2011-06-15T11:25:20Z</time>
      </trkpt>
      <trkpt lat="45.44465" lon="4.6523">
        <ele>721.1262207</ele>
        <time>2011-06-15T11:25:34Z</time>
      </trkpt>
      <trkpt lat="45.44454" lon="4.6527">
        <ele>726.4133301</ele>
        <time>2011-06-15T11:25:56Z</time>
      </trkpt>
      <trkpt lat="45.4444" lon="4.65308">
        <ele>726.4133301</ele>
        <time>2011-06-15T11:26:18Z</time>
      </trkpt>
      <trkpt lat="45.44434" lon="4.65335">
        <ele>724.4907227</ele>
        <time>2011-06-15T11:26:33Z</time>
      </trkpt>
      <trkpt lat="45.44432" lon="4.6534">
        <ele>723.529541</ele>
        <time>2011-06-15T11:26:36Z</time>
      </trkpt>
      <trkpt lat="45.44432" lon="4.65343">
        <ele>723.0488281</ele>
        <time>2011-06-15T11:26:38Z</time>
      </trkpt>
      <trkpt lat="45.44431" lon="4.65354">
        <ele>720.6455078</ele>
        <time>2011-06-15T11:26:45Z</time>
      </trkpt>
      <trkpt lat="45.4443" lon="4.65357">
        <ele>720.6455078</ele>
        <time>2011-06-15T11:26:47Z</time>
      </trkpt>
      <trkpt lat="45.44429" lon="4.6537">
        <ele>720.1647949</ele>
        <time>2011-06-15T11:26:55Z</time>
      </trkpt>
      <trkpt lat="45.44427" lon="4.65375">
        <ele>720.6455078</ele>
        <time>2011-06-15T11:26:57Z</time>
      </trkpt>
      <trkpt lat="45.44421" lon="4.65397">
        <ele>720.1647949</ele>
        <time>2011-06-15T11:27:08Z</time>
      </trkpt>
      <trkpt lat="45.44415" lon="4.6542">
        <ele>719.6843262</ele>
        <time>2011-06-15T11:27:20Z</time>
      </trkpt>
      <trkpt lat="45.44416" lon="4.65434">
        <ele>718.2421875</ele>
        <time>2011-06-15T11:27:27Z</time>
      </trkpt>
      <trkpt lat="45.44417" lon="4.65437">
        <ele>717.7614746</ele>
        <time>2011-06-15T11:27:29Z</time>
      </trkpt>
      <trkpt lat="45.44429" lon="4.65515">
        <ele>715.8388672</ele>
        <time>2011-06-15T11:27:42Z</time>
      </trkpt>
      <trkpt lat="45.44449" lon="4.65563">
        <ele>713.4355469</ele>
        <time>2011-06-15T11:27:54Z</time>
      </trkpt>
      <trkpt lat="45.44477" lon="4.65611">
        <ele>713.4355469</ele>
        <time>2011-06-15T11:28:02Z</time>
      </trkpt>
      <trkpt lat="45.44504" lon="4.65656">
        <ele>711.5129395</ele>
        <time>2011-06-15T11:28:13Z</time>
      </trkpt>
      <trkpt lat="45.44524" lon="4.65693">
        <ele>708.6289063</ele>
        <time>2011-06-15T11:28:25Z</time>
      </trkpt>
      <trkpt lat="45.44552" lon="4.65739">
        <ele>706.2255859</ele>
        <time>2011-06-15T11:28:35Z</time>
      </trkpt>
      <trkpt lat="45.44578" lon="4.65833">
        <ele>712.4741211</ele>
        <time>2011-06-15T11:28:48Z</time>
      </trkpt>
      <trkpt lat="45.44588" lon="4.65892">
        <ele>716.800293</ele>
        <time>2011-06-15T11:28:58Z</time>
      </trkpt>
      <trkpt lat="45.44603" lon="4.65934">
        <ele>713.9160156</ele>
        <time>2011-06-15T11:29:07Z</time>
      </trkpt>
      <trkpt lat="45.44605" lon="4.65951">
        <ele>714.3967285</ele>
        <time>2011-06-15T11:29:10Z</time>
      </trkpt>
      <trkpt lat="45.44601" lon="4.66023">
        <ele>715.3581543</ele>
        <time>2011-06-15T11:29:21Z</time>
      </trkpt>
      <trkpt lat="45.44598" lon="4.66103">
        <ele>714.8774414</ele>
        <time>2011-06-15T11:29:33Z</time>
      </trkpt>
      <trkpt lat="45.446" lon="4.66176">
        <ele>713.9160156</ele>
        <time>2011-06-15T11:29:44Z</time>
      </trkpt>
      <trkpt lat="45.44598" lon="4.66193">
        <ele>712.954834</ele>
        <time>2011-06-15T11:29:47Z</time>
      </trkpt>
      <trkpt lat="45.44599" lon="4.66239">
        <ele>715.3581543</ele>
        <time>2011-06-15T11:29:58Z</time>
      </trkpt>
      <trkpt lat="45.44591" lon="4.66286">
        <ele>738.9106445</ele>
        <time>2011-06-15T11:30:14Z</time>
      </trkpt>
      <trkpt lat="45.44592" lon="4.66293">
        <ele>741.7944336</ele>
        <time>2011-06-15T11:30:18Z</time>
      </trkpt>
      <trkpt lat="45.44598" lon="4.66314">
        <ele>744.6782227</ele>
        <time>2011-06-15T11:30:34Z</time>
      </trkpt>
      <trkpt lat="45.44606" lon="4.66336">
        <ele>744.6782227</ele>
        <time>2011-06-15T11:30:50Z</time>
      </trkpt>
      <trkpt lat="45.4461" lon="4.6636">
        <ele>745.1589355</ele>
        <time>2011-06-15T11:31:00Z</time>
      </trkpt>
      <trkpt lat="45.44616" lon="4.6637">
        <ele>745.1589355</ele>
        <time>2011-06-15T11:31:08Z</time>
      </trkpt>
      <trkpt lat="45.44622" lon="4.66384">
        <ele>743.2363281</ele>
        <time>2011-06-15T11:31:18Z</time>
      </trkpt>
      <trkpt lat="45.44629" lon="4.66419">
        <ele>740.3525391</ele>
        <time>2011-06-15T11:31:32Z</time>
      </trkpt>
      <trkpt lat="45.44646" lon="4.66449">
        <ele>739.3911133</ele>
        <time>2011-06-15T11:31:42Z</time>
      </trkpt>
      <trkpt lat="45.44666" lon="4.66496">
        <ele>743.2363281</ele>
        <time>2011-06-15T11:31:52Z</time>
      </trkpt>
      <trkpt lat="45.44687" lon="4.66552">
        <ele>745.1589355</ele>
        <time>2011-06-15T11:32:05Z</time>
      </trkpt>
      <trkpt lat="45.44708" lon="4.66604">
        <ele>743.2363281</ele>
        <time>2011-06-15T11:32:18Z</time>
      </trkpt>
      <trkpt lat="45.44733" lon="4.6666">
        <ele>742.7558594</ele>
        <time>2011-06-15T11:32:32Z</time>
      </trkpt>
      <trkpt lat="45.44749" lon="4.66711">
        <ele>741.7944336</ele>
        <time>2011-06-15T11:32:47Z</time>
      </trkpt>
      <trkpt lat="45.44778" lon="4.66747">
        <ele>740.8330078</ele>
        <time>2011-06-15T11:32:59Z</time>
      </trkpt>
      <trkpt lat="45.44816" lon="4.66786">
        <ele>741.7944336</ele>
        <time>2011-06-15T11:33:09Z</time>
      </trkpt>
      <trkpt lat="45.44838" lon="4.66804">
        <ele>742.2751465</ele>
        <time>2011-06-15T11:33:15Z</time>
      </trkpt>
      <trkpt lat="45.44877" lon="4.66839">
        <ele>742.2751465</ele>
        <time>2011-06-15T11:33:27Z</time>
      </trkpt>
      <trkpt lat="45.44904" lon="4.6691">
        <ele>749.9658203</ele>
        <time>2011-06-15T11:33:38Z</time>
      </trkpt>
      <trkpt lat="45.44908" lon="4.66925">
        <ele>754.7722168</ele>
        <time>2011-06-15T11:33:50Z</time>
      </trkpt>
      <trkpt lat="45.44914" lon="4.66957">
        <ele>759.5788574</ele>
        <time>2011-06-15T11:34:07Z</time>
      </trkpt>
      <trkpt lat="45.44925" lon="4.66999">
        <ele>763.904541</ele>
        <time>2011-06-15T11:34:27Z</time>
      </trkpt>
      <trkpt lat="45.4493" lon="4.67009">
        <ele>763.4240723</ele>
        <time>2011-06-15T11:34:35Z</time>
      </trkpt>
      <trkpt lat="45.44934" lon="4.67017">
        <ele>763.4240723</ele>
        <time>2011-06-15T11:34:39Z</time>
      </trkpt>
      <trkpt lat="45.44948" lon="4.67037">
        <ele>761.9821777</ele>
        <time>2011-06-15T11:34:55Z</time>
      </trkpt>
      <trkpt lat="45.44962" lon="4.6706">
        <ele>759.0981445</ele>
        <time>2011-06-15T11:35:11Z</time>
      </trkpt>
      <trkpt lat="45.44967" lon="4.67068">
        <ele>757.1755371</ele>
        <time>2011-06-15T11:35:16Z</time>
      </trkpt>
      <trkpt lat="45.44982" lon="4.67106">
        <ele>755.2529297</ele>
        <time>2011-06-15T11:35:30Z</time>
      </trkpt>
      <trkpt lat="45.44983" lon="4.67107">
        <ele>754.7722168</ele>
        <time>2011-06-15T11:35:31Z</time>
      </trkpt>
      <trkpt lat="45.44986" lon="4.67119">
        <ele>752.3688965</ele>
        <time>2011-06-15T11:35:35Z</time>
      </trkpt>
      <trkpt lat="45.44994" lon="4.67141">
        <ele>749.4851074</ele>
        <time>2011-06-15T11:35:45Z</time>
      </trkpt>
      <trkpt lat="45.45012" lon="4.67185">
        <ele>743.2363281</ele>
        <time>2011-06-15T11:36:10Z</time>
      </trkpt>
      <trkpt lat="45.4502" lon="4.67199">
        <ele>741.3137207</ele>
        <time>2011-06-15T11:36:19Z</time>
      </trkpt>
      <trkpt lat="45.45029" lon="4.67209">
        <ele>740.3525391</ele>
        <time>2011-06-15T11:36:27Z</time>
      </trkpt>
      <trkpt lat="45.4503" lon="4.67214">
        <ele>740.3525391</ele>
        <time>2011-06-15T11:36:30Z</time>
      </trkpt>
      <trkpt lat="45.45041" lon="4.67232">
        <ele>736.0266113</ele>
        <time>2011-06-15T11:36:44Z</time>
      </trkpt>
      <trkpt lat="45.45051" lon="4.67251">
        <ele>731.7004395</ele>
        <time>2011-06-15T11:36:58Z</time>
      </trkpt>
      <trkpt lat="45.45068" lon="4.67272">
        <ele>726.894043</ele>
        <time>2011-06-15T11:37:21Z</time>
      </trkpt>
      <trkpt lat="45.4507" lon="4.67289">
        <ele>730.2585449</ele>
        <time>2011-06-15T11:37:34Z</time>
      </trkpt>
      <trkpt lat="45.45074" lon="4.67302">
        <ele>731.7004395</ele>
        <time>2011-06-15T11:37:44Z</time>
      </trkpt>
      <trkpt lat="45.45079" lon="4.67346">
        <ele>737.9492188</ele>
        <time>2011-06-15T11:37:54Z</time>
      </trkpt>
      <trkpt lat="45.45085" lon="4.67362">
        <ele>741.7944336</ele>
        <time>2011-06-15T11:38:05Z</time>
      </trkpt>
      <trkpt lat="45.4509" lon="4.67377">
        <ele>745.1589355</ele>
        <time>2011-06-15T11:38:14Z</time>
      </trkpt>
      <trkpt lat="45.451" lon="4.67398">
        <ele>750.927002</ele>
        <time>2011-06-15T11:38:26Z</time>
      </trkpt>
      <trkpt lat="45.45111" lon="4.67424">
        <ele>754.7722168</ele>
        <time>2011-06-15T11:38:41Z</time>
      </trkpt>
      <trkpt lat="45.45115" lon="4.67445">
        <ele>758.6174316</ele>
        <time>2011-06-15T11:38:56Z</time>
      </trkpt>
      <trkpt lat="45.45128" lon="4.67472">
        <ele>762.4626465</ele>
        <time>2011-06-15T11:39:35Z</time>
      </trkpt>
      <trkpt lat="45.45141" lon="4.67491">
        <ele>766.7888184</ele>
        <time>2011-06-15T11:39:46Z</time>
      </trkpt>
      <trkpt lat="45.45146" lon="4.67495">
        <ele>768.2307129</ele>
        <time>2011-06-15T11:39:50Z</time>
      </trkpt>
      <trkpt lat="45.45159" lon="4.67521">
        <ele>770.1533203</ele>
        <time>2011-06-15T11:40:08Z</time>
      </trkpt>
      <trkpt lat="45.45186" lon="4.67559">
        <ele>772.5566406</ele>
        <time>2011-06-15T11:40:36Z</time>
      </trkpt>
      <trkpt lat="45.45205" lon="4.67579">
        <ele>773.5180664</ele>
        <time>2011-06-15T11:40:49Z</time>
      </trkpt>
      <trkpt lat="45.45223" lon="4.676">
        <ele>777.84375</ele>
        <time>2011-06-15T11:41:07Z</time>
      </trkpt>
      <trkpt lat="45.45247" lon="4.67614">
        <ele>779.2856445</ele>
        <time>2011-06-15T11:41:26Z</time>
      </trkpt>
      <trkpt lat="45.45249" lon="4.67617">
        <ele>779.7663574</ele>
        <time>2011-06-15T11:41:28Z</time>
      </trkpt>
      <trkpt lat="45.45259" lon="4.67631">
        <ele>782.1699219</ele>
        <time>2011-06-15T11:41:41Z</time>
      </trkpt>
      <trkpt lat="45.45278" lon="4.67639">
        <ele>786.0151367</ele>
        <time>2011-06-15T11:41:58Z</time>
      </trkpt>
      <trkpt lat="45.45288" lon="4.67642">
        <ele>787.9377441</ele>
        <time>2011-06-15T11:42:06Z</time>
      </trkpt>
      <trkpt lat="45.45304" lon="4.67639">
        <ele>790.3410645</ele>
        <time>2011-06-15T11:42:22Z</time>
      </trkpt>
      <trkpt lat="45.4532" lon="4.67636">
        <ele>791.782959</ele>
        <time>2011-06-15T11:42:37Z</time>
      </trkpt>
      <trkpt lat="45.45338" lon="4.67634">
        <ele>792.2636719</ele>
        <time>2011-06-15T11:42:52Z</time>
      </trkpt>
      <trkpt lat="45.45366" lon="4.67634">
        <ele>790.8215332</ele>
        <time>2011-06-15T11:43:08Z</time>
      </trkpt>
      <trkpt lat="45.45413" lon="4.67626">
        <ele>789.3796387</ele>
        <time>2011-06-15T11:43:36Z</time>
      </trkpt>
      <trkpt lat="45.45435" lon="4.67642">
        <ele>787.4570313</ele>
        <time>2011-06-15T11:43:46Z</time>
      </trkpt>
      <trkpt lat="45.4546" lon="4.67666">
        <ele>778.3244629</ele>
        <time>2011-06-15T11:43:59Z</time>
      </trkpt>
      <trkpt lat="45.45474" lon="4.67679">
        <ele>776.8825684</ele>
        <time>2011-06-15T11:44:08Z</time>
      </trkpt>
      <trkpt lat="45.45511" lon="4.67706">
        <ele>774.9599609</ele>
        <time>2011-06-15T11:44:20Z</time>
      </trkpt>
      <trkpt lat="45.45521" lon="4.6772">
        <ele>773.9985352</ele>
        <time>2011-06-15T11:44:25Z</time>
      </trkpt>
      <trkpt lat="45.45559" lon="4.67739">
        <ele>772.0759277</ele>
        <time>2011-06-15T11:44:35Z</time>
      </trkpt>
      <trkpt lat="45.45578" lon="4.67746">
        <ele>769.6728516</ele>
        <time>2011-06-15T11:44:41Z</time>
      </trkpt>
      <trkpt lat="45.45608" lon="4.67771">
        <ele>766.7888184</ele>
        <time>2011-06-15T11:44:48Z</time>
      </trkpt>
      <trkpt lat="45.45619" lon="4.6778">
        <ele>766.7888184</ele>
        <time>2011-06-15T11:44:52Z</time>
      </trkpt>
      <trkpt lat="45.45639" lon="4.67796">
        <ele>764.385498</ele>
        <time>2011-06-15T11:45:03Z</time>
      </trkpt>
      <trkpt lat="45.45664" lon="4.67812">
        <ele>762.4626465</ele>
        <time>2011-06-15T11:45:12Z</time>
      </trkpt>
      <trkpt lat="45.457" lon="4.67851">
        <ele>754.291748</ele>
        <time>2011-06-15T11:45:23Z</time>
      </trkpt>
      <trkpt lat="45.45706" lon="4.6786">
        <ele>752.8496094</ele>
        <time>2011-06-15T11:45:25Z</time>
      </trkpt>
      <trkpt lat="45.45755" lon="4.67881">
        <ele>749.4851074</ele>
        <time>2011-06-15T11:45:37Z</time>
      </trkpt>
      <trkpt lat="45.45759" lon="4.67884">
        <ele>750.4465332</ele>
        <time>2011-06-15T11:45:38Z</time>
      </trkpt>
      <trkpt lat="45.45773" lon="4.67895">
        <ele>751.8884277</ele>
        <time>2011-06-15T11:45:42Z</time>
      </trkpt>
      <trkpt lat="45.45786" lon="4.67898">
        <ele>751.4077148</ele>
        <time>2011-06-15T11:45:49Z</time>
      </trkpt>
      <trkpt lat="45.45816" lon="4.67884">
        <ele>747.081543</ele>
        <time>2011-06-15T11:45:59Z</time>
      </trkpt>
      <trkpt lat="45.45859" lon="4.67864">
        <ele>744.6782227</ele>
        <time>2011-06-15T11:46:08Z</time>
      </trkpt>
      <trkpt lat="45.45866" lon="4.67863">
        <ele>742.7558594</ele>
        <time>2011-06-15T11:46:12Z</time>
      </trkpt>
      <trkpt lat="45.45876" lon="4.67862">
        <ele>741.3137207</ele>
        <time>2011-06-15T11:46:17Z</time>
      </trkpt>
      <trkpt lat="45.45935" lon="4.67854">
        <ele>744.6782227</ele>
        <time>2011-06-15T11:46:29Z</time>
      </trkpt>
      <trkpt lat="45.4595" lon="4.67848">
        <ele>745.6396484</ele>
        <time>2011-06-15T11:46:31Z</time>
      </trkpt>
      <trkpt lat="45.45982" lon="4.67824">
        <ele>749.9658203</ele>
        <time>2011-06-15T11:46:42Z</time>
      </trkpt>
      <trkpt lat="45.45987" lon="4.67814">
        <ele>750.927002</ele>
        <time>2011-06-15T11:46:44Z</time>
      </trkpt>
      <trkpt lat="45.46006" lon="4.67769">
        <ele>759.5788574</ele>
        <time>2011-06-15T11:46:56Z</time>
      </trkpt>
      <trkpt lat="45.46006" lon="4.67723">
        <ele>761.020752</ele>
        <time>2011-06-15T11:47:06Z</time>
      </trkpt>
      <trkpt lat="45.46009" lon="4.6769">
        <ele>774.9599609</ele>
        <time>2011-06-15T11:47:18Z</time>
      </trkpt>
      <trkpt lat="45.46007" lon="4.67682">
        <ele>776.8825684</ele>
        <time>2011-06-15T11:47:23Z</time>
      </trkpt>
      <trkpt lat="45.46005" lon="4.6767">
        <ele>780.7280273</ele>
        <time>2011-06-15T11:47:34Z</time>
      </trkpt>
      <trkpt lat="45.45998" lon="4.6765">
        <ele>782.6506348</ele>
        <time>2011-06-15T11:47:47Z</time>
      </trkpt>
      <trkpt lat="45.45987" lon="4.6763">
        <ele>786.0151367</ele>
        <time>2011-06-15T11:47:56Z</time>
      </trkpt>
      <trkpt lat="45.4599" lon="4.67618">
        <ele>789.3796387</ele>
        <time>2011-06-15T11:48:10Z</time>
      </trkpt>
      <trkpt lat="45.45993" lon="4.67606">
        <ele>792.2636719</ele>
        <time>2011-06-15T11:48:33Z</time>
      </trkpt>
      <trkpt lat="45.45988" lon="4.67596">
        <ele>793.2248535</ele>
        <time>2011-06-15T11:48:40Z</time>
      </trkpt>
      <trkpt lat="45.4599" lon="4.67589">
        <ele>794.1862793</ele>
        <time>2011-06-15T11:48:45Z</time>
      </trkpt>
      <trkpt lat="45.45989" lon="4.6757">
        <ele>795.1474609</ele>
        <time>2011-06-15T11:48:59Z</time>
      </trkpt>
      <trkpt lat="45.45981" lon="4.67542">
        <ele>798.0317383</ele>
        <time>2011-06-15T11:49:17Z</time>
      </trkpt>
      <trkpt lat="45.45965" lon="4.67498">
        <ele>800.9155273</ele>
        <time>2011-06-15T11:49:43Z</time>
      </trkpt>
      <trkpt lat="45.45955" lon="4.67453">
        <ele>804.7607422</ele>
        <time>2011-06-15T11:50:11Z</time>
      </trkpt>
      <trkpt lat="45.45941" lon="4.67394">
        <ele>809.0866699</ele>
        <time>2011-06-15T11:50:43Z</time>
      </trkpt>
      <trkpt lat="45.4593" lon="4.67358">
        <ele>810.5285645</ele>
        <time>2011-06-15T11:51:02Z</time>
      </trkpt>
      <trkpt lat="45.45927" lon="4.67328">
        <ele>807.6447754</ele>
        <time>2011-06-15T11:51:18Z</time>
      </trkpt>
      <trkpt lat="45.45933" lon="4.67311">
        <ele>804.7607422</ele>
        <time>2011-06-15T11:51:28Z</time>
      </trkpt>
      <trkpt lat="45.45934" lon="4.67281">
        <ele>803.3188477</ele>
        <time>2011-06-15T11:51:42Z</time>
      </trkpt>
      <trkpt lat="45.45944" lon="4.67258">
        <ele>799.9543457</ele>
        <time>2011-06-15T11:51:53Z</time>
      </trkpt>
      <trkpt lat="45.45944" lon="4.6724">
        <ele>795.6281738</ele>
        <time>2011-06-15T11:52:06Z</time>
      </trkpt>
      <trkpt lat="45.45941" lon="4.67236">
        <ele>795.6281738</ele>
        <time>2011-06-15T11:52:09Z</time>
      </trkpt>
      <trkpt lat="45.45944" lon="4.67213">
        <ele>794.666748</ele>
        <time>2011-06-15T11:52:21Z</time>
      </trkpt>
      <trkpt lat="45.45935" lon="4.67185">
        <ele>792.2636719</ele>
        <time>2011-06-15T11:52:36Z</time>
      </trkpt>
      <trkpt lat="45.45928" lon="4.67169">
        <ele>791.782959</ele>
        <time>2011-06-15T11:52:46Z</time>
      </trkpt>
      <trkpt lat="45.45931" lon="4.6715">
        <ele>787.9377441</ele>
        <time>2011-06-15T11:52:58Z</time>
      </trkpt>
      <trkpt lat="45.45937" lon="4.67099">
        <ele>783.1311035</ele>
        <time>2011-06-15T11:53:25Z</time>
      </trkpt>
      <trkpt lat="45.45969" lon="4.67098">
        <ele>809.0866699</ele>
        <time>2011-06-15T12:04:02Z</time>
      </trkpt>
      <trkpt lat="45.45947" lon="4.67056">
        <ele>801.3962402</ele>
        <time>2011-06-15T13:29:35Z</time>
      </trkpt>
      <trkpt lat="45.45949" lon="4.67043">
        <ele>802.3574219</ele>
        <time>2011-06-15T13:29:46Z</time>
      </trkpt>
      <trkpt lat="45.45949" lon="4.67041">
        <ele>802.3574219</ele>
        <time>2011-06-15T13:29:48Z</time>
      </trkpt>
      <trkpt lat="45.45946" lon="4.67019">
        <ele>800.9155273</ele>
        <time>2011-06-15T13:30:04Z</time>
      </trkpt>
      <trkpt lat="45.45947" lon="4.6699">
        <ele>793.7055664</ele>
        <time>2011-06-15T13:30:19Z</time>
      </trkpt>
      <trkpt lat="45.45948" lon="4.66972">
        <ele>788.418457</ele>
        <time>2011-06-15T13:30:33Z</time>
      </trkpt>
      <trkpt lat="45.45949" lon="4.66946">
        <ele>783.1311035</ele>
        <time>2011-06-15T13:30:47Z</time>
      </trkpt>
      <trkpt lat="45.45951" lon="4.66939">
        <ele>782.1699219</ele>
        <time>2011-06-15T13:30:50Z</time>
      </trkpt>
      <trkpt lat="45.45953" lon="4.66929">
        <ele>779.2856445</ele>
        <time>2011-06-15T13:30:57Z</time>
      </trkpt>
      <trkpt lat="45.45952" lon="4.66922">
        <ele>778.3244629</ele>
        <time>2011-06-15T13:31:01Z</time>
      </trkpt>
      <trkpt lat="45.45942" lon="4.66894">
        <ele>774.479248</ele>
        <time>2011-06-15T13:31:18Z</time>
      </trkpt>
      <trkpt lat="45.4594" lon="4.6689">
        <ele>775.4404297</ele>
        <time>2011-06-15T13:31:20Z</time>
      </trkpt>
      <trkpt lat="45.45939" lon="4.66885">
        <ele>774.9599609</ele>
        <time>2011-06-15T13:31:24Z</time>
      </trkpt>
      <trkpt lat="45.45935" lon="4.66868">
        <ele>773.9985352</ele>
        <time>2011-06-15T13:31:34Z</time>
      </trkpt>
      <trkpt lat="45.45934" lon="4.66859">
        <ele>776.4018555</ele>
        <time>2011-06-15T13:31:39Z</time>
      </trkpt>
      <trkpt lat="45.45919" lon="4.66831">
        <ele>782.1699219</ele>
        <time>2011-06-15T13:31:55Z</time>
      </trkpt>
      <trkpt lat="45.45918" lon="4.66829">
        <ele>782.1699219</ele>
        <time>2011-06-15T13:31:56Z</time>
      </trkpt>
      <trkpt lat="45.45914" lon="4.6681">
        <ele>781.689209</ele>
        <time>2011-06-15T13:32:07Z</time>
      </trkpt>
      <trkpt lat="45.45913" lon="4.66801">
        <ele>778.3244629</ele>
        <time>2011-06-15T13:32:14Z</time>
      </trkpt>
      <trkpt lat="45.45913" lon="4.6679">
        <ele>774.479248</ele>
        <time>2011-06-15T13:32:22Z</time>
      </trkpt>
      <trkpt lat="45.45916" lon="4.66784">
        <ele>771.5952148</ele>
        <time>2011-06-15T13:32:27Z</time>
      </trkpt>
      <trkpt lat="45.45917" lon="4.66772">
        <ele>772.0759277</ele>
        <time>2011-06-15T13:32:39Z</time>
      </trkpt>
      <trkpt lat="45.45917" lon="4.66769">
        <ele>771.5952148</ele>
        <time>2011-06-15T13:32:41Z</time>
      </trkpt>
      <trkpt lat="45.45921" lon="4.66762">
        <ele>768.2307129</ele>
        <time>2011-06-15T13:32:56Z</time>
      </trkpt>
      <trkpt lat="45.45927" lon="4.66766">
        <ele>765.8276367</ele>
        <time>2011-06-15T13:33:04Z</time>
      </trkpt>
      <trkpt lat="45.45939" lon="4.6677">
        <ele>762.9433594</ele>
        <time>2011-06-15T13:33:12Z</time>
      </trkpt>
      <trkpt lat="45.4595" lon="4.66769">
        <ele>758.1369629</ele>
        <time>2011-06-15T13:33:25Z</time>
      </trkpt>
      <trkpt lat="45.45951" lon="4.6677">
        <ele>757.65625</ele>
        <time>2011-06-15T13:33:26Z</time>
      </trkpt>
      <trkpt lat="45.45966" lon="4.66776">
        <ele>753.8110352</ele>
        <time>2011-06-15T13:33:41Z</time>
      </trkpt>
      <trkpt lat="45.45979" lon="4.66781">
        <ele>750.4465332</ele>
        <time>2011-06-15T13:33:54Z</time>
      </trkpt>
      <trkpt lat="45.4599" lon="4.66778">
        <ele>746.1203613</ele>
        <time>2011-06-15T13:34:05Z</time>
      </trkpt>
      <trkpt lat="45.46" lon="4.6678">
        <ele>744.1977539</ele>
        <time>2011-06-15T13:34:18Z</time>
      </trkpt>
      <trkpt lat="45.46014" lon="4.66791">
        <ele>742.2751465</ele>
        <time>2011-06-15T13:34:33Z</time>
      </trkpt>
      <trkpt lat="45.46024" lon="4.66802">
        <ele>739.8718262</ele>
        <time>2011-06-15T13:34:45Z</time>
      </trkpt>
      <trkpt lat="45.46049" lon="4.6681">
        <ele>734.5847168</ele>
        <time>2011-06-15T13:35:05Z</time>
      </trkpt>
      <trkpt lat="45.46068" lon="4.66806">
        <ele>731.7004395</ele>
        <time>2011-06-15T13:35:19Z</time>
      </trkpt>
      <trkpt lat="45.46077" lon="4.6679">
        <ele>730.2585449</ele>
        <time>2011-06-15T13:35:35Z</time>
      </trkpt>
      <trkpt lat="45.46077" lon="4.66789">
        <ele>730.2585449</ele>
        <time>2011-06-15T13:35:37Z</time>
      </trkpt>
      <trkpt lat="45.46078" lon="4.66769">
        <ele>728.3359375</ele>
        <time>2011-06-15T13:35:49Z</time>
      </trkpt>
      <trkpt lat="45.46077" lon="4.66745">
        <ele>726.4133301</ele>
        <time>2011-06-15T13:36:02Z</time>
      </trkpt>
      <trkpt lat="45.4608" lon="4.66739">
        <ele>724.0100098</ele>
        <time>2011-06-15T13:36:06Z</time>
      </trkpt>
      <trkpt lat="45.46079" lon="4.66734">
        <ele>722.5681152</ele>
        <time>2011-06-15T13:36:09Z</time>
      </trkpt>
      <trkpt lat="45.46077" lon="4.66728">
        <ele>721.6066895</ele>
        <time>2011-06-15T13:36:13Z</time>
      </trkpt>
      <trkpt lat="45.46075" lon="4.66698">
        <ele>720.1647949</ele>
        <time>2011-06-15T13:36:28Z</time>
      </trkpt>
      <trkpt lat="45.46074" lon="4.66694">
        <ele>720.6455078</ele>
        <time>2011-06-15T13:36:30Z</time>
      </trkpt>
      <trkpt lat="45.46073" lon="4.66671">
        <ele>719.2036133</ele>
        <time>2011-06-15T13:36:41Z</time>
      </trkpt>
      <trkpt lat="45.46083" lon="4.66676">
        <ele>714.8774414</ele>
        <time>2011-06-15T13:36:53Z</time>
      </trkpt>
      <trkpt lat="45.46088" lon="4.66689">
        <ele>711.5129395</ele>
        <time>2011-06-15T13:37:07Z</time>
      </trkpt>
      <trkpt lat="45.46103" lon="4.66707">
        <ele>708.6289063</ele>
        <time>2011-06-15T13:37:21Z</time>
      </trkpt>
      <trkpt lat="45.46124" lon="4.66723">
        <ele>706.2255859</ele>
        <time>2011-06-15T13:37:33Z</time>
      </trkpt>
      <trkpt lat="45.46143" lon="4.66742">
        <ele>705.7451172</ele>
        <time>2011-06-15T13:37:49Z</time>
      </trkpt>
      <trkpt lat="45.46144" lon="4.66751">
        <ele>703.3417969</ele>
        <time>2011-06-15T13:37:57Z</time>
      </trkpt>
      <trkpt lat="45.46151" lon="4.66775">
        <ele>696.6125488</ele>
        <time>2011-06-15T13:38:13Z</time>
      </trkpt>
      <trkpt lat="45.46153" lon="4.66778">
        <ele>695.1704102</ele>
        <time>2011-06-15T13:38:16Z</time>
      </trkpt>
      <trkpt lat="45.46159" lon="4.66782">
        <ele>694.2092285</ele>
        <time>2011-06-15T13:38:19Z</time>
      </trkpt>
      <trkpt lat="45.46164" lon="4.66786">
        <ele>692.2866211</ele>
        <time>2011-06-15T13:38:23Z</time>
      </trkpt>
      <trkpt lat="45.46176" lon="4.66798">
        <ele>686.9992676</ele>
        <time>2011-06-15T13:38:34Z</time>
      </trkpt>
      <trkpt lat="45.46189" lon="4.66817">
        <ele>677.8666992</ele>
        <time>2011-06-15T13:38:50Z</time>
      </trkpt>
      <trkpt lat="45.46191" lon="4.66823">
        <ele>675.4633789</ele>
        <time>2011-06-15T13:38:54Z</time>
      </trkpt>
      <trkpt lat="45.46192" lon="4.6683">
        <ele>674.5021973</ele>
        <time>2011-06-15T13:38:58Z</time>
      </trkpt>
      <trkpt lat="45.46195" lon="4.6684">
        <ele>671.6181641</ele>
        <time>2011-06-15T13:39:04Z</time>
      </trkpt>
      <trkpt lat="45.46195" lon="4.66844">
        <ele>670.1762695</ele>
        <time>2011-06-15T13:39:07Z</time>
      </trkpt>
      <trkpt lat="45.46193" lon="4.66855">
        <ele>668.734375</ele>
        <time>2011-06-15T13:39:11Z</time>
      </trkpt>
      <trkpt lat="45.46193" lon="4.66898">
        <ele>674.9829102</ele>
        <time>2011-06-15T13:39:28Z</time>
      </trkpt>
      <trkpt lat="45.46193" lon="4.6691">
        <ele>679.3085938</ele>
        <time>2011-06-15T13:39:32Z</time>
      </trkpt>
      <trkpt lat="45.46194" lon="4.66922">
        <ele>681.7119141</ele>
        <time>2011-06-15T13:39:38Z</time>
      </trkpt>
      <trkpt lat="45.46198" lon="4.66948">
        <ele>686.5187988</ele>
        <time>2011-06-15T13:39:50Z</time>
      </trkpt>
      <trkpt lat="45.46201" lon="4.66969">
        <ele>686.9992676</ele>
        <time>2011-06-15T13:39:59Z</time>
      </trkpt>
      <trkpt lat="45.46203" lon="4.66986">
        <ele>685.0769043</ele>
        <time>2011-06-15T13:40:08Z</time>
      </trkpt>
      <trkpt lat="45.46206" lon="4.66997">
        <ele>682.6733398</ele>
        <time>2011-06-15T13:40:17Z</time>
      </trkpt>
      <trkpt lat="45.46204" lon="4.67015">
        <ele>683.1538086</ele>
        <time>2011-06-15T13:40:22Z</time>
      </trkpt>
      <trkpt lat="45.46206" lon="4.67039">
        <ele>681.2314453</ele>
        <time>2011-06-15T13:40:34Z</time>
      </trkpt>
      <trkpt lat="45.46206" lon="4.67047">
        <ele>680.2700195</ele>
        <time>2011-06-15T13:40:37Z</time>
      </trkpt>
      <trkpt lat="45.46206" lon="4.67077">
        <ele>677.8666992</ele>
        <time>2011-06-15T13:40:52Z</time>
      </trkpt>
      <trkpt lat="45.46209" lon="4.6709">
        <ele>675.9440918</ele>
        <time>2011-06-15T13:40:59Z</time>
      </trkpt>
      <trkpt lat="45.46211" lon="4.67095">
        <ele>674.0214844</ele>
        <time>2011-06-15T13:41:02Z</time>
      </trkpt>
      <trkpt lat="45.46215" lon="4.67113">
        <ele>668.2536621</ele>
        <time>2011-06-15T13:41:14Z</time>
      </trkpt>
      <trkpt lat="45.46229" lon="4.67128">
        <ele>660.0822754</ele>
        <time>2011-06-15T13:41:32Z</time>
      </trkpt>
      <trkpt lat="45.46236" lon="4.67145">
        <ele>655.7565918</ele>
        <time>2011-06-15T13:41:43Z</time>
      </trkpt>
      <trkpt lat="45.46242" lon="4.67157">
        <ele>652.3918457</ele>
        <time>2011-06-15T13:41:54Z</time>
      </trkpt>
      <trkpt lat="45.46249" lon="4.67169">
        <ele>649.5078125</ele>
        <time>2011-06-15T13:42:02Z</time>
      </trkpt>
      <trkpt lat="45.46252" lon="4.67172">
        <ele>648.5463867</ele>
        <time>2011-06-15T13:42:06Z</time>
      </trkpt>
      <trkpt lat="45.46255" lon="4.67175">
        <ele>647.5852051</ele>
        <time>2011-06-15T13:42:09Z</time>
      </trkpt>
      <trkpt lat="45.46258" lon="4.67183">
        <ele>645.1818848</ele>
        <time>2011-06-15T13:42:15Z</time>
      </trkpt>
      <trkpt lat="45.4626" lon="4.67188">
        <ele>642.2980957</ele>
        <time>2011-06-15T13:42:19Z</time>
      </trkpt>
      <trkpt lat="45.46273" lon="4.67203">
        <ele>635.5686035</ele>
        <time>2011-06-15T13:42:30Z</time>
      </trkpt>
      <trkpt lat="45.46274" lon="4.67207">
        <ele>634.126709</ele>
        <time>2011-06-15T13:42:32Z</time>
      </trkpt>
      <trkpt lat="45.46284" lon="4.67223">
        <ele>622.1103516</ele>
        <time>2011-06-15T13:42:46Z</time>
      </trkpt>
      <trkpt lat="45.46285" lon="4.67224">
        <ele>621.1491699</ele>
        <time>2011-06-15T13:42:47Z</time>
      </trkpt>
      <trkpt lat="45.4629" lon="4.67226">
        <ele>617.3037109</ele>
        <time>2011-06-15T13:42:52Z</time>
      </trkpt>
      <trkpt lat="45.46299" lon="4.67247">
        <ele>607.2099609</ele>
        <time>2011-06-15T13:43:06Z</time>
      </trkpt>
      <trkpt lat="45.46309" lon="4.67264">
        <ele>596.635498</ele>
        <time>2011-06-15T13:43:19Z</time>
      </trkpt>
      <trkpt lat="45.4632" lon="4.67286">
        <ele>586.5415039</ele>
        <time>2011-06-15T13:43:33Z</time>
      </trkpt>
      <trkpt lat="45.46339" lon="4.67375">
        <ele>660.359375</ele>
      </trkpt>
      <trkpt lat="45.46355" lon="4.67476">
        <ele>660.0820313</ele>
      </trkpt>
      <trkpt lat="45.46374" lon="4.67568">
        <ele>660.6328125</ele>
      </trkpt>
      <trkpt lat="45.46449" lon="4.67796">
        <ele>654.4296875</ele>
      </trkpt>
      <trkpt lat="45.46451" lon="4.67818">
        <ele>653.4882813</ele>
      </trkpt>
      <trkpt lat="45.46464" lon="4.67829">
        <ele>652.8710938</ele>
      </trkpt>
      <trkpt lat="45.46453" lon="4.67865">
        <ele>650.2617188</ele>
      </trkpt>
      <trkpt lat="45.46473" lon="4.67893">
        <ele>650.03125</ele>
      </trkpt>
      <trkpt lat="45.46492" lon="4.67903">
        <ele>652.1484375</ele>
      </trkpt>
      <trkpt lat="45.4655" lon="4.68078">
        <ele>661.8320313</ele>
      </trkpt>
      <trkpt lat="45.46572" lon="4.68466">
        <ele>662.4257813</ele>
      </trkpt>
      <trkpt lat="45.46614" lon="4.68828">
        <ele>683.7109375</ele>
      </trkpt>
      <trkpt lat="45.46609" lon="4.68855">
        <ele>681.2314453</ele>
        <time>2011-06-15T13:54:29Z</time>
      </trkpt>
      <trkpt lat="45.4661" lon="4.68899">
        <ele>692.767334</ele>
        <time>2011-06-15T13:54:39Z</time>
      </trkpt>
      <trkpt lat="45.46609" lon="4.68941">
        <ele>699.015625</ele>
        <time>2011-06-15T13:54:50Z</time>
      </trkpt>
      <trkpt lat="45.4661" lon="4.68984">
        <ele>701.8999023</ele>
        <time>2011-06-15T13:55:03Z</time>
      </trkpt>
      <trkpt lat="45.46613" lon="4.69012">
        <ele>702.861084</ele>
        <time>2011-06-15T13:55:17Z</time>
      </trkpt>
      <trkpt lat="45.46619" lon="4.69043">
        <ele>704.7836914</ele>
        <time>2011-06-15T13:55:35Z</time>
      </trkpt>
      <trkpt lat="45.46624" lon="4.69071">
        <ele>706.2255859</ele>
        <time>2011-06-15T13:55:50Z</time>
      </trkpt>
      <trkpt lat="45.46627" lon="4.69085">
        <ele>704.3032227</ele>
        <time>2011-06-15T13:55:58Z</time>
      </trkpt>
      <trkpt lat="45.46627" lon="4.69086">
        <ele>704.3032227</ele>
        <time>2011-06-15T13:55:59Z</time>
      </trkpt>
      <trkpt lat="45.46638" lon="4.691">
        <ele>699.9770508</ele>
        <time>2011-06-15T13:56:09Z</time>
      </trkpt>
      <trkpt lat="45.46645" lon="4.69125">
        <ele>707.1870117</ele>
        <time>2011-06-15T13:56:28Z</time>
      </trkpt>
      <trkpt lat="45.46651" lon="4.69143">
        <ele>707.6677246</ele>
        <time>2011-06-15T13:57:03Z</time>
      </trkpt>
      <trkpt lat="45.46654" lon="4.69151">
        <ele>706.7062988</ele>
        <time>2011-06-15T13:57:09Z</time>
      </trkpt>
      <trkpt lat="45.46664" lon="4.69183">
        <ele>702.861084</ele>
        <time>2011-06-15T13:57:27Z</time>
      </trkpt>
      <trkpt lat="45.46666" lon="4.69192">
        <ele>701.8999023</ele>
        <time>2011-06-15T13:57:31Z</time>
      </trkpt>
      <trkpt lat="45.46669" lon="4.69201">
        <ele>701.8999023</ele>
        <time>2011-06-15T13:57:37Z</time>
      </trkpt>
      <trkpt lat="45.46673" lon="4.69208">
        <ele>701.4191895</ele>
        <time>2011-06-15T13:57:41Z</time>
      </trkpt>
      <trkpt lat="45.46676" lon="4.69214">
        <ele>701.8999023</ele>
        <time>2011-06-15T13:57:45Z</time>
      </trkpt>
      <trkpt lat="45.46685" lon="4.69246">
        <ele>699.015625</ele>
        <time>2011-06-15T13:58:02Z</time>
      </trkpt>
      <trkpt lat="45.46686" lon="4.69247">
        <ele>699.015625</ele>
        <time>2011-06-15T13:58:03Z</time>
      </trkpt>
      <trkpt lat="45.46708" lon="4.69267">
        <ele>694.2092285</ele>
        <time>2011-06-15T13:58:21Z</time>
      </trkpt>
      <trkpt lat="45.46712" lon="4.69276">
        <ele>693.7285156</ele>
        <time>2011-06-15T13:58:26Z</time>
      </trkpt>
      <trkpt lat="45.46718" lon="4.6929">
        <ele>695.1704102</ele>
        <time>2011-06-15T13:58:38Z</time>
      </trkpt>
      <trkpt lat="45.46725" lon="4.69303">
        <ele>694.2092285</ele>
        <time>2011-06-15T13:58:50Z</time>
      </trkpt>
      <trkpt lat="45.46745" lon="4.6934">
        <ele>691.8059082</ele>
        <time>2011-06-15T13:59:19Z</time>
      </trkpt>
      <trkpt lat="45.46759" lon="4.69384">
        <ele>691.8059082</ele>
        <time>2011-06-15T13:59:35Z</time>
      </trkpt>
      <trkpt lat="45.46761" lon="4.69394">
        <ele>692.767334</ele>
        <time>2011-06-15T13:59:41Z</time>
      </trkpt>
      <trkpt lat="45.46767" lon="4.69404">
        <ele>693.7285156</ele>
        <time>2011-06-15T13:59:48Z</time>
      </trkpt>
      <trkpt lat="45.46775" lon="4.69417">
        <ele>692.767334</ele>
        <time>2011-06-15T14:00:00Z</time>
      </trkpt>
      <trkpt lat="45.46781" lon="4.69426">
        <ele>691.3251953</ele>
        <time>2011-06-15T14:00:08Z</time>
      </trkpt>
      <trkpt lat="45.46797" lon="4.6946">
        <ele>685.557373</ele>
        <time>2011-06-15T14:00:23Z</time>
      </trkpt>
      <trkpt lat="45.46811" lon="4.69492">
        <ele>687.9606934</ele>
        <time>2011-06-15T14:00:41Z</time>
      </trkpt>
      <trkpt lat="45.46817" lon="4.69501">
        <ele>687.4799805</ele>
        <time>2011-06-15T14:00:47Z</time>
      </trkpt>
      <trkpt lat="45.4682" lon="4.69512">
        <ele>686.9992676</ele>
        <time>2011-06-15T14:00:52Z</time>
      </trkpt>
      <trkpt lat="45.46827" lon="4.69521">
        <ele>687.4799805</ele>
        <time>2011-06-15T14:00:59Z</time>
      </trkpt>
      <trkpt lat="45.4684" lon="4.69534">
        <ele>688.4414063</ele>
        <time>2011-06-15T14:01:13Z</time>
      </trkpt>
      <trkpt lat="45.46844" lon="4.69549">
        <ele>688.4414063</ele>
        <time>2011-06-15T14:01:34Z</time>
      </trkpt>
      <trkpt lat="45.46856" lon="4.69577">
        <ele>688.9221191</ele>
        <time>2011-06-15T14:01:53Z</time>
      </trkpt>
      <trkpt lat="45.46863" lon="4.69614">
        <ele>688.9221191</ele>
        <time>2011-06-15T14:02:13Z</time>
      </trkpt>
      <trkpt lat="45.46866" lon="4.69633">
        <ele>689.4025879</ele>
        <time>2011-06-15T14:02:24Z</time>
      </trkpt>
      <trkpt lat="45.46872" lon="4.69645">
        <ele>688.9221191</ele>
        <time>2011-06-15T14:02:33Z</time>
      </trkpt>
      <trkpt lat="45.46877" lon="4.69651">
        <ele>688.4414063</ele>
        <time>2011-06-15T14:02:38Z</time>
      </trkpt>
      <trkpt lat="45.46885" lon="4.69663">
        <ele>687.4799805</ele>
        <time>2011-06-15T14:02:52Z</time>
      </trkpt>
      <trkpt lat="45.46901" lon="4.6968">
        <ele>686.5187988</ele>
        <time>2011-06-15T14:03:09Z</time>
      </trkpt>
      <trkpt lat="45.46912" lon="4.69696">
        <ele>682.192627</ele>
        <time>2011-06-15T14:03:23Z</time>
      </trkpt>
      <trkpt lat="45.46926" lon="4.6972">
        <ele>675.4633789</ele>
        <time>2011-06-15T14:03:42Z</time>
      </trkpt>
      <trkpt lat="45.46935" lon="4.69725">
        <ele>675.9440918</ele>
        <time>2011-06-15T14:03:47Z</time>
      </trkpt>
      <trkpt lat="45.46949" lon="4.69729">
        <ele>674.5021973</ele>
        <time>2011-06-15T14:04:02Z</time>
      </trkpt>
      <trkpt lat="45.46956" lon="4.69739">
        <ele>674.5021973</ele>
        <time>2011-06-15T14:04:11Z</time>
      </trkpt>
      <trkpt lat="45.46975" lon="4.69755">
        <ele>674.5021973</ele>
        <time>2011-06-15T14:04:30Z</time>
      </trkpt>
      <trkpt lat="45.46991" lon="4.6976">
        <ele>677.3862305</ele>
        <time>2011-06-15T14:04:46Z</time>
      </trkpt>
      <trkpt lat="45.46998" lon="4.69759">
        <ele>678.828125</ele>
        <time>2011-06-15T14:04:53Z</time>
      </trkpt>
      <trkpt lat="45.47014" lon="4.69761">
        <ele>680.2700195</ele>
        <time>2011-06-15T14:04:58Z</time>
      </trkpt>
      <trkpt lat="45.47031" lon="4.69773">
        <ele>688.9221191</ele>
        <time>2011-06-15T14:05:16Z</time>
      </trkpt>
      <trkpt lat="45.47032" lon="4.69773">
        <ele>688.9221191</ele>
        <time>2011-06-15T14:05:17Z</time>
      </trkpt>
      <trkpt lat="45.47041" lon="4.6978">
        <ele>690.8444824</ele>
        <time>2011-06-15T14:05:28Z</time>
      </trkpt>
      <trkpt lat="45.47051" lon="4.69786">
        <ele>692.767334</ele>
        <time>2011-06-15T14:05:42Z</time>
      </trkpt>
      <trkpt lat="45.47063" lon="4.69792">
        <ele>694.6896973</ele>
        <time>2011-06-15T14:05:52Z</time>
      </trkpt>
      <trkpt lat="45.47086" lon="4.69791">
        <ele>698.0544434</ele>
        <time>2011-06-15T14:06:08Z</time>
      </trkpt>
      <trkpt lat="45.47097" lon="4.69792">
        <ele>701.8999023</ele>
        <time>2011-06-15T14:06:21Z</time>
      </trkpt>
      <trkpt lat="45.47101" lon="4.69792">
        <ele>701.8999023</ele>
        <time>2011-06-15T14:06:24Z</time>
      </trkpt>
      <trkpt lat="45.47119" lon="4.69791">
        <ele>702.3803711</ele>
        <time>2011-06-15T14:06:37Z</time>
      </trkpt>
      <trkpt lat="45.47139" lon="4.6979">
        <ele>698.0544434</ele>
        <time>2011-06-15T14:06:45Z</time>
      </trkpt>
      <trkpt lat="45.47176" lon="4.69775">
        <ele>694.2092285</ele>
        <time>2011-06-15T14:07:01Z</time>
      </trkpt>
      <trkpt lat="45.47207" lon="4.69751">
        <ele>689.8833008</ele>
        <time>2011-06-15T14:07:24Z</time>
      </trkpt>
      <trkpt lat="45.47216" lon="4.69737">
        <ele>689.4025879</ele>
        <time>2011-06-15T14:07:35Z</time>
      </trkpt>
      <trkpt lat="45.47241" lon="4.69714">
        <ele>687.9606934</ele>
        <time>2011-06-15T14:07:54Z</time>
      </trkpt>
      <trkpt lat="45.47249" lon="4.69701">
        <ele>687.9606934</ele>
        <time>2011-06-15T14:08:05Z</time>
      </trkpt>
      <trkpt lat="45.47273" lon="4.69678">
        <ele>689.8833008</ele>
        <time>2011-06-15T14:08:19Z</time>
      </trkpt>
      <trkpt lat="45.47295" lon="4.6965">
        <ele>693.7285156</ele>
        <time>2011-06-15T14:08:39Z</time>
      </trkpt>
      <trkpt lat="45.473" lon="4.69643">
        <ele>695.1704102</ele>
        <time>2011-06-15T14:08:44Z</time>
      </trkpt>
      <trkpt lat="45.47308" lon="4.69638">
        <ele>697.0930176</ele>
        <time>2011-06-15T14:08:51Z</time>
      </trkpt>
      <trkpt lat="45.47318" lon="4.69616">
        <ele>700.4580078</ele>
        <time>2011-06-15T14:09:05Z</time>
      </trkpt>
      <trkpt lat="45.47332" lon="4.696">
        <ele>694.2092285</ele>
        <time>2011-06-15T14:09:15Z</time>
      </trkpt>
      <trkpt lat="45.47332" lon="4.69592">
        <ele>693.7285156</ele>
        <time>2011-06-15T14:09:19Z</time>
      </trkpt>
      <trkpt lat="45.47345" lon="4.6957">
        <ele>688.4414063</ele>
        <time>2011-06-15T14:09:33Z</time>
      </trkpt>
      <trkpt lat="45.47354" lon="4.69553">
        <ele>686.5187988</ele>
        <time>2011-06-15T14:09:43Z</time>
      </trkpt>
      <trkpt lat="45.47363" lon="4.6954">
        <ele>686.0380859</ele>
        <time>2011-06-15T14:09:56Z</time>
      </trkpt>
      <trkpt lat="45.47366" lon="4.69538">
        <ele>686.0380859</ele>
        <time>2011-06-15T14:09:58Z</time>
      </trkpt>
      <trkpt lat="45.47374" lon="4.69525">
        <ele>686.0380859</ele>
        <time>2011-06-15T14:10:08Z</time>
      </trkpt>
      <trkpt lat="45.47405" lon="4.69515">
        <ele>682.192627</ele>
        <time>2011-06-15T14:10:22Z</time>
      </trkpt>
      <trkpt lat="45.47413" lon="4.69513">
        <ele>680.2700195</ele>
        <time>2011-06-15T14:10:29Z</time>
      </trkpt>
      <trkpt lat="45.47435" lon="4.69478">
        <ele>675.4633789</ele>
        <time>2011-06-15T14:10:50Z</time>
      </trkpt>
      <trkpt lat="45.47436" lon="4.69466">
        <ele>676.9055176</ele>
        <time>2011-06-15T14:10:57Z</time>
      </trkpt>
      <trkpt lat="45.4744" lon="4.69441">
        <ele>676.4248047</ele>
        <time>2011-06-15T14:11:09Z</time>
      </trkpt>
      <trkpt lat="45.47437" lon="4.69408">
        <ele>677.3862305</ele>
        <time>2011-06-15T14:11:24Z</time>
      </trkpt>
      <trkpt lat="45.47448" lon="4.69386">
        <ele>669.2150879</ele>
        <time>2011-06-15T14:11:39Z</time>
      </trkpt>
      <trkpt lat="45.4747" lon="4.69366">
        <ele>665.3696289</ele>
        <time>2011-06-15T14:11:56Z</time>
      </trkpt>
      <trkpt lat="45.47496" lon="4.69347">
        <ele>662.4855957</ele>
        <time>2011-06-15T14:12:17Z</time>
      </trkpt>
      <trkpt lat="45.47511" lon="4.69346">
        <ele>661.5244141</ele>
        <time>2011-06-15T14:12:27Z</time>
      </trkpt>
      <trkpt lat="45.47534" lon="4.69355">
        <ele>658.1599121</ele>
        <time>2011-06-15T14:12:42Z</time>
      </trkpt>
      <trkpt lat="45.47551" lon="4.69386">
        <ele>655.2758789</ele>
        <time>2011-06-15T14:13:02Z</time>
      </trkpt>
      <trkpt lat="45.47553" lon="4.69389">
        <ele>654.795166</ele>
        <time>2011-06-15T14:13:04Z</time>
      </trkpt>
      <trkpt lat="45.47557" lon="4.69402">
        <ele>654.3146973</ele>
        <time>2011-06-15T14:13:17Z</time>
      </trkpt>
      <trkpt lat="45.47554" lon="4.69436">
        <ele>656.2370605</ele>
        <time>2011-06-15T14:13:32Z</time>
      </trkpt>
      <trkpt lat="45.4755" lon="4.69456">
        <ele>661.0437012</ele>
        <time>2011-06-15T14:13:41Z</time>
      </trkpt>
      <trkpt lat="45.47553" lon="4.69481">
        <ele>667.7727051</ele>
        <time>2011-06-15T14:13:55Z</time>
      </trkpt>
      <trkpt lat="45.47557" lon="4.69486">
        <ele>670.1762695</ele>
        <time>2011-06-15T14:13:59Z</time>
      </trkpt>
      <trkpt lat="45.47558" lon="4.69489">
        <ele>671.1376953</ele>
        <time>2011-06-15T14:14:01Z</time>
      </trkpt>
      <trkpt lat="45.4758" lon="4.69519">
        <ele>668.734375</ele>
        <time>2011-06-15T14:14:11Z</time>
      </trkpt>
      <trkpt lat="45.4757" lon="4.6955">
        <ele>650.4692383</ele>
        <time>2011-06-15T14:14:24Z</time>
      </trkpt>
      <trkpt lat="45.47575" lon="4.69583">
        <ele>638.9335938</ele>
        <time>2011-06-15T14:14:43Z</time>
      </trkpt>
      <trkpt lat="45.47586" lon="4.69595">
        <ele>638.9335938</ele>
        <time>2011-06-15T14:14:53Z</time>
      </trkpt>
      <trkpt lat="45.47597" lon="4.69616">
        <ele>637.4914551</ele>
        <time>2011-06-15T14:15:05Z</time>
      </trkpt>
      <trkpt lat="45.4761" lon="4.69646">
        <ele>635.0881348</ele>
        <time>2011-06-15T14:15:21Z</time>
      </trkpt>
      <trkpt lat="45.47626" lon="4.69672">
        <ele>632.6848145</ele>
        <time>2011-06-15T14:15:37Z</time>
      </trkpt>
      <trkpt lat="45.47641" lon="4.69693">
        <ele>630.762207</ele>
        <time>2011-06-15T14:15:53Z</time>
      </trkpt>
      <trkpt lat="45.47661" lon="4.69701">
        <ele>629.8007813</ele>
        <time>2011-06-15T14:16:07Z</time>
      </trkpt>
      <trkpt lat="45.47674" lon="4.69707">
        <ele>629.8007813</ele>
        <time>2011-06-15T14:16:24Z</time>
      </trkpt>
      <trkpt lat="45.47679" lon="4.69712">
        <ele>628.8395996</ele>
        <time>2011-06-15T14:17:04Z</time>
      </trkpt>
      <trkpt lat="45.47681" lon="4.69717">
        <ele>627.3977051</ele>
        <time>2011-06-15T14:17:24Z</time>
      </trkpt>
      <trkpt lat="45.47682" lon="4.6972">
        <ele>627.3977051</ele>
        <time>2011-06-15T14:17:29Z</time>
      </trkpt>
      <trkpt lat="45.47689" lon="4.69724">
        <ele>626.9169922</ele>
        <time>2011-06-15T14:17:34Z</time>
      </trkpt>
      <trkpt lat="45.47713" lon="4.69719">
        <ele>624.5136719</ele>
        <time>2011-06-15T14:17:51Z</time>
      </trkpt>
      <trkpt lat="45.47742" lon="4.69715">
        <ele>625.4748535</ele>
        <time>2011-06-15T14:18:09Z</time>
      </trkpt>
      <trkpt lat="45.47769" lon="4.69716">
        <ele>622.5910645</ele>
        <time>2011-06-15T14:18:30Z</time>
      </trkpt>
      <trkpt lat="45.47792" lon="4.69715">
        <ele>623.5524902</ele>
        <time>2011-06-15T14:18:46Z</time>
      </trkpt>
      <trkpt lat="45.47812" lon="4.69714">
        <ele>623.0717773</ele>
        <time>2011-06-15T14:19:03Z</time>
      </trkpt>
      <trkpt lat="45.47835" lon="4.69724">
        <ele>617.7841797</ele>
        <time>2011-06-15T14:19:21Z</time>
      </trkpt>
      <trkpt lat="45.47863" lon="4.69732">
        <ele>620.1877441</ele>
        <time>2011-06-15T14:19:40Z</time>
      </trkpt>
      <trkpt lat="45.47896" lon="4.69745">
        <ele>621.1491699</ele>
        <time>2011-06-15T14:20:03Z</time>
      </trkpt>
      <trkpt lat="45.47934" lon="4.6976">
        <ele>623.0717773</ele>
        <time>2011-06-15T14:20:29Z</time>
      </trkpt>
      <trkpt lat="45.47948" lon="4.6977">
        <ele>623.5524902</ele>
        <time>2011-06-15T14:20:39Z</time>
      </trkpt>
      <trkpt lat="45.47957" lon="4.69778">
        <ele>623.5524902</ele>
        <time>2011-06-15T14:20:46Z</time>
      </trkpt>
      <trkpt lat="45.47975" lon="4.69801">
        <ele>624.9943848</ele>
        <time>2011-06-15T14:21:03Z</time>
      </trkpt>
      <trkpt lat="45.47994" lon="4.69811">
        <ele>628.3588867</ele>
        <time>2011-06-15T14:21:17Z</time>
      </trkpt>
      <trkpt lat="45.47995" lon="4.69811">
        <ele>628.8395996</ele>
        <time>2011-06-15T14:21:18Z</time>
      </trkpt>
      <trkpt lat="45.48001" lon="4.69815">
        <ele>630.2814941</ele>
        <time>2011-06-15T14:21:22Z</time>
      </trkpt>
      <trkpt lat="45.48008" lon="4.6983">
        <ele>624.5136719</ele>
        <time>2011-06-15T14:21:32Z</time>
      </trkpt>
      <trkpt lat="45.48032" lon="4.69847">
        <ele>625.9555664</ele>
        <time>2011-06-15T14:21:49Z</time>
      </trkpt>
      <trkpt lat="45.48056" lon="4.69858">
        <ele>627.8781738</ele>
        <time>2011-06-15T14:22:07Z</time>
      </trkpt>
      <trkpt lat="45.48077" lon="4.69864">
        <ele>621.1491699</ele>
        <time>2011-06-15T14:22:19Z</time>
      </trkpt>
      <trkpt lat="45.48087" lon="4.69848">
        <ele>623.0717773</ele>
        <time>2011-06-15T14:22:33Z</time>
      </trkpt>
      <trkpt lat="45.48083" lon="4.69811">
        <ele>624.5136719</ele>
        <time>2011-06-15T14:22:52Z</time>
      </trkpt>
      <trkpt lat="45.4808" lon="4.69783">
        <ele>626.4362793</ele>
        <time>2011-06-15T14:23:07Z</time>
      </trkpt>
      <trkpt lat="45.48087" lon="4.69757">
        <ele>629.3200684</ele>
        <time>2011-06-15T14:23:22Z</time>
      </trkpt>
      <trkpt lat="45.48102" lon="4.69719">
        <ele>633.1652832</ele>
        <time>2011-06-15T14:23:43Z</time>
      </trkpt>
      <trkpt lat="45.48112" lon="4.69697">
        <ele>637.0107422</ele>
        <time>2011-06-15T14:23:59Z</time>
      </trkpt>
      <trkpt lat="45.48127" lon="4.69674">
        <ele>640.855957</ele>
        <time>2011-06-15T14:24:17Z</time>
      </trkpt>
      <trkpt lat="45.48141" lon="4.69659">
        <ele>643.2592773</ele>
        <time>2011-06-15T14:24:32Z</time>
      </trkpt>
      <trkpt lat="45.4816" lon="4.69642">
        <ele>644.7011719</ele>
        <time>2011-06-15T14:24:47Z</time>
      </trkpt>
      <trkpt lat="45.48181" lon="4.69622">
        <ele>645.1818848</ele>
        <time>2011-06-15T14:25:04Z</time>
      </trkpt>
      <trkpt lat="45.48197" lon="4.69607">
        <ele>640.3754883</ele>
        <time>2011-06-15T14:25:21Z</time>
      </trkpt>
      <trkpt lat="45.48225" lon="4.69577">
        <ele>640.3754883</ele>
        <time>2011-06-15T14:25:45Z</time>
      </trkpt>
      <trkpt lat="45.48242" lon="4.6956">
        <ele>642.2980957</ele>
        <time>2011-06-15T14:26:02Z</time>
      </trkpt>
      <trkpt lat="45.48266" lon="4.6954">
        <ele>645.6625977</ele>
        <time>2011-06-15T14:26:22Z</time>
      </trkpt>
      <trkpt lat="45.48286" lon="4.69523">
        <ele>647.1044922</ele>
        <time>2011-06-15T14:26:39Z</time>
      </trkpt>
      <trkpt lat="45.48302" lon="4.69512">
        <ele>648.065918</ele>
        <time>2011-06-15T14:26:53Z</time>
      </trkpt>
      <trkpt lat="45.48322" lon="4.69504">
        <ele>646.6240234</ele>
        <time>2011-06-15T14:27:10Z</time>
      </trkpt>
      <trkpt lat="45.4834" lon="4.69499">
        <ele>645.1818848</ele>
        <time>2011-06-15T14:27:25Z</time>
      </trkpt>
      <trkpt lat="45.48364" lon="4.69497">
        <ele>642.2980957</ele>
        <time>2011-06-15T14:27:42Z</time>
      </trkpt>
      <trkpt lat="45.48377" lon="4.69496">
        <ele>643.7399902</ele>
        <time>2011-06-15T14:27:55Z</time>
      </trkpt>
      <trkpt lat="45.48404" lon="4.69501">
        <ele>642.2980957</ele>
        <time>2011-06-15T14:28:17Z</time>
      </trkpt>
      <trkpt lat="45.48435" lon="4.69493">
        <ele>637.972168</ele>
        <time>2011-06-15T14:28:37Z</time>
      </trkpt>
      <trkpt lat="45.48461" lon="4.69462">
        <ele>642.7788086</ele>
        <time>2011-06-15T14:29:01Z</time>
      </trkpt>
      <trkpt lat="45.48468" lon="4.69461">
        <ele>642.2980957</ele>
        <time>2011-06-15T14:29:07Z</time>
      </trkpt>
      <trkpt lat="45.48476" lon="4.69473">
        <ele>643.7399902</ele>
        <time>2011-06-15T14:29:26Z</time>
      </trkpt>
      <trkpt lat="45.48478" lon="4.69473">
        <ele>643.7399902</ele>
        <time>2011-06-15T14:31:21Z</time>
      </trkpt>
      <trkpt lat="45.48483" lon="4.69481">
        <ele>644.2207031</ele>
        <time>2011-06-15T14:32:26Z</time>
      </trkpt>
      <trkpt lat="45.48494" lon="4.69495">
        <ele>644.2207031</ele>
        <time>2011-06-15T14:32:39Z</time>
      </trkpt>
      <trkpt lat="45.48498" lon="4.69498">
        <ele>645.1818848</ele>
        <time>2011-06-15T14:32:42Z</time>
      </trkpt>
      <trkpt lat="45.4851" lon="4.69525">
        <ele>647.5852051</ele>
        <time>2011-06-15T14:33:00Z</time>
      </trkpt>
      <trkpt lat="45.48522" lon="4.69535">
        <ele>651.9111328</ele>
        <time>2011-06-15T14:33:14Z</time>
      </trkpt>
      <trkpt lat="45.48535" lon="4.69529">
        <ele>654.795166</ele>
        <time>2011-06-15T14:33:26Z</time>
      </trkpt>
      <trkpt lat="45.48546" lon="4.69527">
        <ele>656.2370605</ele>
        <time>2011-06-15T14:33:35Z</time>
      </trkpt>
      <trkpt lat="45.48562" lon="4.69528">
        <ele>659.1210938</ele>
        <time>2011-06-15T14:33:48Z</time>
      </trkpt>
      <trkpt lat="45.48579" lon="4.6953">
        <ele>662.9663086</ele>
        <time>2011-06-15T14:34:03Z</time>
      </trkpt>
      <trkpt lat="45.48585" lon="4.69531">
        <ele>664.888916</ele>
        <time>2011-06-15T14:34:09Z</time>
      </trkpt>
      <trkpt lat="45.48602" lon="4.69531">
        <ele>668.2536621</ele>
        <time>2011-06-15T14:34:25Z</time>
      </trkpt>
      <trkpt lat="45.48611" lon="4.69534">
        <ele>670.1762695</ele>
        <time>2011-06-15T14:34:33Z</time>
      </trkpt>
      <trkpt lat="45.4863" lon="4.69539">
        <ele>674.9829102</ele>
        <time>2011-06-15T14:34:50Z</time>
      </trkpt>
      <trkpt lat="45.48641" lon="4.69546">
        <ele>675.9440918</ele>
        <time>2011-06-15T14:35:04Z</time>
      </trkpt>
      <trkpt lat="45.48646" lon="4.69548">
        <ele>677.8666992</ele>
        <time>2011-06-15T14:35:10Z</time>
      </trkpt>
      <trkpt lat="45.48651" lon="4.69558">
        <ele>679.7893066</ele>
        <time>2011-06-15T14:35:22Z</time>
      </trkpt>
      <trkpt lat="45.48655" lon="4.6956">
        <ele>679.3085938</ele>
        <time>2011-06-15T14:35:26Z</time>
      </trkpt>
      <trkpt lat="45.48659" lon="4.69559">
        <ele>679.3085938</ele>
        <time>2011-06-15T14:35:29Z</time>
      </trkpt>
      <trkpt lat="45.48661" lon="4.6956">
        <ele>679.7893066</ele>
        <time>2011-06-15T14:35:31Z</time>
      </trkpt>
      <trkpt lat="45.48665" lon="4.69561">
        <ele>680.2700195</ele>
        <time>2011-06-15T14:35:34Z</time>
      </trkpt>
      <trkpt lat="45.4868" lon="4.69556">
        <ele>684.1154785</ele>
        <time>2011-06-15T14:35:49Z</time>
      </trkpt>
      <trkpt lat="45.48696" lon="4.69553">
        <ele>688.4414063</ele>
        <time>2011-06-15T14:36:03Z</time>
      </trkpt>
      <trkpt lat="45.48706" lon="4.6955">
        <ele>691.8059082</ele>
        <time>2011-06-15T14:36:15Z</time>
      </trkpt>
      <trkpt lat="45.48712" lon="4.6955">
        <ele>692.2866211</ele>
        <time>2011-06-15T14:36:18Z</time>
      </trkpt>
      <trkpt lat="45.48724" lon="4.69548">
        <ele>693.2478027</ele>
        <time>2011-06-15T14:36:27Z</time>
      </trkpt>
      <trkpt lat="45.48734" lon="4.69549">
        <ele>695.651123</ele>
        <time>2011-06-15T14:36:38Z</time>
      </trkpt>
      <trkpt lat="45.48756" lon="4.69546">
        <ele>699.015625</ele>
        <time>2011-06-15T14:36:57Z</time>
      </trkpt>
      <trkpt lat="45.48776" lon="4.69543">
        <ele>704.3032227</ele>
        <time>2011-06-15T14:37:13Z</time>
      </trkpt>
      <trkpt lat="45.48801" lon="4.69538">
        <ele>709.590332</ele>
        <time>2011-06-15T14:37:31Z</time>
      </trkpt>
      <trkpt lat="45.48823" lon="4.69532">
        <ele>715.3581543</ele>
        <time>2011-06-15T14:37:48Z</time>
      </trkpt>
      <trkpt lat="45.4884" lon="4.69529">
        <ele>712.954834</ele>
        <time>2011-06-15T14:38:03Z</time>
      </trkpt>
      <trkpt lat="45.4886" lon="4.69519">
        <ele>711.0322266</ele>
        <time>2011-06-15T14:38:21Z</time>
      </trkpt>
      <trkpt lat="45.48875" lon="4.69507">
        <ele>709.590332</ele>
        <time>2011-06-15T14:38:36Z</time>
      </trkpt>
      <trkpt lat="45.48881" lon="4.69501">
        <ele>709.590332</ele>
        <time>2011-06-15T14:38:40Z</time>
      </trkpt>
      <trkpt lat="45.48899" lon="4.69495">
        <ele>707.1870117</ele>
        <time>2011-06-15T14:38:56Z</time>
      </trkpt>
      <trkpt lat="45.48908" lon="4.6949">
        <ele>705.7451172</ele>
        <time>2011-06-15T14:39:08Z</time>
      </trkpt>
      <trkpt lat="45.4892" lon="4.69484">
        <ele>705.2644043</ele>
        <time>2011-06-15T14:39:16Z</time>
      </trkpt>
      <trkpt lat="45.48926" lon="4.69481">
        <ele>705.2644043</ele>
        <time>2011-06-15T14:39:20Z</time>
      </trkpt>
      <trkpt lat="45.48952" lon="4.69468">
        <ele>704.3032227</ele>
        <time>2011-06-15T14:39:35Z</time>
      </trkpt>
      <trkpt lat="45.48968" lon="4.69458">
        <ele>703.3417969</ele>
        <time>2011-06-15T14:39:48Z</time>
      </trkpt>
      <trkpt lat="45.48977" lon="4.69455">
        <ele>702.3803711</ele>
        <time>2011-06-15T14:39:59Z</time>
      </trkpt>
      <trkpt lat="45.48985" lon="4.69445">
        <ele>701.4191895</ele>
        <time>2011-06-15T14:40:07Z</time>
      </trkpt>
      <trkpt lat="45.49002" lon="4.69435">
        <ele>699.4963379</ele>
        <time>2011-06-15T14:40:21Z</time>
      </trkpt>
      <trkpt lat="45.49009" lon="4.69428">
        <ele>698.5349121</ele>
        <time>2011-06-15T14:40:33Z</time>
      </trkpt>
      <trkpt lat="45.49056" lon="4.69382">
        <ele>704.1015625</ele>
      </trkpt>
      <trkpt lat="45.49135" lon="4.69175">
        <ele>700.78125</ele>
      </trkpt>
      <trkpt lat="45.49163" lon="4.69145">
        <ele>693.7421875</ele>
      </trkpt>
      <trkpt lat="45.49263" lon="4.69083">
        <ele>675.8007813</ele>
      </trkpt>
      <trkpt lat="45.49322" lon="4.69074">
        <ele>664.8828125</ele>
      </trkpt>
      <trkpt lat="45.49449" lon="4.69019">
        <ele>652.6679688</ele>
      </trkpt>
      <trkpt lat="45.49506" lon="4.68972">
        <ele>647.9765625</ele>
      </trkpt>
      <trkpt lat="45.49585" lon="4.68938">
        <ele>627.8828125</ele>
      </trkpt>
      <trkpt lat="45.49628" lon="4.68902">
        <ele>619.4726563</ele>
      </trkpt>
      <trkpt lat="45.49755" lon="4.68862">
        <ele>592.1523438</ele>
      </trkpt>
      <trkpt lat="45.49837" lon="4.68829">
        <ele>572.3203125</ele>
      </trkpt>
      <trkpt lat="45.49848" lon="4.68829">
        <ele>569.3164063</ele>
      </trkpt>
      <trkpt lat="45.49875" lon="4.68849">
        <ele>556.7407227</ele>
        <time>2011-06-15T14:56:53Z</time>
      </trkpt>
      <trkpt lat="45.49897" lon="4.68848">
        <ele>552.8952637</ele>
        <time>2011-06-15T14:57:07Z</time>
      </trkpt>
      <trkpt lat="45.49919" lon="4.68847">
        <ele>550.0114746</ele>
        <time>2011-06-15T14:57:22Z</time>
      </trkpt>
      <trkpt lat="45.49924" lon="4.68847">
        <ele>549.0500488</ele>
        <time>2011-06-15T14:57:26Z</time>
      </trkpt>
      <trkpt lat="45.49938" lon="4.68835">
        <ele>545.6855469</ele>
        <time>2011-06-15T14:57:41Z</time>
      </trkpt>
      <trkpt lat="45.49942" lon="4.68837">
        <ele>542.8015137</ele>
        <time>2011-06-15T14:57:55Z</time>
      </trkpt>
      <trkpt lat="45.49954" lon="4.68835">
        <ele>542.3209229</ele>
        <time>2011-06-15T14:59:08Z</time>
      </trkpt>
      <trkpt lat="45.4996" lon="4.68833">
        <ele>540.8789063</ele>
        <time>2011-06-15T14:59:14Z</time>
      </trkpt>
      <trkpt lat="45.49973" lon="4.68827">
        <ele>537.5142822</ele>
        <time>2011-06-15T14:59:29Z</time>
      </trkpt>
      <trkpt lat="45.49986" lon="4.68824">
        <ele>532.2270508</ele>
        <time>2011-06-15T14:59:47Z</time>
      </trkpt>
      <trkpt lat="45.49987" lon="4.68824">
        <ele>530.7851563</ele>
        <time>2011-06-15T14:59:50Z</time>
      </trkpt>
      <trkpt lat="45.4999" lon="4.68825">
        <ele>529.8237305</ele>
        <time>2011-06-15T14:59:52Z</time>
      </trkpt>
      <trkpt lat="45.50001" lon="4.6882">
        <ele>525.0172119</ele>
        <time>2011-06-15T15:00:04Z</time>
      </trkpt>
      <trkpt lat="45.50011" lon="4.68816">
        <ele>520.6912842</ele>
        <time>2011-06-15T15:00:17Z</time>
      </trkpt>
      <trkpt lat="45.5002" lon="4.68822">
        <ele>518.7685547</ele>
        <time>2011-06-15T15:00:28Z</time>
      </trkpt>
      <trkpt lat="45.50035" lon="4.68815">
        <ele>518.7685547</ele>
        <time>2011-06-15T15:00:43Z</time>
      </trkpt>
      <trkpt lat="45.50054" lon="4.68815">
        <ele>515.8846436</ele>
        <time>2011-06-15T15:01:02Z</time>
      </trkpt>
      <trkpt lat="45.50062" lon="4.68815">
        <ele>514.9233398</ele>
        <time>2011-06-15T15:01:08Z</time>
      </trkpt>
      <trkpt lat="45.5007" lon="4.68821">
        <ele>512.5200195</ele>
        <time>2011-06-15T15:01:16Z</time>
      </trkpt>
      <trkpt lat="45.50086" lon="4.68819">
        <ele>511.0780029</ele>
        <time>2011-06-15T15:01:31Z</time>
      </trkpt>
      <trkpt lat="45.50092" lon="4.68817">
        <ele>509.1553955</ele>
        <time>2011-06-15T15:01:39Z</time>
      </trkpt>
      <trkpt lat="45.50108" lon="4.68814">
        <ele>505.7908936</ele>
        <time>2011-06-15T15:01:54Z</time>
      </trkpt>
      <trkpt lat="45.50119" lon="4.68813">
        <ele>504.348877</ele>
        <time>2011-06-15T15:02:02Z</time>
      </trkpt>
      <trkpt lat="45.50134" lon="4.688">
        <ele>500.50354</ele>
        <time>2011-06-15T15:02:14Z</time>
      </trkpt>
      <trkpt lat="45.50137" lon="4.68801">
        <ele>499.5422363</ele>
        <time>2011-06-15T15:02:18Z</time>
      </trkpt>
      <trkpt lat="45.50144" lon="4.68796">
        <ele>496.6583252</ele>
        <time>2011-06-15T15:02:24Z</time>
      </trkpt>
      <trkpt lat="45.50165" lon="4.6879">
        <ele>491.8516846</ele>
        <time>2011-06-15T15:02:41Z</time>
      </trkpt>
      <trkpt lat="45.50171" lon="4.68784">
        <ele>488.9677734</ele>
        <time>2011-06-15T15:02:47Z</time>
      </trkpt>
      <trkpt lat="45.50177" lon="4.68782">
        <ele>487.0450439</ele>
        <time>2011-06-15T15:02:54Z</time>
      </trkpt>
      <trkpt lat="45.50183" lon="4.6878">
        <ele>486.0837402</ele>
        <time>2011-06-15T15:03:01Z</time>
      </trkpt>
      <trkpt lat="45.50191" lon="4.68774">
        <ele>486.0837402</ele>
        <time>2011-06-15T15:03:06Z</time>
      </trkpt>
      <trkpt lat="45.50211" lon="4.68792">
        <ele>481.2772217</ele>
        <time>2011-06-15T15:03:23Z</time>
      </trkpt>
      <trkpt lat="45.50218" lon="4.68797">
        <ele>477.4318848</ele>
        <time>2011-06-15T15:03:32Z</time>
      </trkpt>
      <trkpt lat="45.50222" lon="4.68803">
        <ele>476.4705811</ele>
        <time>2011-06-15T15:03:35Z</time>
      </trkpt>
      <trkpt lat="45.50228" lon="4.68808">
        <ele>474.5479736</ele>
        <time>2011-06-15T15:03:40Z</time>
      </trkpt>
      <trkpt lat="45.50232" lon="4.68808">
        <ele>474.5479736</ele>
        <time>2011-06-15T15:03:43Z</time>
      </trkpt>
      <trkpt lat="45.50242" lon="4.68784">
        <ele>472.1446533</ele>
        <time>2011-06-15T15:04:01Z</time>
      </trkpt>
      <trkpt lat="45.5024" lon="4.68768">
        <ele>467.8187256</ele>
        <time>2011-06-15T15:04:13Z</time>
      </trkpt>
      <trkpt lat="45.5025" lon="4.68756">
        <ele>465.8961182</ele>
        <time>2011-06-15T15:04:28Z</time>
      </trkpt>
      <trkpt lat="45.50254" lon="4.68759">
        <ele>467.3381348</ele>
        <time>2011-06-15T15:04:32Z</time>
      </trkpt>
      <trkpt lat="45.50281" lon="4.68769">
        <ele>469.741333</ele>
        <time>2011-06-15T15:04:52Z</time>
      </trkpt>
      <trkpt lat="45.50297" lon="4.6878">
        <ele>474.0672607</ele>
        <time>2011-06-15T15:05:05Z</time>
      </trkpt>
      <trkpt lat="45.50313" lon="4.68803">
        <ele>469.741333</ele>
        <time>2011-06-15T15:05:24Z</time>
      </trkpt>
      <trkpt lat="45.50327" lon="4.6882">
        <ele>469.2607422</ele>
        <time>2011-06-15T15:05:37Z</time>
      </trkpt>
      <trkpt lat="45.50334" lon="4.68833">
        <ele>455.8022461</ele>
        <time>2011-06-15T15:05:50Z</time>
      </trkpt>
      <trkpt lat="45.50337" lon="4.6884">
        <ele>454.8408203</ele>
        <time>2011-06-15T15:05:55Z</time>
      </trkpt>
      <trkpt lat="45.50343" lon="4.68849">
        <ele>455.8022461</ele>
        <time>2011-06-15T15:05:59Z</time>
      </trkpt>
      <trkpt lat="45.50349" lon="4.68859">
        <ele>456.7635498</ele>
        <time>2011-06-15T15:06:21Z</time>
      </trkpt>
      <trkpt lat="45.50366" lon="4.68846">
        <ele>458.2055664</ele>
        <time>2011-06-15T15:09:16Z</time>
      </trkpt>
      <trkpt lat="45.50368" lon="4.68845">
        <ele>458.2055664</ele>
        <time>2011-06-15T15:09:17Z</time>
      </trkpt>
      <trkpt lat="45.50395" lon="4.68837">
        <ele>460.1281738</ele>
        <time>2011-06-15T15:09:35Z</time>
      </trkpt>
      <trkpt lat="45.504" lon="4.68817">
        <ele>462.5313721</ele>
        <time>2011-06-15T15:09:50Z</time>
      </trkpt>
      <trkpt lat="45.50393" lon="4.68793">
        <ele>465.4155273</ele>
        <time>2011-06-15T15:10:04Z</time>
      </trkpt>
      <trkpt lat="45.50392" lon="4.68774">
        <ele>464.4541016</ele>
        <time>2011-06-15T15:10:18Z</time>
      </trkpt>
      <trkpt lat="45.50389" lon="4.68764">
        <ele>461.5701904</ele>
        <time>2011-06-15T15:10:24Z</time>
      </trkpt>
      <trkpt lat="45.5038" lon="4.6874">
        <ele>457.7249756</ele>
        <time>2011-06-15T15:10:41Z</time>
      </trkpt>
      <trkpt lat="45.50371" lon="4.68713">
        <ele>461.0894775</ele>
        <time>2011-06-15T15:10:57Z</time>
      </trkpt>
      <trkpt lat="45.5036" lon="4.68698">
        <ele>467.3381348</ele>
        <time>2011-06-15T15:11:11Z</time>
      </trkpt>
      <trkpt lat="45.50353" lon="4.68685">
        <ele>472.1446533</ele>
        <time>2011-06-15T15:11:20Z</time>
      </trkpt>
      <trkpt lat="45.50345" lon="4.68665">
        <ele>477.9124756</ele>
        <time>2011-06-15T15:11:33Z</time>
      </trkpt>
      <trkpt lat="45.50345" lon="4.68639">
        <ele>481.2772217</ele>
        <time>2011-06-15T15:11:47Z</time>
      </trkpt>
      <trkpt lat="45.50344" lon="4.68612">
        <ele>484.1611328</ele>
        <time>2011-06-15T15:12:01Z</time>
      </trkpt>
      <trkpt lat="45.50344" lon="4.68603">
        <ele>486.0837402</ele>
        <time>2011-06-15T15:12:06Z</time>
      </trkpt>
      <trkpt lat="45.50347" lon="4.68593">
        <ele>487.5256348</ele>
        <time>2011-06-15T15:12:10Z</time>
      </trkpt>
      <trkpt lat="45.50345" lon="4.68586">
        <ele>489.9290771</ele>
        <time>2011-06-15T15:12:15Z</time>
      </trkpt>
      <trkpt lat="45.50344" lon="4.68581">
        <ele>488.0064697</ele>
        <time>2011-06-15T15:12:18Z</time>
      </trkpt>
      <trkpt lat="45.50332" lon="4.68563">
        <ele>492.3323975</ele>
        <time>2011-06-15T15:12:34Z</time>
      </trkpt>
      <trkpt lat="45.50329" lon="4.68556">
        <ele>477.9124756</ele>
        <time>2011-06-15T15:12:47Z</time>
      </trkpt>
    </trkseg>
  </trk>
</gpx>